<?xml version="1.0" encoding="UTF-8" standalone="no" ?>
<gpx xmlns="http://www.topografix.com/GPX/1/1" xmlns:xsi="http://www.w3.org/2001/XMLSchema-instance" xsi:schemaLocation="http://www.topografix.com/GPX/1/1 http://www.topografix.com/GPX/1/1/gpx.xsd" version="1.1" creator="VisuGPX - https://www.visugpx.com">
  <metadata>
    <name>8 mai 2021 10:11:14</name>
    <desc><![CDATA[petite balade près de l abbaye de Cernay agréable ]]></desc>
  </metadata>
  <trk>
    <name><![CDATA[8 mai 2021 10:11:14]]></name>
    <extensions>
      <line xmlns="http://www.topografix.com/GPX/gpx_style/0/2">
        <color>0000FF</color>
        <width>4</width>
      </line>
    </extensions>
    <trkseg>
      <trkpt lat="48.67609" lon="1.91602">
        <ele>219.88</ele>
        <time>2021-05-08T08:11:16.045Z</time>
      </trkpt>
      <trkpt lat="48.67601" lon="1.91593">
        <ele>219.27</ele>
        <time>2021-05-08T08:11:52.000Z</time>
      </trkpt>
      <trkpt lat="48.67593" lon="1.9159">
        <ele>218.62</ele>
        <time>2021-05-08T08:12:06.000Z</time>
      </trkpt>
      <trkpt lat="48.67584" lon="1.91588">
        <ele>217.82</ele>
        <time>2021-05-08T08:12:17.000Z</time>
      </trkpt>
      <trkpt lat="48.67576" lon="1.91581">
        <ele>217.43</ele>
        <time>2021-05-08T08:12:28.000Z</time>
      </trkpt>
      <trkpt lat="48.67566" lon="1.91579">
        <ele>217.02</ele>
        <time>2021-05-08T08:12:39.000Z</time>
      </trkpt>
      <trkpt lat="48.67557" lon="1.91575">
        <ele>216.7</ele>
        <time>2021-05-08T08:12:48.000Z</time>
      </trkpt>
      <trkpt lat="48.67548" lon="1.91572">
        <ele>216.31</ele>
        <time>2021-05-08T08:12:59.000Z</time>
      </trkpt>
      <trkpt lat="48.67539" lon="1.91569">
        <ele>216</ele>
        <time>2021-05-08T08:13:10.000Z</time>
      </trkpt>
      <trkpt lat="48.67529" lon="1.91565">
        <ele>215.82</ele>
        <time>2021-05-08T08:13:17.000Z</time>
      </trkpt>
      <trkpt lat="48.67521" lon="1.9156">
        <ele>215.62</ele>
        <time>2021-05-08T08:13:25.000Z</time>
      </trkpt>
      <trkpt lat="48.67513" lon="1.91551">
        <ele>215.45</ele>
        <time>2021-05-08T08:13:34.000Z</time>
      </trkpt>
      <trkpt lat="48.67505" lon="1.91544">
        <ele>215.38</ele>
        <time>2021-05-08T08:13:42.000Z</time>
      </trkpt>
      <trkpt lat="48.67496" lon="1.9154">
        <ele>215.4</ele>
        <time>2021-05-08T08:13:50.000Z</time>
      </trkpt>
      <trkpt lat="48.67486" lon="1.91537">
        <ele>215.41</ele>
        <time>2021-05-08T08:13:56.000Z</time>
      </trkpt>
      <trkpt lat="48.67477" lon="1.91533">
        <ele>215.44</ele>
        <time>2021-05-08T08:14:03.000Z</time>
      </trkpt>
      <trkpt lat="48.67468" lon="1.91529">
        <ele>215.44</ele>
        <time>2021-05-08T08:14:12.000Z</time>
      </trkpt>
      <trkpt lat="48.67462" lon="1.91519">
        <ele>215.43</ele>
        <time>2021-05-08T08:14:19.000Z</time>
      </trkpt>
      <trkpt lat="48.67458" lon="1.91505">
        <ele>215.75</ele>
        <time>2021-05-08T08:14:49.000Z</time>
      </trkpt>
      <trkpt lat="48.67457" lon="1.91491">
        <ele>215.84</ele>
        <time>2021-05-08T08:14:56.000Z</time>
      </trkpt>
      <trkpt lat="48.67455" lon="1.91477">
        <ele>215.89</ele>
        <time>2021-05-08T08:15:03.000Z</time>
      </trkpt>
      <trkpt lat="48.67453" lon="1.91463">
        <ele>215.94</ele>
        <time>2021-05-08T08:15:11.000Z</time>
      </trkpt>
      <trkpt lat="48.67454" lon="1.91448">
        <ele>216.02</ele>
        <time>2021-05-08T08:15:20.000Z</time>
      </trkpt>
      <trkpt lat="48.67454" lon="1.91433">
        <ele>216.09</ele>
        <time>2021-05-08T08:15:29.000Z</time>
      </trkpt>
      <trkpt lat="48.67455" lon="1.91419">
        <ele>216.15</ele>
        <time>2021-05-08T08:15:37.000Z</time>
      </trkpt>
      <trkpt lat="48.67457" lon="1.91405">
        <ele>216.22</ele>
        <time>2021-05-08T08:15:45.000Z</time>
      </trkpt>
      <trkpt lat="48.67459" lon="1.91391">
        <ele>216.3</ele>
        <time>2021-05-08T08:15:53.000Z</time>
      </trkpt>
      <trkpt lat="48.6746" lon="1.91376">
        <ele>216.42</ele>
        <time>2021-05-08T08:16:02.000Z</time>
      </trkpt>
      <trkpt lat="48.67462" lon="1.91362">
        <ele>216.53</ele>
        <time>2021-05-08T08:16:10.000Z</time>
      </trkpt>
      <trkpt lat="48.67463" lon="1.91347">
        <ele>216.65</ele>
        <time>2021-05-08T08:16:19.000Z</time>
      </trkpt>
      <trkpt lat="48.67465" lon="1.91332">
        <ele>216.77</ele>
        <time>2021-05-08T08:16:27.000Z</time>
      </trkpt>
      <trkpt lat="48.67458" lon="1.91321">
        <ele>216.93</ele>
        <time>2021-05-08T08:16:37.000Z</time>
      </trkpt>
      <trkpt lat="48.67449" lon="1.91318">
        <ele>217.04</ele>
        <time>2021-05-08T08:16:45.000Z</time>
      </trkpt>
      <trkpt lat="48.6744" lon="1.91316">
        <ele>217.19</ele>
        <time>2021-05-08T08:16:54.000Z</time>
      </trkpt>
      <trkpt lat="48.67433" lon="1.91307">
        <ele>217.59</ele>
        <time>2021-05-08T08:17:22.000Z</time>
      </trkpt>
      <trkpt lat="48.67422" lon="1.91302">
        <ele>217.74</ele>
        <time>2021-05-08T08:17:30.000Z</time>
      </trkpt>
      <trkpt lat="48.67413" lon="1.91301">
        <ele>217.87</ele>
        <time>2021-05-08T08:17:38.000Z</time>
      </trkpt>
      <trkpt lat="48.67403" lon="1.91301">
        <ele>217.97</ele>
        <time>2021-05-08T08:17:46.000Z</time>
      </trkpt>
      <trkpt lat="48.67394" lon="1.91299">
        <ele>218.06</ele>
        <time>2021-05-08T08:17:55.000Z</time>
      </trkpt>
      <trkpt lat="48.67385" lon="1.91296">
        <ele>218.11</ele>
        <time>2021-05-08T08:18:03.000Z</time>
      </trkpt>
      <trkpt lat="48.67375" lon="1.91292">
        <ele>218.15</ele>
        <time>2021-05-08T08:18:12.000Z</time>
      </trkpt>
      <trkpt lat="48.67366" lon="1.91288">
        <ele>218.18</ele>
        <time>2021-05-08T08:18:18.000Z</time>
      </trkpt>
      <trkpt lat="48.67356" lon="1.91285">
        <ele>218.21</ele>
        <time>2021-05-08T08:18:27.000Z</time>
      </trkpt>
      <trkpt lat="48.67348" lon="1.91282">
        <ele>218.23</ele>
        <time>2021-05-08T08:18:35.000Z</time>
      </trkpt>
      <trkpt lat="48.67338" lon="1.91279">
        <ele>218.24</ele>
        <time>2021-05-08T08:18:44.000Z</time>
      </trkpt>
      <trkpt lat="48.67329" lon="1.91274">
        <ele>218.26</ele>
        <time>2021-05-08T08:18:51.000Z</time>
      </trkpt>
      <trkpt lat="48.6732" lon="1.91268">
        <ele>218.27</ele>
        <time>2021-05-08T08:18:58.000Z</time>
      </trkpt>
      <trkpt lat="48.67311" lon="1.91262">
        <ele>218.29</ele>
        <time>2021-05-08T08:19:05.000Z</time>
      </trkpt>
      <trkpt lat="48.67304" lon="1.91251">
        <ele>218.31</ele>
        <time>2021-05-08T08:19:13.000Z</time>
      </trkpt>
      <trkpt lat="48.673" lon="1.91237">
        <ele>218.34</ele>
        <time>2021-05-08T08:19:21.000Z</time>
      </trkpt>
      <trkpt lat="48.67296" lon="1.91223">
        <ele>218.38</ele>
        <time>2021-05-08T08:19:28.000Z</time>
      </trkpt>
      <trkpt lat="48.67289" lon="1.91211">
        <ele>218.43</ele>
        <time>2021-05-08T08:19:36.000Z</time>
      </trkpt>
      <trkpt lat="48.67283" lon="1.912">
        <ele>218.44</ele>
        <time>2021-05-08T08:19:43.000Z</time>
      </trkpt>
      <trkpt lat="48.67277" lon="1.91187">
        <ele>218.41</ele>
        <time>2021-05-08T08:19:51.000Z</time>
      </trkpt>
      <trkpt lat="48.6727" lon="1.91177">
        <ele>218.4</ele>
        <time>2021-05-08T08:19:58.000Z</time>
      </trkpt>
      <trkpt lat="48.67265" lon="1.91165">
        <ele>218.38</ele>
        <time>2021-05-08T08:20:05.000Z</time>
      </trkpt>
      <trkpt lat="48.67261" lon="1.91153">
        <ele>218.33</ele>
        <time>2021-05-08T08:20:13.000Z</time>
      </trkpt>
      <trkpt lat="48.67256" lon="1.91141">
        <ele>218.27</ele>
        <time>2021-05-08T08:20:21.000Z</time>
      </trkpt>
      <trkpt lat="48.67249" lon="1.9113">
        <ele>218.21</ele>
        <time>2021-05-08T08:20:30.000Z</time>
      </trkpt>
      <trkpt lat="48.67244" lon="1.91118">
        <ele>218.14</ele>
        <time>2021-05-08T08:20:37.000Z</time>
      </trkpt>
      <trkpt lat="48.67239" lon="1.91107">
        <ele>218.05</ele>
        <time>2021-05-08T08:20:44.000Z</time>
      </trkpt>
      <trkpt lat="48.67234" lon="1.91094">
        <ele>217.94</ele>
        <time>2021-05-08T08:20:53.000Z</time>
      </trkpt>
      <trkpt lat="48.67232" lon="1.91079">
        <ele>217.88</ele>
        <time>2021-05-08T08:21:00.000Z</time>
      </trkpt>
      <trkpt lat="48.6723" lon="1.91065">
        <ele>217.86</ele>
        <time>2021-05-08T08:21:07.999Z</time>
      </trkpt>
      <trkpt lat="48.67226" lon="1.91051">
        <ele>217.84</ele>
        <time>2021-05-08T08:21:15.999Z</time>
      </trkpt>
      <trkpt lat="48.67221" lon="1.91038">
        <ele>217.81</ele>
        <time>2021-05-08T08:21:23.999Z</time>
      </trkpt>
      <trkpt lat="48.67217" lon="1.91025">
        <ele>217.79</ele>
        <time>2021-05-08T08:21:31.999Z</time>
      </trkpt>
      <trkpt lat="48.67215" lon="1.91011">
        <ele>217.79</ele>
        <time>2021-05-08T08:21:39.999Z</time>
      </trkpt>
      <trkpt lat="48.67211" lon="1.90998">
        <ele>217.78</ele>
        <time>2021-05-08T08:21:47.999Z</time>
      </trkpt>
      <trkpt lat="48.67207" lon="1.90984">
        <ele>217.76</ele>
        <time>2021-05-08T08:21:56.999Z</time>
      </trkpt>
      <trkpt lat="48.67205" lon="1.90971">
        <ele>217.75</ele>
        <time>2021-05-08T08:22:04.999Z</time>
      </trkpt>
      <trkpt lat="48.67204" lon="1.90957">
        <ele>217.72</ele>
        <time>2021-05-08T08:22:11.999Z</time>
      </trkpt>
      <trkpt lat="48.67202" lon="1.90944">
        <ele>217.69</ele>
        <time>2021-05-08T08:22:20.999Z</time>
      </trkpt>
      <trkpt lat="48.67201" lon="1.90929">
        <ele>217.65</ele>
        <time>2021-05-08T08:22:28.999Z</time>
      </trkpt>
      <trkpt lat="48.67198" lon="1.90916">
        <ele>217.63</ele>
        <time>2021-05-08T08:22:36.999Z</time>
      </trkpt>
      <trkpt lat="48.67195" lon="1.90904">
        <ele>217.61</ele>
        <time>2021-05-08T08:22:43.999Z</time>
      </trkpt>
      <trkpt lat="48.67191" lon="1.9089">
        <ele>217.58</ele>
        <time>2021-05-08T08:22:51.999Z</time>
      </trkpt>
      <trkpt lat="48.67188" lon="1.90876">
        <ele>217.54</ele>
        <time>2021-05-08T08:22:59.999Z</time>
      </trkpt>
      <trkpt lat="48.67185" lon="1.90863">
        <ele>217.49</ele>
        <time>2021-05-08T08:23:06.999Z</time>
      </trkpt>
      <trkpt lat="48.67181" lon="1.9085">
        <ele>217.45</ele>
        <time>2021-05-08T08:23:14.999Z</time>
      </trkpt>
      <trkpt lat="48.6718" lon="1.90836">
        <ele>217.41</ele>
        <time>2021-05-08T08:23:21.999Z</time>
      </trkpt>
      <trkpt lat="48.67179" lon="1.90821">
        <ele>217.38</ele>
        <time>2021-05-08T08:23:29.999Z</time>
      </trkpt>
      <trkpt lat="48.67175" lon="1.90808">
        <ele>217.36</ele>
        <time>2021-05-08T08:23:37.999Z</time>
      </trkpt>
      <trkpt lat="48.67169" lon="1.90797">
        <ele>217.34</ele>
        <time>2021-05-08T08:23:45.999Z</time>
      </trkpt>
      <trkpt lat="48.67165" lon="1.90785">
        <ele>217.34</ele>
        <time>2021-05-08T08:23:53.999Z</time>
      </trkpt>
      <trkpt lat="48.67161" lon="1.90773">
        <ele>217.35</ele>
        <time>2021-05-08T08:23:58.999Z</time>
      </trkpt>
      <trkpt lat="48.67159" lon="1.90759">
        <ele>217.38</ele>
        <time>2021-05-08T08:24:07.999Z</time>
      </trkpt>
      <trkpt lat="48.67157" lon="1.90746">
        <ele>217.42</ele>
        <time>2021-05-08T08:24:16.999Z</time>
      </trkpt>
      <trkpt lat="48.67155" lon="1.90732">
        <ele>217.47</ele>
        <time>2021-05-08T08:24:25.999Z</time>
      </trkpt>
      <trkpt lat="48.6715" lon="1.9072">
        <ele>217.53</ele>
        <time>2021-05-08T08:24:33.999Z</time>
      </trkpt>
      <trkpt lat="48.67147" lon="1.90705">
        <ele>217.58</ele>
        <time>2021-05-08T08:24:41.999Z</time>
      </trkpt>
      <trkpt lat="48.67146" lon="1.90691">
        <ele>217.62</ele>
        <time>2021-05-08T08:24:48.999Z</time>
      </trkpt>
      <trkpt lat="48.67145" lon="1.90676">
        <ele>217.65</ele>
        <time>2021-05-08T08:24:56.999Z</time>
      </trkpt>
      <trkpt lat="48.67145" lon="1.90661">
        <ele>217.68</ele>
        <time>2021-05-08T08:25:04.999Z</time>
      </trkpt>
      <trkpt lat="48.6714" lon="1.90649">
        <ele>217.71</ele>
        <time>2021-05-08T08:25:11.999Z</time>
      </trkpt>
      <trkpt lat="48.67136" lon="1.90636">
        <ele>217.73</ele>
        <time>2021-05-08T08:25:18.999Z</time>
      </trkpt>
      <trkpt lat="48.67133" lon="1.90623">
        <ele>217.77</ele>
        <time>2021-05-08T08:25:27.999Z</time>
      </trkpt>
      <trkpt lat="48.67129" lon="1.90609">
        <ele>217.79</ele>
        <time>2021-05-08T08:25:35.999Z</time>
      </trkpt>
      <trkpt lat="48.67127" lon="1.90594">
        <ele>217.85</ele>
        <time>2021-05-08T08:25:44.999Z</time>
      </trkpt>
      <trkpt lat="48.67125" lon="1.9058">
        <ele>217.92</ele>
        <time>2021-05-08T08:25:52.999Z</time>
      </trkpt>
      <trkpt lat="48.67122" lon="1.90566">
        <ele>217.99</ele>
        <time>2021-05-08T08:26:00.999Z</time>
      </trkpt>
      <trkpt lat="48.67118" lon="1.9055">
        <ele>218.06</ele>
        <time>2021-05-08T08:26:11.999Z</time>
      </trkpt>
      <trkpt lat="48.67115" lon="1.90537">
        <ele>218.1</ele>
        <time>2021-05-08T08:26:20.999Z</time>
      </trkpt>
      <trkpt lat="48.67113" lon="1.90522">
        <ele>218.11</ele>
        <time>2021-05-08T08:26:29.999Z</time>
      </trkpt>
      <trkpt lat="48.6711" lon="1.90508">
        <ele>218.1</ele>
        <time>2021-05-08T08:26:38.999Z</time>
      </trkpt>
      <trkpt lat="48.67107" lon="1.90494">
        <ele>218.08</ele>
        <time>2021-05-08T08:26:46.999Z</time>
      </trkpt>
      <trkpt lat="48.67104" lon="1.90481">
        <ele>218.06</ele>
        <time>2021-05-08T08:26:54.999Z</time>
      </trkpt>
      <trkpt lat="48.67102" lon="1.90467">
        <ele>218.03</ele>
        <time>2021-05-08T08:27:02.999Z</time>
      </trkpt>
      <trkpt lat="48.67101" lon="1.90453">
        <ele>218.01</ele>
        <time>2021-05-08T08:27:09.999Z</time>
      </trkpt>
      <trkpt lat="48.671" lon="1.9044">
        <ele>218</ele>
        <time>2021-05-08T08:27:15.999Z</time>
      </trkpt>
      <trkpt lat="48.67097" lon="1.90426">
        <ele>217.97</ele>
        <time>2021-05-08T08:27:23.999Z</time>
      </trkpt>
      <trkpt lat="48.67094" lon="1.90411">
        <ele>217.94</ele>
        <time>2021-05-08T08:27:33.999Z</time>
      </trkpt>
      <trkpt lat="48.67091" lon="1.90398">
        <ele>217.92</ele>
        <time>2021-05-08T08:27:41.999Z</time>
      </trkpt>
      <trkpt lat="48.67088" lon="1.90383">
        <ele>217.9</ele>
        <time>2021-05-08T08:27:49.999Z</time>
      </trkpt>
      <trkpt lat="48.67085" lon="1.90369">
        <ele>217.87</ele>
        <time>2021-05-08T08:27:56.999Z</time>
      </trkpt>
      <trkpt lat="48.67082" lon="1.90355">
        <ele>217.85</ele>
        <time>2021-05-08T08:28:03.999Z</time>
      </trkpt>
      <trkpt lat="48.67078" lon="1.90342">
        <ele>217.83</ele>
        <time>2021-05-08T08:28:10.999Z</time>
      </trkpt>
      <trkpt lat="48.67074" lon="1.90328">
        <ele>217.82</ele>
        <time>2021-05-08T08:28:19.999Z</time>
      </trkpt>
      <trkpt lat="48.67073" lon="1.90314">
        <ele>217.8</ele>
        <time>2021-05-08T08:28:26.999Z</time>
      </trkpt>
      <trkpt lat="48.67071" lon="1.90301">
        <ele>217.79</ele>
        <time>2021-05-08T08:28:33.999Z</time>
      </trkpt>
      <trkpt lat="48.67068" lon="1.90287">
        <ele>217.77</ele>
        <time>2021-05-08T08:28:42.999Z</time>
      </trkpt>
      <trkpt lat="48.67066" lon="1.90273">
        <ele>217.75</ele>
        <time>2021-05-08T08:28:51.999Z</time>
      </trkpt>
      <trkpt lat="48.67064" lon="1.90259">
        <ele>217.74</ele>
        <time>2021-05-08T08:28:59.999Z</time>
      </trkpt>
      <trkpt lat="48.67061" lon="1.90246">
        <ele>217.71</ele>
        <time>2021-05-08T08:29:08.999Z</time>
      </trkpt>
      <trkpt lat="48.67058" lon="1.90233">
        <ele>217.71</ele>
        <time>2021-05-08T08:29:28.999Z</time>
      </trkpt>
      <trkpt lat="48.67053" lon="1.90221">
        <ele>217.87</ele>
        <time>2021-05-08T08:29:49.999Z</time>
      </trkpt>
      <trkpt lat="48.67049" lon="1.90209">
        <ele>217.93</ele>
        <time>2021-05-08T08:30:10.999Z</time>
      </trkpt>
      <trkpt lat="48.67046" lon="1.90195">
        <ele>218.02</ele>
        <time>2021-05-08T08:30:26.999Z</time>
      </trkpt>
      <trkpt lat="48.67044" lon="1.90182">
        <ele>218.09</ele>
        <time>2021-05-08T08:30:38.999Z</time>
      </trkpt>
      <trkpt lat="48.67042" lon="1.90167">
        <ele>218.13</ele>
        <time>2021-05-08T08:30:48.999Z</time>
      </trkpt>
      <trkpt lat="48.6704" lon="1.90153">
        <ele>218.15</ele>
        <time>2021-05-08T08:30:58.999Z</time>
      </trkpt>
      <trkpt lat="48.67038" lon="1.90138">
        <ele>218.15</ele>
        <time>2021-05-08T08:31:08.999Z</time>
      </trkpt>
      <trkpt lat="48.67035" lon="1.90125">
        <ele>218.14</ele>
        <time>2021-05-08T08:31:15.999Z</time>
      </trkpt>
      <trkpt lat="48.6703" lon="1.90114">
        <ele>218.13</ele>
        <time>2021-05-08T08:31:26.999Z</time>
      </trkpt>
      <trkpt lat="48.67025" lon="1.90101">
        <ele>218.14</ele>
        <time>2021-05-08T08:31:33.999Z</time>
      </trkpt>
      <trkpt lat="48.67022" lon="1.90086">
        <ele>218.13</ele>
        <time>2021-05-08T08:31:43.999Z</time>
      </trkpt>
      <trkpt lat="48.6702" lon="1.90072">
        <ele>218.12</ele>
        <time>2021-05-08T08:31:51.999Z</time>
      </trkpt>
      <trkpt lat="48.67016" lon="1.9006">
        <ele>218.1</ele>
        <time>2021-05-08T08:31:58.999Z</time>
      </trkpt>
      <trkpt lat="48.67011" lon="1.90047">
        <ele>218.09</ele>
        <time>2021-05-08T08:32:07.999Z</time>
      </trkpt>
      <trkpt lat="48.67008" lon="1.90033">
        <ele>218.07</ele>
        <time>2021-05-08T08:32:15.999Z</time>
      </trkpt>
      <trkpt lat="48.67004" lon="1.9002">
        <ele>218.04</ele>
        <time>2021-05-08T08:32:22.999Z</time>
      </trkpt>
      <trkpt lat="48.66998" lon="1.90009">
        <ele>218.03</ele>
        <time>2021-05-08T08:32:29.999Z</time>
      </trkpt>
      <trkpt lat="48.66994" lon="1.89996">
        <ele>218.01</ele>
        <time>2021-05-08T08:32:39.999Z</time>
      </trkpt>
      <trkpt lat="48.66989" lon="1.89983">
        <ele>218.02</ele>
        <time>2021-05-08T08:32:47.999Z</time>
      </trkpt>
      <trkpt lat="48.66986" lon="1.8997">
        <ele>218.02</ele>
        <time>2021-05-08T08:32:55.999Z</time>
      </trkpt>
      <trkpt lat="48.66983" lon="1.89957">
        <ele>218.02</ele>
        <time>2021-05-08T08:33:02.999Z</time>
      </trkpt>
      <trkpt lat="48.6698" lon="1.89943">
        <ele>218.02</ele>
        <time>2021-05-08T08:33:12.999Z</time>
      </trkpt>
      <trkpt lat="48.66977" lon="1.8993">
        <ele>218.02</ele>
        <time>2021-05-08T08:33:19.999Z</time>
      </trkpt>
      <trkpt lat="48.66975" lon="1.89915">
        <ele>218.01</ele>
        <time>2021-05-08T08:33:28.999Z</time>
      </trkpt>
      <trkpt lat="48.6697" lon="1.89904">
        <ele>218.01</ele>
        <time>2021-05-08T08:33:35.999Z</time>
      </trkpt>
      <trkpt lat="48.66969" lon="1.89918">
        <ele>218.03</ele>
        <time>2021-05-08T08:34:47.999Z</time>
      </trkpt>
      <trkpt lat="48.6697" lon="1.89932">
        <ele>218</ele>
        <time>2021-05-08T08:34:57.999Z</time>
      </trkpt>
      <trkpt lat="48.66971" lon="1.89917">
        <ele>218.07</ele>
        <time>2021-05-08T08:35:30.999Z</time>
      </trkpt>
      <trkpt lat="48.66969" lon="1.89903">
        <ele>218.2</ele>
        <time>2021-05-08T08:36:13.999Z</time>
      </trkpt>
      <trkpt lat="48.66968" lon="1.89888">
        <ele>218.22</ele>
        <time>2021-05-08T08:36:22.999Z</time>
      </trkpt>
      <trkpt lat="48.66965" lon="1.89874">
        <ele>218.24</ele>
        <time>2021-05-08T08:36:29.999Z</time>
      </trkpt>
      <trkpt lat="48.66965" lon="1.89861">
        <ele>218.27</ele>
        <time>2021-05-08T08:37:18.999Z</time>
      </trkpt>
      <trkpt lat="48.66963" lon="1.89846">
        <ele>218.33</ele>
        <time>2021-05-08T08:37:47.999Z</time>
      </trkpt>
      <trkpt lat="48.66959" lon="1.89833">
        <ele>218.35</ele>
        <time>2021-05-08T08:37:56.999Z</time>
      </trkpt>
      <trkpt lat="48.66953" lon="1.89822">
        <ele>218.36</ele>
        <time>2021-05-08T08:38:04.999Z</time>
      </trkpt>
      <trkpt lat="48.6695" lon="1.89808">
        <ele>218.36</ele>
        <time>2021-05-08T08:38:12.999Z</time>
      </trkpt>
      <trkpt lat="48.66947" lon="1.89796">
        <ele>218.35</ele>
        <time>2021-05-08T08:38:21.999Z</time>
      </trkpt>
      <trkpt lat="48.66943" lon="1.89783">
        <ele>218.34</ele>
        <time>2021-05-08T08:38:28.999Z</time>
      </trkpt>
      <trkpt lat="48.6694" lon="1.89769">
        <ele>218.34</ele>
        <time>2021-05-08T08:38:37.999Z</time>
      </trkpt>
      <trkpt lat="48.66936" lon="1.89756">
        <ele>218.35</ele>
        <time>2021-05-08T08:38:47.999Z</time>
      </trkpt>
      <trkpt lat="48.66932" lon="1.89742">
        <ele>218.35</ele>
        <time>2021-05-08T08:38:55.999Z</time>
      </trkpt>
      <trkpt lat="48.66928" lon="1.89729">
        <ele>218.34</ele>
        <time>2021-05-08T08:39:04.999Z</time>
      </trkpt>
      <trkpt lat="48.66924" lon="1.89716">
        <ele>218.32</ele>
        <time>2021-05-08T08:39:14.999Z</time>
      </trkpt>
      <trkpt lat="48.66921" lon="1.89703">
        <ele>218.29</ele>
        <time>2021-05-08T08:39:22.999Z</time>
      </trkpt>
      <trkpt lat="48.66919" lon="1.89689">
        <ele>218.26</ele>
        <time>2021-05-08T08:39:29.999Z</time>
      </trkpt>
      <trkpt lat="48.66915" lon="1.89677">
        <ele>218.21</ele>
        <time>2021-05-08T08:39:37.999Z</time>
      </trkpt>
      <trkpt lat="48.66911" lon="1.89664">
        <ele>218.16</ele>
        <time>2021-05-08T08:39:46.999Z</time>
      </trkpt>
      <trkpt lat="48.66908" lon="1.89651">
        <ele>218.1</ele>
        <time>2021-05-08T08:39:57.999Z</time>
      </trkpt>
      <trkpt lat="48.66903" lon="1.89638">
        <ele>218.04</ele>
        <time>2021-05-08T08:40:08.999Z</time>
      </trkpt>
      <trkpt lat="48.66899" lon="1.89625">
        <ele>217.99</ele>
        <time>2021-05-08T08:40:18.999Z</time>
      </trkpt>
      <trkpt lat="48.66894" lon="1.89612">
        <ele>217.94</ele>
        <time>2021-05-08T08:40:28.999Z</time>
      </trkpt>
      <trkpt lat="48.66889" lon="1.896">
        <ele>217.9</ele>
        <time>2021-05-08T08:40:37.999Z</time>
      </trkpt>
      <trkpt lat="48.66884" lon="1.89587">
        <ele>217.86</ele>
        <time>2021-05-08T08:40:49.999Z</time>
      </trkpt>
      <trkpt lat="48.66881" lon="1.89573">
        <ele>217.84</ele>
        <time>2021-05-08T08:40:57.999Z</time>
      </trkpt>
      <trkpt lat="48.66877" lon="1.8956">
        <ele>217.82</ele>
        <time>2021-05-08T08:41:04.999Z</time>
      </trkpt>
      <trkpt lat="48.66874" lon="1.89547">
        <ele>217.79</ele>
        <time>2021-05-08T08:41:12.999Z</time>
      </trkpt>
      <trkpt lat="48.66871" lon="1.89534">
        <ele>217.77</ele>
        <time>2021-05-08T08:41:20.999Z</time>
      </trkpt>
      <trkpt lat="48.66867" lon="1.8952">
        <ele>217.75</ele>
        <time>2021-05-08T08:41:30.000Z</time>
      </trkpt>
      <trkpt lat="48.66863" lon="1.89508">
        <ele>217.73</ele>
        <time>2021-05-08T08:41:40.000Z</time>
      </trkpt>
      <trkpt lat="48.66859" lon="1.89494">
        <ele>217.71</ele>
        <time>2021-05-08T08:41:48.000Z</time>
      </trkpt>
      <trkpt lat="48.66855" lon="1.8948">
        <ele>217.68</ele>
        <time>2021-05-08T08:41:57.000Z</time>
      </trkpt>
      <trkpt lat="48.66851" lon="1.89467">
        <ele>217.64</ele>
        <time>2021-05-08T08:42:05.000Z</time>
      </trkpt>
      <trkpt lat="48.66847" lon="1.89454">
        <ele>217.61</ele>
        <time>2021-05-08T08:42:13.000Z</time>
      </trkpt>
      <trkpt lat="48.66843" lon="1.89441">
        <ele>217.59</ele>
        <time>2021-05-08T08:42:21.000Z</time>
      </trkpt>
      <trkpt lat="48.6684" lon="1.89428">
        <ele>217.57</ele>
        <time>2021-05-08T08:42:29.000Z</time>
      </trkpt>
      <trkpt lat="48.66836" lon="1.89415">
        <ele>217.53</ele>
        <time>2021-05-08T08:42:42.000Z</time>
      </trkpt>
      <trkpt lat="48.66835" lon="1.89402">
        <ele>217.5</ele>
        <time>2021-05-08T08:42:50.000Z</time>
      </trkpt>
      <trkpt lat="48.66831" lon="1.89387">
        <ele>217.47</ele>
        <time>2021-05-08T08:42:58.000Z</time>
      </trkpt>
      <trkpt lat="48.66827" lon="1.89374">
        <ele>217.45</ele>
        <time>2021-05-08T08:43:07.000Z</time>
      </trkpt>
      <trkpt lat="48.66824" lon="1.89361">
        <ele>217.43</ele>
        <time>2021-05-08T08:43:15.000Z</time>
      </trkpt>
      <trkpt lat="48.6682" lon="1.89347">
        <ele>217.39</ele>
        <time>2021-05-08T08:43:26.000Z</time>
      </trkpt>
      <trkpt lat="48.66816" lon="1.89333">
        <ele>217.37</ele>
        <time>2021-05-08T08:43:34.000Z</time>
      </trkpt>
      <trkpt lat="48.66812" lon="1.89321">
        <ele>217.34</ele>
        <time>2021-05-08T08:43:41.000Z</time>
      </trkpt>
      <trkpt lat="48.66808" lon="1.89307">
        <ele>217.3</ele>
        <time>2021-05-08T08:43:50.000Z</time>
      </trkpt>
      <trkpt lat="48.66806" lon="1.89294">
        <ele>217.27</ele>
        <time>2021-05-08T08:43:58.000Z</time>
      </trkpt>
      <trkpt lat="48.66806" lon="1.89279">
        <ele>217.24</ele>
        <time>2021-05-08T08:44:08.000Z</time>
      </trkpt>
      <trkpt lat="48.66803" lon="1.89264">
        <ele>217.21</ele>
        <time>2021-05-08T08:44:17.000Z</time>
      </trkpt>
      <trkpt lat="48.66799" lon="1.89252">
        <ele>217.2</ele>
        <time>2021-05-08T08:44:23.000Z</time>
      </trkpt>
      <trkpt lat="48.66796" lon="1.89238">
        <ele>217.18</ele>
        <time>2021-05-08T08:44:32.000Z</time>
      </trkpt>
      <trkpt lat="48.66792" lon="1.89225">
        <ele>217.18</ele>
        <time>2021-05-08T08:44:39.000Z</time>
      </trkpt>
      <trkpt lat="48.6679" lon="1.89211">
        <ele>217.17</ele>
        <time>2021-05-08T08:44:48.000Z</time>
      </trkpt>
      <trkpt lat="48.66787" lon="1.89198">
        <ele>217.15</ele>
        <time>2021-05-08T08:44:57.000Z</time>
      </trkpt>
      <trkpt lat="48.66782" lon="1.89185">
        <ele>217.14</ele>
        <time>2021-05-08T08:45:04.000Z</time>
      </trkpt>
      <trkpt lat="48.6678" lon="1.89171">
        <ele>217.11</ele>
        <time>2021-05-08T08:45:11.000Z</time>
      </trkpt>
      <trkpt lat="48.66776" lon="1.89158">
        <ele>217.09</ele>
        <time>2021-05-08T08:45:19.000Z</time>
      </trkpt>
      <trkpt lat="48.66773" lon="1.89144">
        <ele>217.06</ele>
        <time>2021-05-08T08:45:28.000Z</time>
      </trkpt>
      <trkpt lat="48.66771" lon="1.89131">
        <ele>217.03</ele>
        <time>2021-05-08T08:45:37.000Z</time>
      </trkpt>
      <trkpt lat="48.66768" lon="1.89117">
        <ele>217.01</ele>
        <time>2021-05-08T08:45:46.000Z</time>
      </trkpt>
      <trkpt lat="48.66766" lon="1.89102">
        <ele>216.97</ele>
        <time>2021-05-08T08:45:55.000Z</time>
      </trkpt>
      <trkpt lat="48.66763" lon="1.89089">
        <ele>216.96</ele>
        <time>2021-05-08T08:46:03.000Z</time>
      </trkpt>
      <trkpt lat="48.6676" lon="1.89076">
        <ele>216.94</ele>
        <time>2021-05-08T08:46:13.000Z</time>
      </trkpt>
      <trkpt lat="48.66756" lon="1.89063">
        <ele>216.93</ele>
        <time>2021-05-08T08:46:20.000Z</time>
      </trkpt>
      <trkpt lat="48.66754" lon="1.8905">
        <ele>216.92</ele>
        <time>2021-05-08T08:46:27.000Z</time>
      </trkpt>
      <trkpt lat="48.66752" lon="1.89036">
        <ele>216.9</ele>
        <time>2021-05-08T08:46:34.000Z</time>
      </trkpt>
      <trkpt lat="48.6675" lon="1.89023">
        <ele>216.89</ele>
        <time>2021-05-08T08:46:43.000Z</time>
      </trkpt>
      <trkpt lat="48.66748" lon="1.8901">
        <ele>216.87</ele>
        <time>2021-05-08T08:46:52.000Z</time>
      </trkpt>
      <trkpt lat="48.66745" lon="1.88995">
        <ele>216.84</ele>
        <time>2021-05-08T08:47:02.000Z</time>
      </trkpt>
      <trkpt lat="48.66744" lon="1.88981">
        <ele>216.83</ele>
        <time>2021-05-08T08:47:08.000Z</time>
      </trkpt>
      <trkpt lat="48.66741" lon="1.88967">
        <ele>216.82</ele>
        <time>2021-05-08T08:47:17.000Z</time>
      </trkpt>
      <trkpt lat="48.6674" lon="1.88953">
        <ele>216.81</ele>
        <time>2021-05-08T08:47:27.000Z</time>
      </trkpt>
      <trkpt lat="48.66739" lon="1.88939">
        <ele>216.81</ele>
        <time>2021-05-08T08:47:37.000Z</time>
      </trkpt>
      <trkpt lat="48.66735" lon="1.88927">
        <ele>216.76</ele>
        <time>2021-05-08T08:47:55.000Z</time>
      </trkpt>
      <trkpt lat="48.66726" lon="1.88931">
        <ele>216.73</ele>
        <time>2021-05-08T08:48:07.000Z</time>
      </trkpt>
      <trkpt lat="48.66718" lon="1.8894">
        <ele>216.7</ele>
        <time>2021-05-08T08:48:15.000Z</time>
      </trkpt>
      <trkpt lat="48.6671" lon="1.8895">
        <ele>216.63</ele>
        <time>2021-05-08T08:48:25.000Z</time>
      </trkpt>
      <trkpt lat="48.66701" lon="1.88954">
        <ele>216.55</ele>
        <time>2021-05-08T08:48:34.000Z</time>
      </trkpt>
      <trkpt lat="48.66693" lon="1.8896">
        <ele>216.47</ele>
        <time>2021-05-08T08:48:43.000Z</time>
      </trkpt>
      <trkpt lat="48.66683" lon="1.88969">
        <ele>216.36</ele>
        <time>2021-05-08T08:48:54.000Z</time>
      </trkpt>
      <trkpt lat="48.66672" lon="1.88971">
        <ele>216.27</ele>
        <time>2021-05-08T08:49:04.000Z</time>
      </trkpt>
      <trkpt lat="48.66664" lon="1.88977">
        <ele>216.2</ele>
        <time>2021-05-08T08:49:11.000Z</time>
      </trkpt>
      <trkpt lat="48.66655" lon="1.88985">
        <ele>216.13</ele>
        <time>2021-05-08T08:49:20.000Z</time>
      </trkpt>
      <trkpt lat="48.66647" lon="1.88993">
        <ele>216.05</ele>
        <time>2021-05-08T08:49:31.000Z</time>
      </trkpt>
      <trkpt lat="48.66638" lon="1.88998">
        <ele>215.98</ele>
        <time>2021-05-08T08:49:39.000Z</time>
      </trkpt>
      <trkpt lat="48.66631" lon="1.89006">
        <ele>215.91</ele>
        <time>2021-05-08T08:49:52.000Z</time>
      </trkpt>
      <trkpt lat="48.66622" lon="1.89014">
        <ele>215.85</ele>
        <time>2021-05-08T08:49:59.000Z</time>
      </trkpt>
      <trkpt lat="48.66614" lon="1.89021">
        <ele>215.79</ele>
        <time>2021-05-08T08:50:07.000Z</time>
      </trkpt>
      <trkpt lat="48.66605" lon="1.89023">
        <ele>215.71</ele>
        <time>2021-05-08T08:50:17.000Z</time>
      </trkpt>
      <trkpt lat="48.66597" lon="1.89031">
        <ele>215.65</ele>
        <time>2021-05-08T08:50:25.000Z</time>
      </trkpt>
      <trkpt lat="48.66588" lon="1.89035">
        <ele>215.59</ele>
        <time>2021-05-08T08:50:33.000Z</time>
      </trkpt>
      <trkpt lat="48.66579" lon="1.89042">
        <ele>215.52</ele>
        <time>2021-05-08T08:50:42.000Z</time>
      </trkpt>
      <trkpt lat="48.66572" lon="1.89051">
        <ele>215.47</ele>
        <time>2021-05-08T08:50:50.000Z</time>
      </trkpt>
      <trkpt lat="48.66564" lon="1.89057">
        <ele>215.42</ele>
        <time>2021-05-08T08:50:59.000Z</time>
      </trkpt>
      <trkpt lat="48.66556" lon="1.89065">
        <ele>215.37</ele>
        <time>2021-05-08T08:51:08.000Z</time>
      </trkpt>
      <trkpt lat="48.66549" lon="1.89074">
        <ele>215.3</ele>
        <time>2021-05-08T08:51:19.000Z</time>
      </trkpt>
      <trkpt lat="48.6654" lon="1.89079">
        <ele>215.23</ele>
        <time>2021-05-08T08:51:33.000Z</time>
      </trkpt>
      <trkpt lat="48.66532" lon="1.89087">
        <ele>215.17</ele>
        <time>2021-05-08T08:51:45.000Z</time>
      </trkpt>
      <trkpt lat="48.66523" lon="1.89091">
        <ele>215.13</ele>
        <time>2021-05-08T08:51:53.000Z</time>
      </trkpt>
      <trkpt lat="48.66515" lon="1.891">
        <ele>215.08</ele>
        <time>2021-05-08T08:52:05.000Z</time>
      </trkpt>
      <trkpt lat="48.66507" lon="1.89109">
        <ele>215.03</ele>
        <time>2021-05-08T08:52:15.000Z</time>
      </trkpt>
      <trkpt lat="48.66503" lon="1.89121">
        <ele>215</ele>
        <time>2021-05-08T08:52:57.000Z</time>
      </trkpt>
      <trkpt lat="48.66494" lon="1.89119">
        <ele>215.12</ele>
        <time>2021-05-08T08:53:40.000Z</time>
      </trkpt>
      <trkpt lat="48.66491" lon="1.89106">
        <ele>215.17</ele>
        <time>2021-05-08T08:53:50.000Z</time>
      </trkpt>
      <trkpt lat="48.66487" lon="1.89094">
        <ele>215.2</ele>
        <time>2021-05-08T08:53:59.000Z</time>
      </trkpt>
      <trkpt lat="48.66482" lon="1.89081">
        <ele>215.23</ele>
        <time>2021-05-08T08:54:07.000Z</time>
      </trkpt>
      <trkpt lat="48.66478" lon="1.89068">
        <ele>215.26</ele>
        <time>2021-05-08T08:54:16.000Z</time>
      </trkpt>
      <trkpt lat="48.66475" lon="1.89055">
        <ele>215.29</ele>
        <time>2021-05-08T08:54:24.000Z</time>
      </trkpt>
      <trkpt lat="48.6647" lon="1.89041">
        <ele>215.35</ele>
        <time>2021-05-08T08:54:38.000Z</time>
      </trkpt>
      <trkpt lat="48.66466" lon="1.89027">
        <ele>215.39</ele>
        <time>2021-05-08T08:54:49.000Z</time>
      </trkpt>
      <trkpt lat="48.66465" lon="1.89013">
        <ele>215.41</ele>
        <time>2021-05-08T08:54:57.000Z</time>
      </trkpt>
      <trkpt lat="48.66462" lon="1.89">
        <ele>215.42</ele>
        <time>2021-05-08T08:55:40.000Z</time>
      </trkpt>
      <trkpt lat="48.66461" lon="1.88984">
        <ele>215.51</ele>
        <time>2021-05-08T08:56:47.000Z</time>
      </trkpt>
      <trkpt lat="48.66463" lon="1.8897">
        <ele>215.55</ele>
        <time>2021-05-08T08:56:57.000Z</time>
      </trkpt>
      <trkpt lat="48.66464" lon="1.88956">
        <ele>215.59</ele>
        <time>2021-05-08T08:57:08.000Z</time>
      </trkpt>
      <trkpt lat="48.66467" lon="1.88941">
        <ele>215.62</ele>
        <time>2021-05-08T08:57:17.000Z</time>
      </trkpt>
      <trkpt lat="48.66467" lon="1.88926">
        <ele>215.66</ele>
        <time>2021-05-08T08:57:25.000Z</time>
      </trkpt>
      <trkpt lat="48.66467" lon="1.88911">
        <ele>215.7</ele>
        <time>2021-05-08T08:57:35.000Z</time>
      </trkpt>
      <trkpt lat="48.66468" lon="1.88897">
        <ele>215.75</ele>
        <time>2021-05-08T08:57:47.000Z</time>
      </trkpt>
      <trkpt lat="48.66468" lon="1.88883">
        <ele>215.79</ele>
        <time>2021-05-08T08:57:55.000Z</time>
      </trkpt>
      <trkpt lat="48.6647" lon="1.88868">
        <ele>215.83</ele>
        <time>2021-05-08T08:58:06.000Z</time>
      </trkpt>
      <trkpt lat="48.66468" lon="1.88852">
        <ele>215.85</ele>
        <time>2021-05-08T08:58:12.000Z</time>
      </trkpt>
      <trkpt lat="48.66468" lon="1.88838">
        <ele>215.9</ele>
        <time>2021-05-08T08:58:24.000Z</time>
      </trkpt>
      <trkpt lat="48.66471" lon="1.88825">
        <ele>215.95</ele>
        <time>2021-05-08T08:58:37.000Z</time>
      </trkpt>
      <trkpt lat="48.66469" lon="1.88811">
        <ele>215.98</ele>
        <time>2021-05-08T08:58:47.000Z</time>
      </trkpt>
      <trkpt lat="48.66471" lon="1.88798">
        <ele>216</ele>
        <time>2021-05-08T08:58:53.000Z</time>
      </trkpt>
      <trkpt lat="48.66471" lon="1.88783">
        <ele>216.03</ele>
        <time>2021-05-08T08:59:01.000Z</time>
      </trkpt>
      <trkpt lat="48.66475" lon="1.88769">
        <ele>216.06</ele>
        <time>2021-05-08T08:59:11.000Z</time>
      </trkpt>
      <trkpt lat="48.66478" lon="1.88756">
        <ele>216.09</ele>
        <time>2021-05-08T08:59:20.000Z</time>
      </trkpt>
      <trkpt lat="48.6648" lon="1.88742">
        <ele>216.1</ele>
        <time>2021-05-08T08:59:28.000Z</time>
      </trkpt>
      <trkpt lat="48.66481" lon="1.88728">
        <ele>216.12</ele>
        <time>2021-05-08T08:59:36.000Z</time>
      </trkpt>
      <trkpt lat="48.6648" lon="1.88713">
        <ele>216.16</ele>
        <time>2021-05-08T09:00:02.000Z</time>
      </trkpt>
      <trkpt lat="48.6648" lon="1.88699">
        <ele>216.47</ele>
        <time>2021-05-08T09:01:06.000Z</time>
      </trkpt>
      <trkpt lat="48.66484" lon="1.88687">
        <ele>216.73</ele>
        <time>2021-05-08T09:01:40.999Z</time>
      </trkpt>
      <trkpt lat="48.66489" lon="1.88674">
        <ele>216.83</ele>
        <time>2021-05-08T09:01:49.999Z</time>
      </trkpt>
      <trkpt lat="48.66495" lon="1.88664">
        <ele>216.93</ele>
        <time>2021-05-08T09:02:00.999Z</time>
      </trkpt>
      <trkpt lat="48.66498" lon="1.8865">
        <ele>217</ele>
        <time>2021-05-08T09:02:08.999Z</time>
      </trkpt>
      <trkpt lat="48.665" lon="1.88636">
        <ele>217.08</ele>
        <time>2021-05-08T09:02:19.999Z</time>
      </trkpt>
      <trkpt lat="48.66503" lon="1.88623">
        <ele>217.12</ele>
        <time>2021-05-08T09:02:25.999Z</time>
      </trkpt>
      <trkpt lat="48.66507" lon="1.8861">
        <ele>217.15</ele>
        <time>2021-05-08T09:02:32.999Z</time>
      </trkpt>
      <trkpt lat="48.66512" lon="1.88597">
        <ele>217.19</ele>
        <time>2021-05-08T09:02:45.999Z</time>
      </trkpt>
      <trkpt lat="48.66517" lon="1.88585">
        <ele>217.2</ele>
        <time>2021-05-08T09:02:54.999Z</time>
      </trkpt>
      <trkpt lat="48.66523" lon="1.88574">
        <ele>217.28</ele>
        <time>2021-05-08T09:03:18.999Z</time>
      </trkpt>
      <trkpt lat="48.66525" lon="1.8856">
        <ele>217.34</ele>
        <time>2021-05-08T09:03:27.999Z</time>
      </trkpt>
      <trkpt lat="48.66531" lon="1.88549">
        <ele>217.43</ele>
        <time>2021-05-08T09:03:40.999Z</time>
      </trkpt>
      <trkpt lat="48.66535" lon="1.88537">
        <ele>217.48</ele>
        <time>2021-05-08T09:03:47.999Z</time>
      </trkpt>
      <trkpt lat="48.6654" lon="1.88526">
        <ele>217.54</ele>
        <time>2021-05-08T09:03:59.999Z</time>
      </trkpt>
      <trkpt lat="48.66546" lon="1.88514">
        <ele>217.59</ele>
        <time>2021-05-08T09:04:11.999Z</time>
      </trkpt>
      <trkpt lat="48.66552" lon="1.88501">
        <ele>217.62</ele>
        <time>2021-05-08T09:04:22.999Z</time>
      </trkpt>
      <trkpt lat="48.66555" lon="1.88488">
        <ele>217.63</ele>
        <time>2021-05-08T09:04:29.999Z</time>
      </trkpt>
      <trkpt lat="48.66557" lon="1.88475">
        <ele>217.65</ele>
        <time>2021-05-08T09:04:38.999Z</time>
      </trkpt>
      <trkpt lat="48.66556" lon="1.88461">
        <ele>217.65</ele>
        <time>2021-05-08T09:04:44.999Z</time>
      </trkpt>
      <trkpt lat="48.66551" lon="1.88448">
        <ele>217.65</ele>
        <time>2021-05-08T09:04:52.999Z</time>
      </trkpt>
      <trkpt lat="48.66552" lon="1.88432">
        <ele>217.64</ele>
        <time>2021-05-08T09:05:04.999Z</time>
      </trkpt>
      <trkpt lat="48.66545" lon="1.88424">
        <ele>217.64</ele>
        <time>2021-05-08T09:05:14.999Z</time>
      </trkpt>
      <trkpt lat="48.66536" lon="1.8842">
        <ele>217.64</ele>
        <time>2021-05-08T09:05:20.999Z</time>
      </trkpt>
      <trkpt lat="48.6653" lon="1.8841">
        <ele>217.64</ele>
        <time>2021-05-08T09:05:26.999Z</time>
      </trkpt>
      <trkpt lat="48.66523" lon="1.88398">
        <ele>217.64</ele>
        <time>2021-05-08T09:05:34.999Z</time>
      </trkpt>
      <trkpt lat="48.66516" lon="1.88388">
        <ele>217.64</ele>
        <time>2021-05-08T09:05:43.999Z</time>
      </trkpt>
      <trkpt lat="48.66508" lon="1.88379">
        <ele>217.63</ele>
        <time>2021-05-08T09:05:50.999Z</time>
      </trkpt>
      <trkpt lat="48.66501" lon="1.88367">
        <ele>217.63</ele>
        <time>2021-05-08T09:05:57.999Z</time>
      </trkpt>
      <trkpt lat="48.66494" lon="1.88358">
        <ele>217.63</ele>
        <time>2021-05-08T09:06:07.999Z</time>
      </trkpt>
      <trkpt lat="48.66488" lon="1.88347">
        <ele>217.63</ele>
        <time>2021-05-08T09:06:16.999Z</time>
      </trkpt>
      <trkpt lat="48.66481" lon="1.88337">
        <ele>217.64</ele>
        <time>2021-05-08T09:06:23.999Z</time>
      </trkpt>
      <trkpt lat="48.66474" lon="1.88326">
        <ele>217.64</ele>
        <time>2021-05-08T09:06:30.999Z</time>
      </trkpt>
      <trkpt lat="48.66466" lon="1.88319">
        <ele>217.64</ele>
        <time>2021-05-08T09:06:38.999Z</time>
      </trkpt>
      <trkpt lat="48.66457" lon="1.88312">
        <ele>217.63</ele>
        <time>2021-05-08T09:06:47.999Z</time>
      </trkpt>
      <trkpt lat="48.66449" lon="1.88303">
        <ele>217.63</ele>
        <time>2021-05-08T09:06:55.999Z</time>
      </trkpt>
      <trkpt lat="48.66442" lon="1.88291">
        <ele>217.62</ele>
        <time>2021-05-08T09:07:03.999Z</time>
      </trkpt>
      <trkpt lat="48.66433" lon="1.88283">
        <ele>217.61</ele>
        <time>2021-05-08T09:07:09.999Z</time>
      </trkpt>
      <trkpt lat="48.66427" lon="1.88273">
        <ele>217.6</ele>
        <time>2021-05-08T09:07:18.999Z</time>
      </trkpt>
      <trkpt lat="48.66421" lon="1.88262">
        <ele>217.59</ele>
        <time>2021-05-08T09:07:27.999Z</time>
      </trkpt>
      <trkpt lat="48.66413" lon="1.88254">
        <ele>217.58</ele>
        <time>2021-05-08T09:07:34.999Z</time>
      </trkpt>
      <trkpt lat="48.66405" lon="1.88244">
        <ele>217.57</ele>
        <time>2021-05-08T09:07:41.999Z</time>
      </trkpt>
      <trkpt lat="48.66398" lon="1.88236">
        <ele>217.56</ele>
        <time>2021-05-08T09:07:48.999Z</time>
      </trkpt>
      <trkpt lat="48.66391" lon="1.88227">
        <ele>217.55</ele>
        <time>2021-05-08T09:07:57.999Z</time>
      </trkpt>
      <trkpt lat="48.66383" lon="1.88218">
        <ele>217.55</ele>
        <time>2021-05-08T09:08:07.999Z</time>
      </trkpt>
      <trkpt lat="48.66376" lon="1.88209">
        <ele>217.54</ele>
        <time>2021-05-08T09:08:16.999Z</time>
      </trkpt>
      <trkpt lat="48.66369" lon="1.882">
        <ele>217.53</ele>
        <time>2021-05-08T09:08:25.999Z</time>
      </trkpt>
      <trkpt lat="48.66362" lon="1.8819">
        <ele>217.52</ele>
        <time>2021-05-08T09:08:34.999Z</time>
      </trkpt>
      <trkpt lat="48.66356" lon="1.88178">
        <ele>217.5</ele>
        <time>2021-05-08T09:08:42.999Z</time>
      </trkpt>
      <trkpt lat="48.6635" lon="1.88166">
        <ele>217.48</ele>
        <time>2021-05-08T09:09:08.999Z</time>
      </trkpt>
      <trkpt lat="48.66349" lon="1.88152">
        <ele>217.49</ele>
        <time>2021-05-08T09:09:52.999Z</time>
      </trkpt>
      <trkpt lat="48.66349" lon="1.88136">
        <ele>217.54</ele>
        <time>2021-05-08T09:10:12.999Z</time>
      </trkpt>
      <trkpt lat="48.66347" lon="1.88122">
        <ele>217.55</ele>
        <time>2021-05-08T09:10:21.999Z</time>
      </trkpt>
      <trkpt lat="48.66348" lon="1.88107">
        <ele>217.54</ele>
        <time>2021-05-08T09:10:33.999Z</time>
      </trkpt>
      <trkpt lat="48.66351" lon="1.88093">
        <ele>217.53</ele>
        <time>2021-05-08T09:10:42.999Z</time>
      </trkpt>
      <trkpt lat="48.66351" lon="1.88078">
        <ele>217.52</ele>
        <time>2021-05-08T09:10:51.999Z</time>
      </trkpt>
      <trkpt lat="48.66353" lon="1.88063">
        <ele>217.52</ele>
        <time>2021-05-08T09:10:58.999Z</time>
      </trkpt>
      <trkpt lat="48.66353" lon="1.88048">
        <ele>217.53</ele>
        <time>2021-05-08T09:11:05.999Z</time>
      </trkpt>
      <trkpt lat="48.66354" lon="1.88033">
        <ele>217.54</ele>
        <time>2021-05-08T09:11:12.999Z</time>
      </trkpt>
      <trkpt lat="48.66354" lon="1.88019">
        <ele>217.56</ele>
        <time>2021-05-08T09:11:21.999Z</time>
      </trkpt>
      <trkpt lat="48.66354" lon="1.88005">
        <ele>217.58</ele>
        <time>2021-05-08T09:11:30.999Z</time>
      </trkpt>
      <trkpt lat="48.66356" lon="1.8799">
        <ele>217.59</ele>
        <time>2021-05-08T09:11:38.999Z</time>
      </trkpt>
      <trkpt lat="48.66357" lon="1.87976">
        <ele>217.6</ele>
        <time>2021-05-08T09:11:48.999Z</time>
      </trkpt>
      <trkpt lat="48.66357" lon="1.87962">
        <ele>217.6</ele>
        <time>2021-05-08T09:11:56.999Z</time>
      </trkpt>
      <trkpt lat="48.66359" lon="1.87948">
        <ele>217.61</ele>
        <time>2021-05-08T09:12:05.999Z</time>
      </trkpt>
      <trkpt lat="48.6636" lon="1.87933">
        <ele>217.62</ele>
        <time>2021-05-08T09:12:14.999Z</time>
      </trkpt>
      <trkpt lat="48.66362" lon="1.87919">
        <ele>217.63</ele>
        <time>2021-05-08T09:12:23.999Z</time>
      </trkpt>
      <trkpt lat="48.66363" lon="1.87904">
        <ele>217.66</ele>
        <time>2021-05-08T09:12:34.999Z</time>
      </trkpt>
      <trkpt lat="48.66365" lon="1.87891">
        <ele>217.68</ele>
        <time>2021-05-08T09:12:42.999Z</time>
      </trkpt>
      <trkpt lat="48.66366" lon="1.87877">
        <ele>217.71</ele>
        <time>2021-05-08T09:12:51.999Z</time>
      </trkpt>
      <trkpt lat="48.66369" lon="1.87862">
        <ele>217.75</ele>
        <time>2021-05-08T09:13:00.999Z</time>
      </trkpt>
      <trkpt lat="48.66371" lon="1.87849">
        <ele>217.79</ele>
        <time>2021-05-08T09:13:09.999Z</time>
      </trkpt>
      <trkpt lat="48.66372" lon="1.87835">
        <ele>217.81</ele>
        <time>2021-05-08T09:13:16.999Z</time>
      </trkpt>
      <trkpt lat="48.66375" lon="1.87821">
        <ele>217.84</ele>
        <time>2021-05-08T09:13:24.999Z</time>
      </trkpt>
      <trkpt lat="48.66374" lon="1.87807">
        <ele>217.86</ele>
        <time>2021-05-08T09:13:31.999Z</time>
      </trkpt>
      <trkpt lat="48.66374" lon="1.87793">
        <ele>217.9</ele>
        <time>2021-05-08T09:14:00.999Z</time>
      </trkpt>
      <trkpt lat="48.66379" lon="1.87781">
        <ele>217.92</ele>
        <time>2021-05-08T09:14:09.999Z</time>
      </trkpt>
      <trkpt lat="48.66382" lon="1.87768">
        <ele>217.94</ele>
        <time>2021-05-08T09:14:19.999Z</time>
      </trkpt>
      <trkpt lat="48.66386" lon="1.87754">
        <ele>217.95</ele>
        <time>2021-05-08T09:14:30.999Z</time>
      </trkpt>
      <trkpt lat="48.66387" lon="1.87739">
        <ele>217.94</ele>
        <time>2021-05-08T09:14:40.999Z</time>
      </trkpt>
      <trkpt lat="48.66391" lon="1.87726">
        <ele>217.94</ele>
        <time>2021-05-08T09:14:45.999Z</time>
      </trkpt>
      <trkpt lat="48.66394" lon="1.87712">
        <ele>217.94</ele>
        <time>2021-05-08T09:14:51.999Z</time>
      </trkpt>
      <trkpt lat="48.66398" lon="1.87699">
        <ele>217.94</ele>
        <time>2021-05-08T09:15:00.999Z</time>
      </trkpt>
      <trkpt lat="48.664" lon="1.87684">
        <ele>217.97</ele>
        <time>2021-05-08T09:15:16.999Z</time>
      </trkpt>
      <trkpt lat="48.66402" lon="1.8767">
        <ele>217.99</ele>
        <time>2021-05-08T09:15:25.999Z</time>
      </trkpt>
      <trkpt lat="48.66405" lon="1.87656">
        <ele>218</ele>
        <time>2021-05-08T09:15:32.999Z</time>
      </trkpt>
      <trkpt lat="48.66409" lon="1.87644">
        <ele>218.01</ele>
        <time>2021-05-08T09:15:40.999Z</time>
      </trkpt>
      <trkpt lat="48.66412" lon="1.87631">
        <ele>218.02</ele>
        <time>2021-05-08T09:15:49.999Z</time>
      </trkpt>
      <trkpt lat="48.66415" lon="1.87617">
        <ele>218.03</ele>
        <time>2021-05-08T09:15:57.999Z</time>
      </trkpt>
      <trkpt lat="48.66418" lon="1.87605">
        <ele>218.04</ele>
        <time>2021-05-08T09:16:06.999Z</time>
      </trkpt>
      <trkpt lat="48.6642" lon="1.8759">
        <ele>218.05</ele>
        <time>2021-05-08T09:16:15.999Z</time>
      </trkpt>
      <trkpt lat="48.66422" lon="1.87576">
        <ele>218.05</ele>
        <time>2021-05-08T09:16:23.999Z</time>
      </trkpt>
      <trkpt lat="48.66425" lon="1.87562">
        <ele>218.06</ele>
        <time>2021-05-08T09:16:32.999Z</time>
      </trkpt>
      <trkpt lat="48.66427" lon="1.87548">
        <ele>218.07</ele>
        <time>2021-05-08T09:16:41.999Z</time>
      </trkpt>
      <trkpt lat="48.6643" lon="1.87534">
        <ele>218.07</ele>
        <time>2021-05-08T09:16:50.999Z</time>
      </trkpt>
      <trkpt lat="48.66433" lon="1.87521">
        <ele>218.07</ele>
        <time>2021-05-08T09:16:58.999Z</time>
      </trkpt>
      <trkpt lat="48.66436" lon="1.87507">
        <ele>218.07</ele>
        <time>2021-05-08T09:17:06.999Z</time>
      </trkpt>
      <trkpt lat="48.66438" lon="1.87493">
        <ele>218.07</ele>
        <time>2021-05-08T09:17:14.999Z</time>
      </trkpt>
      <trkpt lat="48.66441" lon="1.87478">
        <ele>218.07</ele>
        <time>2021-05-08T09:17:23.999Z</time>
      </trkpt>
      <trkpt lat="48.66447" lon="1.87467">
        <ele>218.07</ele>
        <time>2021-05-08T09:17:32.999Z</time>
      </trkpt>
      <trkpt lat="48.66455" lon="1.87458">
        <ele>218.09</ele>
        <time>2021-05-08T09:17:50.999Z</time>
      </trkpt>
      <trkpt lat="48.66464" lon="1.87456">
        <ele>218.11</ele>
        <time>2021-05-08T09:17:58.999Z</time>
      </trkpt>
      <trkpt lat="48.66474" lon="1.87454">
        <ele>218.14</ele>
        <time>2021-05-08T09:18:09.999Z</time>
      </trkpt>
      <trkpt lat="48.66483" lon="1.87448">
        <ele>218.17</ele>
        <time>2021-05-08T09:18:18.999Z</time>
      </trkpt>
      <trkpt lat="48.66491" lon="1.87441">
        <ele>218.2</ele>
        <time>2021-05-08T09:18:30.999Z</time>
      </trkpt>
      <trkpt lat="48.665" lon="1.87438">
        <ele>218.21</ele>
        <time>2021-05-08T09:18:39.999Z</time>
      </trkpt>
      <trkpt lat="48.66511" lon="1.87434">
        <ele>218.21</ele>
        <time>2021-05-08T09:18:46.999Z</time>
      </trkpt>
      <trkpt lat="48.6652" lon="1.87431">
        <ele>218.21</ele>
        <time>2021-05-08T09:18:53.999Z</time>
      </trkpt>
      <trkpt lat="48.6653" lon="1.87428">
        <ele>218.21</ele>
        <time>2021-05-08T09:19:02.999Z</time>
      </trkpt>
      <trkpt lat="48.66538" lon="1.87425">
        <ele>218.21</ele>
        <time>2021-05-08T09:19:15.999Z</time>
      </trkpt>
      <trkpt lat="48.66548" lon="1.87422">
        <ele>218.21</ele>
        <time>2021-05-08T09:19:23.999Z</time>
      </trkpt>
      <trkpt lat="48.66557" lon="1.8742">
        <ele>218.19</ele>
        <time>2021-05-08T09:19:34.999Z</time>
      </trkpt>
      <trkpt lat="48.66566" lon="1.87415">
        <ele>218.18</ele>
        <time>2021-05-08T09:19:44.999Z</time>
      </trkpt>
      <trkpt lat="48.66575" lon="1.8741">
        <ele>218.16</ele>
        <time>2021-05-08T09:19:56.999Z</time>
      </trkpt>
      <trkpt lat="48.66584" lon="1.87404">
        <ele>218.15</ele>
        <time>2021-05-08T09:20:04.999Z</time>
      </trkpt>
      <trkpt lat="48.66593" lon="1.87402">
        <ele>218.14</ele>
        <time>2021-05-08T09:20:10.999Z</time>
      </trkpt>
      <trkpt lat="48.66602" lon="1.87401">
        <ele>218.14</ele>
        <time>2021-05-08T09:20:14.999Z</time>
      </trkpt>
      <trkpt lat="48.66611" lon="1.87397">
        <ele>218.13</ele>
        <time>2021-05-08T09:20:21.999Z</time>
      </trkpt>
      <trkpt lat="48.66621" lon="1.87396">
        <ele>218.12</ele>
        <time>2021-05-08T09:20:30.999Z</time>
      </trkpt>
      <trkpt lat="48.6663" lon="1.87397">
        <ele>218.11</ele>
        <time>2021-05-08T09:20:37.999Z</time>
      </trkpt>
      <trkpt lat="48.6664" lon="1.87394">
        <ele>218.09</ele>
        <time>2021-05-08T09:20:44.999Z</time>
      </trkpt>
      <trkpt lat="48.66649" lon="1.87389">
        <ele>218.05</ele>
        <time>2021-05-08T09:20:52.999Z</time>
      </trkpt>
      <trkpt lat="48.66658" lon="1.87386">
        <ele>217.99</ele>
        <time>2021-05-08T09:21:03.999Z</time>
      </trkpt>
      <trkpt lat="48.66666" lon="1.87378">
        <ele>217.95</ele>
        <time>2021-05-08T09:21:12.999Z</time>
      </trkpt>
      <trkpt lat="48.66674" lon="1.8737">
        <ele>217.91</ele>
        <time>2021-05-08T09:21:20.999Z</time>
      </trkpt>
      <trkpt lat="48.66683" lon="1.87365">
        <ele>217.86</ele>
        <time>2021-05-08T09:21:30.999Z</time>
      </trkpt>
      <trkpt lat="48.66693" lon="1.87357">
        <ele>217.84</ele>
        <time>2021-05-08T09:21:38.999Z</time>
      </trkpt>
      <trkpt lat="48.66701" lon="1.87353">
        <ele>217.81</ele>
        <time>2021-05-08T09:21:48.999Z</time>
      </trkpt>
      <trkpt lat="48.66711" lon="1.87352">
        <ele>217.79</ele>
        <time>2021-05-08T09:21:55.999Z</time>
      </trkpt>
      <trkpt lat="48.66721" lon="1.87354">
        <ele>217.79</ele>
        <time>2021-05-08T09:22:04.000Z</time>
      </trkpt>
      <trkpt lat="48.6673" lon="1.87349">
        <ele>217.78</ele>
        <time>2021-05-08T09:22:10.000Z</time>
      </trkpt>
      <trkpt lat="48.66739" lon="1.87341">
        <ele>217.78</ele>
        <time>2021-05-08T09:22:18.000Z</time>
      </trkpt>
      <trkpt lat="48.66746" lon="1.87331">
        <ele>217.79</ele>
        <time>2021-05-08T09:22:30.000Z</time>
      </trkpt>
      <trkpt lat="48.66755" lon="1.87326">
        <ele>217.8</ele>
        <time>2021-05-08T09:22:38.000Z</time>
      </trkpt>
      <trkpt lat="48.66764" lon="1.87322">
        <ele>217.83</ele>
        <time>2021-05-08T09:22:49.000Z</time>
      </trkpt>
      <trkpt lat="48.66774" lon="1.87322">
        <ele>217.85</ele>
        <time>2021-05-08T09:22:56.000Z</time>
      </trkpt>
      <trkpt lat="48.66782" lon="1.87316">
        <ele>217.87</ele>
        <time>2021-05-08T09:23:07.000Z</time>
      </trkpt>
      <trkpt lat="48.66791" lon="1.87312">
        <ele>217.88</ele>
        <time>2021-05-08T09:23:14.000Z</time>
      </trkpt>
      <trkpt lat="48.668" lon="1.87307">
        <ele>217.88</ele>
        <time>2021-05-08T09:23:21.000Z</time>
      </trkpt>
      <trkpt lat="48.66807" lon="1.87299">
        <ele>217.88</ele>
        <time>2021-05-08T09:23:28.000Z</time>
      </trkpt>
      <trkpt lat="48.66816" lon="1.87294">
        <ele>217.9</ele>
        <time>2021-05-08T09:23:35.000Z</time>
      </trkpt>
      <trkpt lat="48.66825" lon="1.87289">
        <ele>217.92</ele>
        <time>2021-05-08T09:23:45.000Z</time>
      </trkpt>
      <trkpt lat="48.66834" lon="1.87286">
        <ele>217.95</ele>
        <time>2021-05-08T09:23:52.000Z</time>
      </trkpt>
      <trkpt lat="48.66843" lon="1.8728">
        <ele>218.03</ele>
        <time>2021-05-08T09:24:02.000Z</time>
      </trkpt>
      <trkpt lat="48.66852" lon="1.87273">
        <ele>218.08</ele>
        <time>2021-05-08T09:24:10.000Z</time>
      </trkpt>
      <trkpt lat="48.66862" lon="1.87271">
        <ele>218.13</ele>
        <time>2021-05-08T09:24:20.000Z</time>
      </trkpt>
      <trkpt lat="48.66871" lon="1.87266">
        <ele>218.21</ele>
        <time>2021-05-08T09:24:32.000Z</time>
      </trkpt>
      <trkpt lat="48.6688" lon="1.87262">
        <ele>218.28</ele>
        <time>2021-05-08T09:24:42.000Z</time>
      </trkpt>
      <trkpt lat="48.66891" lon="1.87256">
        <ele>218.33</ele>
        <time>2021-05-08T09:24:49.000Z</time>
      </trkpt>
      <trkpt lat="48.669" lon="1.87253">
        <ele>218.37</ele>
        <time>2021-05-08T09:24:57.000Z</time>
      </trkpt>
      <trkpt lat="48.6691" lon="1.8725">
        <ele>218.41</ele>
        <time>2021-05-08T09:25:06.000Z</time>
      </trkpt>
      <trkpt lat="48.66919" lon="1.87248">
        <ele>218.45</ele>
        <time>2021-05-08T09:25:15.000Z</time>
      </trkpt>
      <trkpt lat="48.66928" lon="1.87241">
        <ele>218.47</ele>
        <time>2021-05-08T09:25:24.000Z</time>
      </trkpt>
      <trkpt lat="48.66938" lon="1.87239">
        <ele>218.48</ele>
        <time>2021-05-08T09:25:35.000Z</time>
      </trkpt>
      <trkpt lat="48.66944" lon="1.87228">
        <ele>218.51</ele>
        <time>2021-05-08T09:25:49.000Z</time>
      </trkpt>
      <trkpt lat="48.66953" lon="1.87224">
        <ele>218.59</ele>
        <time>2021-05-08T09:26:18.000Z</time>
      </trkpt>
      <trkpt lat="48.6696" lon="1.87233">
        <ele>218.95</ele>
        <time>2021-05-08T09:27:21.000Z</time>
      </trkpt>
      <trkpt lat="48.66969" lon="1.87228">
        <ele>219.15</ele>
        <time>2021-05-08T09:27:33.000Z</time>
      </trkpt>
      <trkpt lat="48.66977" lon="1.87219">
        <ele>219.31</ele>
        <time>2021-05-08T09:28:35.000Z</time>
      </trkpt>
      <trkpt lat="48.66985" lon="1.87213">
        <ele>219.26</ele>
        <time>2021-05-08T09:28:42.000Z</time>
      </trkpt>
      <trkpt lat="48.66993" lon="1.87204">
        <ele>219.2</ele>
        <time>2021-05-08T09:28:49.000Z</time>
      </trkpt>
      <trkpt lat="48.67002" lon="1.872">
        <ele>219.14</ele>
        <time>2021-05-08T09:28:56.000Z</time>
      </trkpt>
      <trkpt lat="48.67012" lon="1.87197">
        <ele>219.06</ele>
        <time>2021-05-08T09:29:06.000Z</time>
      </trkpt>
      <trkpt lat="48.67021" lon="1.87196">
        <ele>218.99</ele>
        <time>2021-05-08T09:29:15.000Z</time>
      </trkpt>
      <trkpt lat="48.67031" lon="1.87193">
        <ele>218.93</ele>
        <time>2021-05-08T09:29:23.000Z</time>
      </trkpt>
      <trkpt lat="48.67041" lon="1.87188">
        <ele>218.88</ele>
        <time>2021-05-08T09:29:30.000Z</time>
      </trkpt>
      <trkpt lat="48.67049" lon="1.87183">
        <ele>218.82</ele>
        <time>2021-05-08T09:29:39.000Z</time>
      </trkpt>
      <trkpt lat="48.67059" lon="1.87178">
        <ele>218.77</ele>
        <time>2021-05-08T09:29:48.000Z</time>
      </trkpt>
      <trkpt lat="48.67068" lon="1.87172">
        <ele>218.72</ele>
        <time>2021-05-08T09:29:56.000Z</time>
      </trkpt>
      <trkpt lat="48.67076" lon="1.87165">
        <ele>218.67</ele>
        <time>2021-05-08T09:30:05.000Z</time>
      </trkpt>
      <trkpt lat="48.67084" lon="1.87157">
        <ele>218.63</ele>
        <time>2021-05-08T09:30:13.000Z</time>
      </trkpt>
      <trkpt lat="48.67093" lon="1.87154">
        <ele>218.59</ele>
        <time>2021-05-08T09:30:22.000Z</time>
      </trkpt>
      <trkpt lat="48.67097" lon="1.87142">
        <ele>218.58</ele>
        <time>2021-05-08T09:30:28.000Z</time>
      </trkpt>
      <trkpt lat="48.67106" lon="1.87141">
        <ele>218.56</ele>
        <time>2021-05-08T09:30:36.000Z</time>
      </trkpt>
      <trkpt lat="48.67118" lon="1.87137">
        <ele>218.54</ele>
        <time>2021-05-08T09:30:43.000Z</time>
      </trkpt>
      <trkpt lat="48.67122" lon="1.87123">
        <ele>218.51</ele>
        <time>2021-05-08T09:30:53.000Z</time>
      </trkpt>
      <trkpt lat="48.67129" lon="1.87114">
        <ele>218.5</ele>
        <time>2021-05-08T09:30:59.000Z</time>
      </trkpt>
      <trkpt lat="48.67138" lon="1.87108">
        <ele>218.49</ele>
        <time>2021-05-08T09:31:07.000Z</time>
      </trkpt>
      <trkpt lat="48.67149" lon="1.87105">
        <ele>218.49</ele>
        <time>2021-05-08T09:31:14.000Z</time>
      </trkpt>
      <trkpt lat="48.67158" lon="1.87104">
        <ele>218.49</ele>
        <time>2021-05-08T09:31:21.000Z</time>
      </trkpt>
      <trkpt lat="48.67166" lon="1.87097">
        <ele>218.5</ele>
        <time>2021-05-08T09:31:30.000Z</time>
      </trkpt>
      <trkpt lat="48.67175" lon="1.87095">
        <ele>218.51</ele>
        <time>2021-05-08T09:31:39.000Z</time>
      </trkpt>
      <trkpt lat="48.67184" lon="1.87093">
        <ele>218.52</ele>
        <time>2021-05-08T09:31:47.000Z</time>
      </trkpt>
      <trkpt lat="48.67194" lon="1.87089">
        <ele>218.55</ele>
        <time>2021-05-08T09:31:55.000Z</time>
      </trkpt>
      <trkpt lat="48.67202" lon="1.87084">
        <ele>218.59</ele>
        <time>2021-05-08T09:32:04.000Z</time>
      </trkpt>
      <trkpt lat="48.67211" lon="1.87078">
        <ele>218.61</ele>
        <time>2021-05-08T09:32:10.000Z</time>
      </trkpt>
      <trkpt lat="48.67219" lon="1.87068">
        <ele>218.64</ele>
        <time>2021-05-08T09:32:19.000Z</time>
      </trkpt>
      <trkpt lat="48.67228" lon="1.87062">
        <ele>218.66</ele>
        <time>2021-05-08T09:32:27.000Z</time>
      </trkpt>
      <trkpt lat="48.67236" lon="1.87055">
        <ele>218.66</ele>
        <time>2021-05-08T09:32:37.000Z</time>
      </trkpt>
      <trkpt lat="48.67245" lon="1.8705">
        <ele>218.66</ele>
        <time>2021-05-08T09:32:43.000Z</time>
      </trkpt>
      <trkpt lat="48.67254" lon="1.87043">
        <ele>218.67</ele>
        <time>2021-05-08T09:32:51.000Z</time>
      </trkpt>
      <trkpt lat="48.67263" lon="1.87036">
        <ele>218.69</ele>
        <time>2021-05-08T09:33:00.000Z</time>
      </trkpt>
      <trkpt lat="48.67271" lon="1.87031">
        <ele>218.69</ele>
        <time>2021-05-08T09:33:06.000Z</time>
      </trkpt>
      <trkpt lat="48.6728" lon="1.87033">
        <ele>218.7</ele>
        <time>2021-05-08T09:33:16.000Z</time>
      </trkpt>
      <trkpt lat="48.6729" lon="1.87034">
        <ele>218.73</ele>
        <time>2021-05-08T09:33:31.000Z</time>
      </trkpt>
      <trkpt lat="48.67301" lon="1.87039">
        <ele>218.76</ele>
        <time>2021-05-08T09:33:39.000Z</time>
      </trkpt>
      <trkpt lat="48.67311" lon="1.8704">
        <ele>218.79</ele>
        <time>2021-05-08T09:33:46.000Z</time>
      </trkpt>
      <trkpt lat="48.67321" lon="1.87039">
        <ele>218.87</ele>
        <time>2021-05-08T09:34:01.000Z</time>
      </trkpt>
      <trkpt lat="48.67331" lon="1.87036">
        <ele>218.9</ele>
        <time>2021-05-08T09:34:06.000Z</time>
      </trkpt>
      <trkpt lat="48.6734" lon="1.87038">
        <ele>218.94</ele>
        <time>2021-05-08T09:34:17.000Z</time>
      </trkpt>
      <trkpt lat="48.67351" lon="1.87037">
        <ele>218.97</ele>
        <time>2021-05-08T09:34:23.000Z</time>
      </trkpt>
      <trkpt lat="48.67362" lon="1.87042">
        <ele>219.01</ele>
        <time>2021-05-08T09:34:31.000Z</time>
      </trkpt>
      <trkpt lat="48.6737" lon="1.87049">
        <ele>219.04</ele>
        <time>2021-05-08T09:34:37.000Z</time>
      </trkpt>
      <trkpt lat="48.6738" lon="1.87052">
        <ele>219.08</ele>
        <time>2021-05-08T09:34:47.000Z</time>
      </trkpt>
      <trkpt lat="48.67388" lon="1.87055">
        <ele>219.12</ele>
        <time>2021-05-08T09:34:55.000Z</time>
      </trkpt>
      <trkpt lat="48.67397" lon="1.87059">
        <ele>219.17</ele>
        <time>2021-05-08T09:35:03.000Z</time>
      </trkpt>
      <trkpt lat="48.67406" lon="1.8706">
        <ele>219.25</ele>
        <time>2021-05-08T09:35:15.000Z</time>
      </trkpt>
      <trkpt lat="48.67419" lon="1.87064">
        <ele>219.29</ele>
        <time>2021-05-08T09:35:21.000Z</time>
      </trkpt>
      <trkpt lat="48.67428" lon="1.87067">
        <ele>219.34</ele>
        <time>2021-05-08T09:35:28.000Z</time>
      </trkpt>
      <trkpt lat="48.67438" lon="1.8707">
        <ele>219.41</ele>
        <time>2021-05-08T09:35:40.000Z</time>
      </trkpt>
      <trkpt lat="48.67447" lon="1.87076">
        <ele>219.52</ele>
        <time>2021-05-08T09:35:53.000Z</time>
      </trkpt>
      <trkpt lat="48.67457" lon="1.87082">
        <ele>219.6</ele>
        <time>2021-05-08T09:36:06.000Z</time>
      </trkpt>
      <trkpt lat="48.67464" lon="1.8709">
        <ele>219.72</ele>
        <time>2021-05-08T09:36:37.000Z</time>
      </trkpt>
      <trkpt lat="48.67473" lon="1.87095">
        <ele>219.75</ele>
        <time>2021-05-08T09:37:28.000Z</time>
      </trkpt>
      <trkpt lat="48.67482" lon="1.87098">
        <ele>220.55</ele>
        <time>2021-05-08T09:44:06.999Z</time>
      </trkpt>
      <trkpt lat="48.67492" lon="1.87095">
        <ele>220.6</ele>
        <time>2021-05-08T09:44:17.999Z</time>
      </trkpt>
      <trkpt lat="48.67501" lon="1.87092">
        <ele>220.63</ele>
        <time>2021-05-08T09:44:25.999Z</time>
      </trkpt>
      <trkpt lat="48.6751" lon="1.87087">
        <ele>220.68</ele>
        <time>2021-05-08T09:44:47.999Z</time>
      </trkpt>
      <trkpt lat="48.6752" lon="1.87092">
        <ele>220.72</ele>
        <time>2021-05-08T09:45:07.999Z</time>
      </trkpt>
      <trkpt lat="48.6753" lon="1.87093">
        <ele>220.73</ele>
        <time>2021-05-08T09:45:12.999Z</time>
      </trkpt>
      <trkpt lat="48.6754" lon="1.87091">
        <ele>220.74</ele>
        <time>2021-05-08T09:45:18.999Z</time>
      </trkpt>
      <trkpt lat="48.6755" lon="1.87092">
        <ele>220.76</ele>
        <time>2021-05-08T09:45:24.999Z</time>
      </trkpt>
      <trkpt lat="48.67559" lon="1.87093">
        <ele>220.77</ele>
        <time>2021-05-08T09:45:28.999Z</time>
      </trkpt>
      <trkpt lat="48.67568" lon="1.87098">
        <ele>220.8</ele>
        <time>2021-05-08T09:45:36.999Z</time>
      </trkpt>
      <trkpt lat="48.67577" lon="1.87099">
        <ele>220.84</ele>
        <time>2021-05-08T09:45:49.999Z</time>
      </trkpt>
      <trkpt lat="48.67587" lon="1.87105">
        <ele>220.87</ele>
        <time>2021-05-08T09:46:00.999Z</time>
      </trkpt>
      <trkpt lat="48.67595" lon="1.87113">
        <ele>220.89</ele>
        <time>2021-05-08T09:46:09.999Z</time>
      </trkpt>
      <trkpt lat="48.67604" lon="1.87118">
        <ele>220.91</ele>
        <time>2021-05-08T09:46:17.999Z</time>
      </trkpt>
      <trkpt lat="48.67614" lon="1.87119">
        <ele>220.93</ele>
        <time>2021-05-08T09:46:25.999Z</time>
      </trkpt>
      <trkpt lat="48.67625" lon="1.87118">
        <ele>220.95</ele>
        <time>2021-05-08T09:46:35.999Z</time>
      </trkpt>
      <trkpt lat="48.67634" lon="1.8712">
        <ele>220.97</ele>
        <time>2021-05-08T09:46:45.999Z</time>
      </trkpt>
      <trkpt lat="48.67643" lon="1.87121">
        <ele>220.98</ele>
        <time>2021-05-08T09:46:54.999Z</time>
      </trkpt>
      <trkpt lat="48.67653" lon="1.87125">
        <ele>221.01</ele>
        <time>2021-05-08T09:47:03.999Z</time>
      </trkpt>
      <trkpt lat="48.67663" lon="1.87129">
        <ele>221.05</ele>
        <time>2021-05-08T09:47:12.999Z</time>
      </trkpt>
      <trkpt lat="48.67671" lon="1.87133">
        <ele>221.08</ele>
        <time>2021-05-08T09:47:21.999Z</time>
      </trkpt>
      <trkpt lat="48.67681" lon="1.87137">
        <ele>221.12</ele>
        <time>2021-05-08T09:47:32.999Z</time>
      </trkpt>
      <trkpt lat="48.67691" lon="1.87136">
        <ele>221.15</ele>
        <time>2021-05-08T09:47:42.999Z</time>
      </trkpt>
      <trkpt lat="48.677" lon="1.87135">
        <ele>221.18</ele>
        <time>2021-05-08T09:47:53.999Z</time>
      </trkpt>
      <trkpt lat="48.67709" lon="1.87135">
        <ele>221.21</ele>
        <time>2021-05-08T09:48:01.999Z</time>
      </trkpt>
      <trkpt lat="48.67718" lon="1.87139">
        <ele>221.24</ele>
        <time>2021-05-08T09:48:10.999Z</time>
      </trkpt>
      <trkpt lat="48.67727" lon="1.87141">
        <ele>221.28</ele>
        <time>2021-05-08T09:48:18.999Z</time>
      </trkpt>
      <trkpt lat="48.67736" lon="1.87142">
        <ele>221.32</ele>
        <time>2021-05-08T09:48:29.999Z</time>
      </trkpt>
      <trkpt lat="48.67746" lon="1.87141">
        <ele>221.36</ele>
        <time>2021-05-08T09:48:41.999Z</time>
      </trkpt>
      <trkpt lat="48.67755" lon="1.87143">
        <ele>221.39</ele>
        <time>2021-05-08T09:48:51.999Z</time>
      </trkpt>
      <trkpt lat="48.67765" lon="1.87144">
        <ele>221.42</ele>
        <time>2021-05-08T09:48:59.999Z</time>
      </trkpt>
      <trkpt lat="48.67774" lon="1.8714">
        <ele>221.43</ele>
        <time>2021-05-08T09:49:07.999Z</time>
      </trkpt>
      <trkpt lat="48.67784" lon="1.87137">
        <ele>221.45</ele>
        <time>2021-05-08T09:49:16.999Z</time>
      </trkpt>
      <trkpt lat="48.67793" lon="1.87136">
        <ele>221.46</ele>
        <time>2021-05-08T09:49:24.999Z</time>
      </trkpt>
      <trkpt lat="48.67802" lon="1.87132">
        <ele>221.47</ele>
        <time>2021-05-08T09:49:32.999Z</time>
      </trkpt>
      <trkpt lat="48.67811" lon="1.8713">
        <ele>221.48</ele>
        <time>2021-05-08T09:49:41.999Z</time>
      </trkpt>
      <trkpt lat="48.67821" lon="1.87129">
        <ele>221.49</ele>
        <time>2021-05-08T09:49:49.999Z</time>
      </trkpt>
      <trkpt lat="48.6783" lon="1.87126">
        <ele>221.5</ele>
        <time>2021-05-08T09:49:59.999Z</time>
      </trkpt>
      <trkpt lat="48.67839" lon="1.87127">
        <ele>221.51</ele>
        <time>2021-05-08T09:50:07.999Z</time>
      </trkpt>
      <trkpt lat="48.67849" lon="1.87125">
        <ele>221.52</ele>
        <time>2021-05-08T09:50:15.999Z</time>
      </trkpt>
      <trkpt lat="48.67859" lon="1.87126">
        <ele>221.52</ele>
        <time>2021-05-08T09:50:25.999Z</time>
      </trkpt>
      <trkpt lat="48.67867" lon="1.87122">
        <ele>221.53</ele>
        <time>2021-05-08T09:50:33.999Z</time>
      </trkpt>
      <trkpt lat="48.67877" lon="1.87119">
        <ele>221.53</ele>
        <time>2021-05-08T09:50:43.999Z</time>
      </trkpt>
      <trkpt lat="48.67886" lon="1.87117">
        <ele>221.53</ele>
        <time>2021-05-08T09:50:51.999Z</time>
      </trkpt>
      <trkpt lat="48.67896" lon="1.87119">
        <ele>221.52</ele>
        <time>2021-05-08T09:50:59.999Z</time>
      </trkpt>
      <trkpt lat="48.67905" lon="1.87114">
        <ele>221.52</ele>
        <time>2021-05-08T09:51:08.999Z</time>
      </trkpt>
      <trkpt lat="48.67914" lon="1.87113">
        <ele>221.51</ele>
        <time>2021-05-08T09:51:21.999Z</time>
      </trkpt>
      <trkpt lat="48.67924" lon="1.87116">
        <ele>221.54</ele>
        <time>2021-05-08T09:51:32.999Z</time>
      </trkpt>
      <trkpt lat="48.67935" lon="1.87115">
        <ele>221.6</ele>
        <time>2021-05-08T09:51:43.999Z</time>
      </trkpt>
      <trkpt lat="48.67945" lon="1.87114">
        <ele>221.64</ele>
        <time>2021-05-08T09:51:51.999Z</time>
      </trkpt>
      <trkpt lat="48.67954" lon="1.87112">
        <ele>221.67</ele>
        <time>2021-05-08T09:52:00.999Z</time>
      </trkpt>
      <trkpt lat="48.67964" lon="1.87107">
        <ele>221.68</ele>
        <time>2021-05-08T09:52:10.999Z</time>
      </trkpt>
      <trkpt lat="48.67972" lon="1.87103">
        <ele>221.68</ele>
        <time>2021-05-08T09:52:19.999Z</time>
      </trkpt>
      <trkpt lat="48.67981" lon="1.87099">
        <ele>221.69</ele>
        <time>2021-05-08T09:52:28.999Z</time>
      </trkpt>
      <trkpt lat="48.67991" lon="1.87101">
        <ele>221.69</ele>
        <time>2021-05-08T09:52:37.999Z</time>
      </trkpt>
      <trkpt lat="48.68001" lon="1.87098">
        <ele>221.67</ele>
        <time>2021-05-08T09:52:47.999Z</time>
      </trkpt>
      <trkpt lat="48.6801" lon="1.87097">
        <ele>221.64</ele>
        <time>2021-05-08T09:52:55.999Z</time>
      </trkpt>
      <trkpt lat="48.68019" lon="1.87091">
        <ele>221.62</ele>
        <time>2021-05-08T09:53:04.999Z</time>
      </trkpt>
      <trkpt lat="48.68029" lon="1.8709">
        <ele>221.61</ele>
        <time>2021-05-08T09:53:14.999Z</time>
      </trkpt>
      <trkpt lat="48.68039" lon="1.87089">
        <ele>221.62</ele>
        <time>2021-05-08T09:53:24.999Z</time>
      </trkpt>
      <trkpt lat="48.68048" lon="1.87088">
        <ele>221.66</ele>
        <time>2021-05-08T09:53:36.999Z</time>
      </trkpt>
      <trkpt lat="48.68058" lon="1.87082">
        <ele>221.65</ele>
        <time>2021-05-08T09:53:46.999Z</time>
      </trkpt>
      <trkpt lat="48.68067" lon="1.87077">
        <ele>221.64</ele>
        <time>2021-05-08T09:53:56.999Z</time>
      </trkpt>
      <trkpt lat="48.68074" lon="1.87068">
        <ele>221.63</ele>
        <time>2021-05-08T09:54:21.999Z</time>
      </trkpt>
      <trkpt lat="48.6808" lon="1.87078">
        <ele>221.65</ele>
        <time>2021-05-08T09:54:32.999Z</time>
      </trkpt>
      <trkpt lat="48.68081" lon="1.87093">
        <ele>221.66</ele>
        <time>2021-05-08T09:54:41.999Z</time>
      </trkpt>
      <trkpt lat="48.68085" lon="1.87107">
        <ele>221.67</ele>
        <time>2021-05-08T09:54:52.999Z</time>
      </trkpt>
      <trkpt lat="48.68091" lon="1.87118">
        <ele>221.67</ele>
        <time>2021-05-08T09:55:02.999Z</time>
      </trkpt>
      <trkpt lat="48.68093" lon="1.87132">
        <ele>221.66</ele>
        <time>2021-05-08T09:55:10.999Z</time>
      </trkpt>
      <trkpt lat="48.68097" lon="1.87145">
        <ele>221.62</ele>
        <time>2021-05-08T09:55:19.999Z</time>
      </trkpt>
      <trkpt lat="48.68104" lon="1.87156">
        <ele>221.59</ele>
        <time>2021-05-08T09:55:29.999Z</time>
      </trkpt>
      <trkpt lat="48.68108" lon="1.87169">
        <ele>221.56</ele>
        <time>2021-05-08T09:55:38.999Z</time>
      </trkpt>
      <trkpt lat="48.68112" lon="1.87181">
        <ele>221.53</ele>
        <time>2021-05-08T09:55:48.999Z</time>
      </trkpt>
      <trkpt lat="48.68115" lon="1.87196">
        <ele>221.47</ele>
        <time>2021-05-08T09:55:59.999Z</time>
      </trkpt>
      <trkpt lat="48.68118" lon="1.87209">
        <ele>221.41</ele>
        <time>2021-05-08T09:56:09.999Z</time>
      </trkpt>
      <trkpt lat="48.68124" lon="1.8722">
        <ele>221.37</ele>
        <time>2021-05-08T09:56:17.999Z</time>
      </trkpt>
      <trkpt lat="48.6813" lon="1.87231">
        <ele>221.32</ele>
        <time>2021-05-08T09:56:25.999Z</time>
      </trkpt>
      <trkpt lat="48.68136" lon="1.87243">
        <ele>221.25</ele>
        <time>2021-05-08T09:56:36.999Z</time>
      </trkpt>
      <trkpt lat="48.68139" lon="1.87256">
        <ele>221.2</ele>
        <time>2021-05-08T09:56:44.999Z</time>
      </trkpt>
      <trkpt lat="48.68142" lon="1.8727">
        <ele>221.14</ele>
        <time>2021-05-08T09:56:53.999Z</time>
      </trkpt>
      <trkpt lat="48.68146" lon="1.87283">
        <ele>221.09</ele>
        <time>2021-05-08T09:57:02.999Z</time>
      </trkpt>
      <trkpt lat="48.6815" lon="1.87295">
        <ele>221.03</ele>
        <time>2021-05-08T09:57:11.999Z</time>
      </trkpt>
      <trkpt lat="48.68155" lon="1.87307">
        <ele>220.98</ele>
        <time>2021-05-08T09:57:20.999Z</time>
      </trkpt>
      <trkpt lat="48.68161" lon="1.87319">
        <ele>220.92</ele>
        <time>2021-05-08T09:57:30.999Z</time>
      </trkpt>
      <trkpt lat="48.68165" lon="1.87331">
        <ele>220.88</ele>
        <time>2021-05-08T09:57:37.999Z</time>
      </trkpt>
      <trkpt lat="48.68171" lon="1.87341">
        <ele>220.83</ele>
        <time>2021-05-08T09:57:44.999Z</time>
      </trkpt>
      <trkpt lat="48.68175" lon="1.87354">
        <ele>220.77</ele>
        <time>2021-05-08T09:57:52.999Z</time>
      </trkpt>
      <trkpt lat="48.68179" lon="1.87368">
        <ele>220.7</ele>
        <time>2021-05-08T09:58:03.999Z</time>
      </trkpt>
      <trkpt lat="48.68184" lon="1.8738">
        <ele>220.66</ele>
        <time>2021-05-08T09:58:12.999Z</time>
      </trkpt>
      <trkpt lat="48.68189" lon="1.87393">
        <ele>220.62</ele>
        <time>2021-05-08T09:58:21.999Z</time>
      </trkpt>
      <trkpt lat="48.68189" lon="1.87407">
        <ele>220.59</ele>
        <time>2021-05-08T09:58:30.999Z</time>
      </trkpt>
      <trkpt lat="48.68195" lon="1.87417">
        <ele>220.54</ele>
        <time>2021-05-08T09:58:42.999Z</time>
      </trkpt>
      <trkpt lat="48.682" lon="1.87429">
        <ele>220.53</ele>
        <time>2021-05-08T09:58:47.999Z</time>
      </trkpt>
      <trkpt lat="48.68207" lon="1.8744">
        <ele>220.48</ele>
        <time>2021-05-08T09:58:58.999Z</time>
      </trkpt>
      <trkpt lat="48.68212" lon="1.87453">
        <ele>220.43</ele>
        <time>2021-05-08T09:59:09.999Z</time>
      </trkpt>
      <trkpt lat="48.68216" lon="1.87466">
        <ele>220.4</ele>
        <time>2021-05-08T09:59:18.999Z</time>
      </trkpt>
      <trkpt lat="48.68219" lon="1.87479">
        <ele>220.36</ele>
        <time>2021-05-08T09:59:28.999Z</time>
      </trkpt>
      <trkpt lat="48.68224" lon="1.87492">
        <ele>220.33</ele>
        <time>2021-05-08T09:59:37.999Z</time>
      </trkpt>
      <trkpt lat="48.68229" lon="1.87504">
        <ele>220.32</ele>
        <time>2021-05-08T09:59:46.999Z</time>
      </trkpt>
      <trkpt lat="48.68233" lon="1.87517">
        <ele>220.33</ele>
        <time>2021-05-08T09:59:54.999Z</time>
      </trkpt>
      <trkpt lat="48.68238" lon="1.87529">
        <ele>220.32</ele>
        <time>2021-05-08T10:00:02.999Z</time>
      </trkpt>
      <trkpt lat="48.68245" lon="1.8754">
        <ele>220.28</ele>
        <time>2021-05-08T10:00:14.999Z</time>
      </trkpt>
      <trkpt lat="48.6825" lon="1.87551">
        <ele>220.27</ele>
        <time>2021-05-08T10:00:21.999Z</time>
      </trkpt>
      <trkpt lat="48.68255" lon="1.87563">
        <ele>220.25</ele>
        <time>2021-05-08T10:00:29.999Z</time>
      </trkpt>
      <trkpt lat="48.68258" lon="1.87576">
        <ele>220.23</ele>
        <time>2021-05-08T10:00:38.999Z</time>
      </trkpt>
      <trkpt lat="48.68263" lon="1.87588">
        <ele>220.21</ele>
        <time>2021-05-08T10:00:46.999Z</time>
      </trkpt>
      <trkpt lat="48.68268" lon="1.87599">
        <ele>220.11</ele>
        <time>2021-05-08T10:01:06.999Z</time>
      </trkpt>
      <trkpt lat="48.68271" lon="1.87614">
        <ele>220.06</ele>
        <time>2021-05-08T10:01:18.999Z</time>
      </trkpt>
      <trkpt lat="48.68276" lon="1.87625">
        <ele>220.02</ele>
        <time>2021-05-08T10:01:26.999Z</time>
      </trkpt>
      <trkpt lat="48.68281" lon="1.87638">
        <ele>220</ele>
        <time>2021-05-08T10:01:36.999Z</time>
      </trkpt>
      <trkpt lat="48.68285" lon="1.87651">
        <ele>219.99</ele>
        <time>2021-05-08T10:01:47.999Z</time>
      </trkpt>
      <trkpt lat="48.68289" lon="1.87663">
        <ele>219.97</ele>
        <time>2021-05-08T10:01:59.999Z</time>
      </trkpt>
      <trkpt lat="48.6829" lon="1.87677">
        <ele>219.95</ele>
        <time>2021-05-08T10:02:56.000Z</time>
      </trkpt>
      <trkpt lat="48.68294" lon="1.87689">
        <ele>219.94</ele>
        <time>2021-05-08T10:03:06.000Z</time>
      </trkpt>
      <trkpt lat="48.683" lon="1.87701">
        <ele>219.92</ele>
        <time>2021-05-08T10:03:16.000Z</time>
      </trkpt>
      <trkpt lat="48.68305" lon="1.87715">
        <ele>219.88</ele>
        <time>2021-05-08T10:03:25.000Z</time>
      </trkpt>
      <trkpt lat="48.68309" lon="1.87728">
        <ele>219.84</ele>
        <time>2021-05-08T10:03:34.000Z</time>
      </trkpt>
      <trkpt lat="48.68313" lon="1.87741">
        <ele>219.81</ele>
        <time>2021-05-08T10:03:42.000Z</time>
      </trkpt>
      <trkpt lat="48.68319" lon="1.87752">
        <ele>219.79</ele>
        <time>2021-05-08T10:03:52.000Z</time>
      </trkpt>
      <trkpt lat="48.68324" lon="1.87766">
        <ele>219.77</ele>
        <time>2021-05-08T10:04:01.000Z</time>
      </trkpt>
      <trkpt lat="48.68329" lon="1.87776">
        <ele>219.77</ele>
        <time>2021-05-08T10:04:10.000Z</time>
      </trkpt>
      <trkpt lat="48.68335" lon="1.87787">
        <ele>219.77</ele>
        <time>2021-05-08T10:04:19.000Z</time>
      </trkpt>
      <trkpt lat="48.68339" lon="1.878">
        <ele>219.78</ele>
        <time>2021-05-08T10:04:28.000Z</time>
      </trkpt>
      <trkpt lat="48.68345" lon="1.8781">
        <ele>219.78</ele>
        <time>2021-05-08T10:04:38.000Z</time>
      </trkpt>
      <trkpt lat="48.68348" lon="1.87825">
        <ele>219.78</ele>
        <time>2021-05-08T10:04:47.000Z</time>
      </trkpt>
      <trkpt lat="48.68349" lon="1.87838">
        <ele>219.77</ele>
        <time>2021-05-08T10:04:55.000Z</time>
      </trkpt>
      <trkpt lat="48.68354" lon="1.8785">
        <ele>219.77</ele>
        <time>2021-05-08T10:05:04.000Z</time>
      </trkpt>
      <trkpt lat="48.68358" lon="1.87863">
        <ele>219.75</ele>
        <time>2021-05-08T10:05:13.000Z</time>
      </trkpt>
      <trkpt lat="48.68364" lon="1.87874">
        <ele>219.73</ele>
        <time>2021-05-08T10:05:22.000Z</time>
      </trkpt>
      <trkpt lat="48.68368" lon="1.87886">
        <ele>219.7</ele>
        <time>2021-05-08T10:05:31.000Z</time>
      </trkpt>
      <trkpt lat="48.68373" lon="1.87898">
        <ele>219.67</ele>
        <time>2021-05-08T10:05:42.000Z</time>
      </trkpt>
      <trkpt lat="48.68379" lon="1.8791">
        <ele>219.65</ele>
        <time>2021-05-08T10:05:49.000Z</time>
      </trkpt>
      <trkpt lat="48.68384" lon="1.87923">
        <ele>219.63</ele>
        <time>2021-05-08T10:05:59.000Z</time>
      </trkpt>
      <trkpt lat="48.68388" lon="1.87935">
        <ele>219.62</ele>
        <time>2021-05-08T10:06:06.000Z</time>
      </trkpt>
      <trkpt lat="48.68393" lon="1.87949">
        <ele>219.61</ele>
        <time>2021-05-08T10:06:15.000Z</time>
      </trkpt>
      <trkpt lat="48.68398" lon="1.87961">
        <ele>219.58</ele>
        <time>2021-05-08T10:06:25.000Z</time>
      </trkpt>
      <trkpt lat="48.68403" lon="1.87974">
        <ele>219.56</ele>
        <time>2021-05-08T10:06:32.000Z</time>
      </trkpt>
      <trkpt lat="48.68407" lon="1.87988">
        <ele>219.55</ele>
        <time>2021-05-08T10:06:43.000Z</time>
      </trkpt>
      <trkpt lat="48.68411" lon="1.88002">
        <ele>219.55</ele>
        <time>2021-05-08T10:06:52.000Z</time>
      </trkpt>
      <trkpt lat="48.68416" lon="1.88014">
        <ele>219.53</ele>
        <time>2021-05-08T10:07:02.000Z</time>
      </trkpt>
      <trkpt lat="48.68421" lon="1.88026">
        <ele>219.52</ele>
        <time>2021-05-08T10:07:09.000Z</time>
      </trkpt>
      <trkpt lat="48.68423" lon="1.88039">
        <ele>219.51</ele>
        <time>2021-05-08T10:07:17.000Z</time>
      </trkpt>
      <trkpt lat="48.68426" lon="1.88053">
        <ele>219.51</ele>
        <time>2021-05-08T10:07:28.000Z</time>
      </trkpt>
      <trkpt lat="48.68431" lon="1.88066">
        <ele>219.5</ele>
        <time>2021-05-08T10:07:39.000Z</time>
      </trkpt>
      <trkpt lat="48.68432" lon="1.8808">
        <ele>219.48</ele>
        <time>2021-05-08T10:07:51.000Z</time>
      </trkpt>
      <trkpt lat="48.68434" lon="1.88094">
        <ele>219.46</ele>
        <time>2021-05-08T10:07:59.000Z</time>
      </trkpt>
      <trkpt lat="48.68434" lon="1.88108">
        <ele>219.41</ele>
        <time>2021-05-08T10:08:11.000Z</time>
      </trkpt>
      <trkpt lat="48.6844" lon="1.8812">
        <ele>219.37</ele>
        <time>2021-05-08T10:08:20.000Z</time>
      </trkpt>
      <trkpt lat="48.68443" lon="1.88133">
        <ele>219.32</ele>
        <time>2021-05-08T10:08:30.000Z</time>
      </trkpt>
      <trkpt lat="48.68448" lon="1.88145">
        <ele>219.23</ele>
        <time>2021-05-08T10:08:40.000Z</time>
      </trkpt>
      <trkpt lat="48.68456" lon="1.88157">
        <ele>219.19</ele>
        <time>2021-05-08T10:08:45.000Z</time>
      </trkpt>
      <trkpt lat="48.68461" lon="1.88168">
        <ele>219.15</ele>
        <time>2021-05-08T10:08:49.000Z</time>
      </trkpt>
      <trkpt lat="48.68461" lon="1.88183">
        <ele>219.02</ele>
        <time>2021-05-08T10:09:02.000Z</time>
      </trkpt>
      <trkpt lat="48.68464" lon="1.88198">
        <ele>218.93</ele>
        <time>2021-05-08T10:09:12.000Z</time>
      </trkpt>
      <trkpt lat="48.6847" lon="1.8821">
        <ele>218.87</ele>
        <time>2021-05-08T10:09:22.000Z</time>
      </trkpt>
      <trkpt lat="48.68478" lon="1.8822">
        <ele>218.83</ele>
        <time>2021-05-08T10:09:29.000Z</time>
      </trkpt>
      <trkpt lat="48.68486" lon="1.8823">
        <ele>218.8</ele>
        <time>2021-05-08T10:09:37.000Z</time>
      </trkpt>
      <trkpt lat="48.68485" lon="1.88243">
        <ele>218.74</ele>
        <time>2021-05-08T10:09:53.000Z</time>
      </trkpt>
      <trkpt lat="48.68486" lon="1.8826">
        <ele>218.71</ele>
        <time>2021-05-08T10:10:00.000Z</time>
      </trkpt>
      <trkpt lat="48.68493" lon="1.8827">
        <ele>218.68</ele>
        <time>2021-05-08T10:10:05.000Z</time>
      </trkpt>
      <trkpt lat="48.68495" lon="1.88286">
        <ele>218.64</ele>
        <time>2021-05-08T10:10:14.000Z</time>
      </trkpt>
      <trkpt lat="48.68499" lon="1.883">
        <ele>218.52</ele>
        <time>2021-05-08T10:10:27.000Z</time>
      </trkpt>
      <trkpt lat="48.68504" lon="1.88313">
        <ele>218.36</ele>
        <time>2021-05-08T10:10:39.000Z</time>
      </trkpt>
      <trkpt lat="48.68506" lon="1.88328">
        <ele>218.26</ele>
        <time>2021-05-08T10:10:45.000Z</time>
      </trkpt>
      <trkpt lat="48.68512" lon="1.88342">
        <ele>218.13</ele>
        <time>2021-05-08T10:10:52.000Z</time>
      </trkpt>
      <trkpt lat="48.68519" lon="1.88353">
        <ele>218.03</ele>
        <time>2021-05-08T10:10:58.000Z</time>
      </trkpt>
      <trkpt lat="48.68524" lon="1.88364">
        <ele>217.91</ele>
        <time>2021-05-08T10:11:05.000Z</time>
      </trkpt>
      <trkpt lat="48.68531" lon="1.88373">
        <ele>217.82</ele>
        <time>2021-05-08T10:11:11.000Z</time>
      </trkpt>
      <trkpt lat="48.68539" lon="1.88381">
        <ele>217.74</ele>
        <time>2021-05-08T10:11:18.000Z</time>
      </trkpt>
      <trkpt lat="48.68546" lon="1.88391">
        <ele>217.68</ele>
        <time>2021-05-08T10:11:25.000Z</time>
      </trkpt>
      <trkpt lat="48.68552" lon="1.88403">
        <ele>217.61</ele>
        <time>2021-05-08T10:11:34.000Z</time>
      </trkpt>
      <trkpt lat="48.68554" lon="1.88416">
        <ele>217.55</ele>
        <time>2021-05-08T10:11:46.000Z</time>
      </trkpt>
      <trkpt lat="48.68554" lon="1.88431">
        <ele>217.49</ele>
        <time>2021-05-08T10:11:56.000Z</time>
      </trkpt>
      <trkpt lat="48.68558" lon="1.88445">
        <ele>217.44</ele>
        <time>2021-05-08T10:12:03.000Z</time>
      </trkpt>
      <trkpt lat="48.6856" lon="1.88458">
        <ele>217.39</ele>
        <time>2021-05-08T10:12:10.000Z</time>
      </trkpt>
      <trkpt lat="48.68566" lon="1.8847">
        <ele>217.31</ele>
        <time>2021-05-08T10:12:21.000Z</time>
      </trkpt>
      <trkpt lat="48.68572" lon="1.88483">
        <ele>217.28</ele>
        <time>2021-05-08T10:12:27.000Z</time>
      </trkpt>
      <trkpt lat="48.68579" lon="1.88492">
        <ele>217.25</ele>
        <time>2021-05-08T10:12:33.000Z</time>
      </trkpt>
      <trkpt lat="48.68584" lon="1.88503">
        <ele>217.21</ele>
        <time>2021-05-08T10:12:46.000Z</time>
      </trkpt>
      <trkpt lat="48.68587" lon="1.88517">
        <ele>217.21</ele>
        <time>2021-05-08T10:12:53.000Z</time>
      </trkpt>
      <trkpt lat="48.68592" lon="1.88532">
        <ele>217.21</ele>
        <time>2021-05-08T10:13:01.000Z</time>
      </trkpt>
      <trkpt lat="48.68594" lon="1.88546">
        <ele>217.24</ele>
        <time>2021-05-08T10:13:14.000Z</time>
      </trkpt>
      <trkpt lat="48.68595" lon="1.88561">
        <ele>217.25</ele>
        <time>2021-05-08T10:13:22.000Z</time>
      </trkpt>
      <trkpt lat="48.68591" lon="1.88575">
        <ele>217.31</ele>
        <time>2021-05-08T10:13:34.000Z</time>
      </trkpt>
      <trkpt lat="48.6859" lon="1.8859">
        <ele>217.35</ele>
        <time>2021-05-08T10:13:44.000Z</time>
      </trkpt>
      <trkpt lat="48.68592" lon="1.88603">
        <ele>217.39</ele>
        <time>2021-05-08T10:13:52.000Z</time>
      </trkpt>
      <trkpt lat="48.6859" lon="1.88617">
        <ele>217.46</ele>
        <time>2021-05-08T10:14:02.000Z</time>
      </trkpt>
      <trkpt lat="48.68592" lon="1.88632">
        <ele>217.5</ele>
        <time>2021-05-08T10:14:09.000Z</time>
      </trkpt>
      <trkpt lat="48.68592" lon="1.88646">
        <ele>217.53</ele>
        <time>2021-05-08T10:14:17.000Z</time>
      </trkpt>
      <trkpt lat="48.68593" lon="1.8866">
        <ele>217.54</ele>
        <time>2021-05-08T10:14:26.000Z</time>
      </trkpt>
      <trkpt lat="48.68593" lon="1.88675">
        <ele>217.5</ele>
        <time>2021-05-08T10:14:34.000Z</time>
      </trkpt>
      <trkpt lat="48.68594" lon="1.88689">
        <ele>217.46</ele>
        <time>2021-05-08T10:14:42.000Z</time>
      </trkpt>
      <trkpt lat="48.68597" lon="1.88704">
        <ele>217.44</ele>
        <time>2021-05-08T10:14:48.000Z</time>
      </trkpt>
      <trkpt lat="48.68601" lon="1.88716">
        <ele>217.37</ele>
        <time>2021-05-08T10:14:56.000Z</time>
      </trkpt>
      <trkpt lat="48.68597" lon="1.8873">
        <ele>217.28</ele>
        <time>2021-05-08T10:15:06.000Z</time>
      </trkpt>
      <trkpt lat="48.686" lon="1.88745">
        <ele>217.2</ele>
        <time>2021-05-08T10:15:14.000Z</time>
      </trkpt>
      <trkpt lat="48.68602" lon="1.8876">
        <ele>217.13</ele>
        <time>2021-05-08T10:15:22.000Z</time>
      </trkpt>
      <trkpt lat="48.68603" lon="1.88774">
        <ele>217.03</ele>
        <time>2021-05-08T10:15:34.000Z</time>
      </trkpt>
      <trkpt lat="48.68604" lon="1.88789">
        <ele>217.07</ele>
        <time>2021-05-08T10:15:45.000Z</time>
      </trkpt>
      <trkpt lat="48.68599" lon="1.88803">
        <ele>217.09</ele>
        <time>2021-05-08T10:15:51.000Z</time>
      </trkpt>
      <trkpt lat="48.68598" lon="1.88819">
        <ele>217.05</ele>
        <time>2021-05-08T10:16:04.000Z</time>
      </trkpt>
      <trkpt lat="48.68597" lon="1.88835">
        <ele>216.85</ele>
        <time>2021-05-08T10:16:11.000Z</time>
      </trkpt>
      <trkpt lat="48.68596" lon="1.88849">
        <ele>216.52</ele>
        <time>2021-05-08T10:16:24.000Z</time>
      </trkpt>
      <trkpt lat="48.68593" lon="1.88863">
        <ele>216.32</ele>
        <time>2021-05-08T10:16:30.000Z</time>
      </trkpt>
      <trkpt lat="48.6859" lon="1.88876">
        <ele>215.91</ele>
        <time>2021-05-08T10:16:40.000Z</time>
      </trkpt>
      <trkpt lat="48.68589" lon="1.8889">
        <ele>215.5</ele>
        <time>2021-05-08T10:16:48.000Z</time>
      </trkpt>
      <trkpt lat="48.68587" lon="1.88906">
        <ele>214.95</ele>
        <time>2021-05-08T10:17:00.000Z</time>
      </trkpt>
      <trkpt lat="48.68585" lon="1.88921">
        <ele>214.6</ele>
        <time>2021-05-08T10:17:07.000Z</time>
      </trkpt>
      <trkpt lat="48.68587" lon="1.88934">
        <ele>214.37</ele>
        <time>2021-05-08T10:17:16.000Z</time>
      </trkpt>
      <trkpt lat="48.68589" lon="1.88949">
        <ele>214.26</ele>
        <time>2021-05-08T10:17:23.000Z</time>
      </trkpt>
      <trkpt lat="48.68591" lon="1.88963">
        <ele>214.24</ele>
        <time>2021-05-08T10:17:32.000Z</time>
      </trkpt>
      <trkpt lat="48.68592" lon="1.88977">
        <ele>214.25</ele>
        <time>2021-05-08T10:17:44.000Z</time>
      </trkpt>
      <trkpt lat="48.68588" lon="1.88992">
        <ele>214.33</ele>
        <time>2021-05-08T10:17:51.000Z</time>
      </trkpt>
      <trkpt lat="48.68585" lon="1.89005">
        <ele>214.51</ele>
        <time>2021-05-08T10:17:58.000Z</time>
      </trkpt>
      <trkpt lat="48.68586" lon="1.89019">
        <ele>214.62</ele>
        <time>2021-05-08T10:18:02.000Z</time>
      </trkpt>
      <trkpt lat="48.68592" lon="1.8903">
        <ele>214.91</ele>
        <time>2021-05-08T10:18:13.000Z</time>
      </trkpt>
      <trkpt lat="48.68596" lon="1.89044">
        <ele>215.13</ele>
        <time>2021-05-08T10:18:22.000Z</time>
      </trkpt>
      <trkpt lat="48.68599" lon="1.89057">
        <ele>215.45</ele>
        <time>2021-05-08T10:18:30.000Z</time>
      </trkpt>
      <trkpt lat="48.68603" lon="1.89071">
        <ele>215.65</ele>
        <time>2021-05-08T10:18:38.000Z</time>
      </trkpt>
      <trkpt lat="48.68602" lon="1.89087">
        <ele>215.89</ele>
        <time>2021-05-08T10:18:45.000Z</time>
      </trkpt>
      <trkpt lat="48.68602" lon="1.89101">
        <ele>216.17</ele>
        <time>2021-05-08T10:18:52.000Z</time>
      </trkpt>
      <trkpt lat="48.68606" lon="1.89114">
        <ele>216.61</ele>
        <time>2021-05-08T10:19:03.000Z</time>
      </trkpt>
      <trkpt lat="48.68606" lon="1.89128">
        <ele>216.78</ele>
        <time>2021-05-08T10:19:14.000Z</time>
      </trkpt>
      <trkpt lat="48.68602" lon="1.8914">
        <ele>216.94</ele>
        <time>2021-05-08T10:19:21.000Z</time>
      </trkpt>
      <trkpt lat="48.68603" lon="1.89157">
        <ele>217.16</ele>
        <time>2021-05-08T10:19:30.000Z</time>
      </trkpt>
      <trkpt lat="48.68609" lon="1.89169">
        <ele>217.37</ele>
        <time>2021-05-08T10:19:38.000Z</time>
      </trkpt>
      <trkpt lat="48.68611" lon="1.89183">
        <ele>217.58</ele>
        <time>2021-05-08T10:19:49.000Z</time>
      </trkpt>
      <trkpt lat="48.6861" lon="1.89198">
        <ele>217.81</ele>
        <time>2021-05-08T10:19:58.000Z</time>
      </trkpt>
      <trkpt lat="48.68606" lon="1.89211">
        <ele>218.34</ele>
        <time>2021-05-08T10:20:07.000Z</time>
      </trkpt>
      <trkpt lat="48.68606" lon="1.89226">
        <ele>219</ele>
        <time>2021-05-08T10:20:16.000Z</time>
      </trkpt>
      <trkpt lat="48.68605" lon="1.89242">
        <ele>219.59</ele>
        <time>2021-05-08T10:20:24.000Z</time>
      </trkpt>
      <trkpt lat="48.68603" lon="1.89256">
        <ele>220.29</ele>
        <time>2021-05-08T10:20:34.000Z</time>
      </trkpt>
      <trkpt lat="48.68603" lon="1.89271">
        <ele>220.75</ele>
        <time>2021-05-08T10:20:41.000Z</time>
      </trkpt>
      <trkpt lat="48.68602" lon="1.89286">
        <ele>221.14</ele>
        <time>2021-05-08T10:20:49.000Z</time>
      </trkpt>
      <trkpt lat="48.68602" lon="1.893">
        <ele>221.48</ele>
        <time>2021-05-08T10:20:57.000Z</time>
      </trkpt>
      <trkpt lat="48.68602" lon="1.89314">
        <ele>221.71</ele>
        <time>2021-05-08T10:21:06.000Z</time>
      </trkpt>
      <trkpt lat="48.68604" lon="1.89329">
        <ele>221.88</ele>
        <time>2021-05-08T10:21:14.000Z</time>
      </trkpt>
      <trkpt lat="48.68604" lon="1.89342">
        <ele>221.93</ele>
        <time>2021-05-08T10:21:23.000Z</time>
      </trkpt>
      <trkpt lat="48.68603" lon="1.89356">
        <ele>222.07</ele>
        <time>2021-05-08T10:21:32.000Z</time>
      </trkpt>
      <trkpt lat="48.68602" lon="1.89371">
        <ele>222.22</ele>
        <time>2021-05-08T10:21:38.000Z</time>
      </trkpt>
      <trkpt lat="48.68603" lon="1.89386">
        <ele>222.42</ele>
        <time>2021-05-08T10:21:48.000Z</time>
      </trkpt>
      <trkpt lat="48.68604" lon="1.89401">
        <ele>222.53</ele>
        <time>2021-05-08T10:21:54.000Z</time>
      </trkpt>
      <trkpt lat="48.68607" lon="1.89415">
        <ele>222.68</ele>
        <time>2021-05-08T10:22:00.999Z</time>
      </trkpt>
      <trkpt lat="48.68602" lon="1.89427">
        <ele>222.9</ele>
        <time>2021-05-08T10:22:12.999Z</time>
      </trkpt>
      <trkpt lat="48.68602" lon="1.89442">
        <ele>223.05</ele>
        <time>2021-05-08T10:22:22.999Z</time>
      </trkpt>
      <trkpt lat="48.68604" lon="1.89456">
        <ele>223.15</ele>
        <time>2021-05-08T10:22:29.999Z</time>
      </trkpt>
      <trkpt lat="48.686" lon="1.89469">
        <ele>223.56</ele>
        <time>2021-05-08T10:22:46.999Z</time>
      </trkpt>
      <trkpt lat="48.68591" lon="1.89473">
        <ele>226.39</ele>
        <time>2021-05-08T10:23:43.999Z</time>
      </trkpt>
      <trkpt lat="48.68596" lon="1.89486">
        <ele>233.11</ele>
        <time>2021-05-08T10:25:21.999Z</time>
      </trkpt>
      <trkpt lat="48.68598" lon="1.895">
        <ele>234.34</ele>
        <time>2021-05-08T10:25:36.999Z</time>
      </trkpt>
      <trkpt lat="48.68598" lon="1.89514">
        <ele>234.89</ele>
        <time>2021-05-08T10:25:44.999Z</time>
      </trkpt>
      <trkpt lat="48.68599" lon="1.89528">
        <ele>235.37</ele>
        <time>2021-05-08T10:25:53.999Z</time>
      </trkpt>
      <trkpt lat="48.68599" lon="1.89544">
        <ele>235.66</ele>
        <time>2021-05-08T10:26:00.999Z</time>
      </trkpt>
      <trkpt lat="48.686" lon="1.89559">
        <ele>235.86</ele>
        <time>2021-05-08T10:26:06.999Z</time>
      </trkpt>
      <trkpt lat="48.68602" lon="1.89572">
        <ele>236.04</ele>
        <time>2021-05-08T10:26:13.999Z</time>
      </trkpt>
      <trkpt lat="48.68603" lon="1.89588">
        <ele>236.2</ele>
        <time>2021-05-08T10:26:21.999Z</time>
      </trkpt>
      <trkpt lat="48.68603" lon="1.89602">
        <ele>236.3</ele>
        <time>2021-05-08T10:26:28.999Z</time>
      </trkpt>
      <trkpt lat="48.68602" lon="1.89618">
        <ele>236.38</ele>
        <time>2021-05-08T10:26:36.999Z</time>
      </trkpt>
      <trkpt lat="48.68605" lon="1.89633">
        <ele>236.43</ele>
        <time>2021-05-08T10:26:46.999Z</time>
      </trkpt>
      <trkpt lat="48.68605" lon="1.89648">
        <ele>236.45</ele>
        <time>2021-05-08T10:26:55.999Z</time>
      </trkpt>
      <trkpt lat="48.68604" lon="1.89663">
        <ele>236.44</ele>
        <time>2021-05-08T10:27:05.999Z</time>
      </trkpt>
      <trkpt lat="48.68606" lon="1.89677">
        <ele>236.41</ele>
        <time>2021-05-08T10:27:12.999Z</time>
      </trkpt>
      <trkpt lat="48.68606" lon="1.89692">
        <ele>236.37</ele>
        <time>2021-05-08T10:27:19.999Z</time>
      </trkpt>
      <trkpt lat="48.68607" lon="1.89707">
        <ele>236.32</ele>
        <time>2021-05-08T10:27:26.999Z</time>
      </trkpt>
      <trkpt lat="48.68606" lon="1.8972">
        <ele>236.25</ele>
        <time>2021-05-08T10:27:35.999Z</time>
      </trkpt>
      <trkpt lat="48.68607" lon="1.89734">
        <ele>236.18</ele>
        <time>2021-05-08T10:27:42.999Z</time>
      </trkpt>
      <trkpt lat="48.68607" lon="1.89748">
        <ele>236.11</ele>
        <time>2021-05-08T10:27:50.999Z</time>
      </trkpt>
      <trkpt lat="48.68608" lon="1.89763">
        <ele>236.06</ele>
        <time>2021-05-08T10:27:56.999Z</time>
      </trkpt>
      <trkpt lat="48.68608" lon="1.89777">
        <ele>236.01</ele>
        <time>2021-05-08T10:28:02.999Z</time>
      </trkpt>
      <trkpt lat="48.68605" lon="1.89791">
        <ele>235.96</ele>
        <time>2021-05-08T10:28:10.999Z</time>
      </trkpt>
      <trkpt lat="48.68606" lon="1.89806">
        <ele>235.83</ele>
        <time>2021-05-08T10:28:21.999Z</time>
      </trkpt>
      <trkpt lat="48.68607" lon="1.8982">
        <ele>235.73</ele>
        <time>2021-05-08T10:28:28.999Z</time>
      </trkpt>
      <trkpt lat="48.68606" lon="1.89835">
        <ele>235.63</ele>
        <time>2021-05-08T10:28:35.999Z</time>
      </trkpt>
      <trkpt lat="48.68605" lon="1.89851">
        <ele>235.55</ele>
        <time>2021-05-08T10:28:43.999Z</time>
      </trkpt>
      <trkpt lat="48.68604" lon="1.89865">
        <ele>235.48</ele>
        <time>2021-05-08T10:28:52.999Z</time>
      </trkpt>
      <trkpt lat="48.68604" lon="1.89879">
        <ele>235.43</ele>
        <time>2021-05-08T10:29:01.999Z</time>
      </trkpt>
      <trkpt lat="48.68604" lon="1.89894">
        <ele>235.4</ele>
        <time>2021-05-08T10:29:07.999Z</time>
      </trkpt>
      <trkpt lat="48.68605" lon="1.8991">
        <ele>235.37</ele>
        <time>2021-05-08T10:29:16.999Z</time>
      </trkpt>
      <trkpt lat="48.68606" lon="1.89925">
        <ele>235.36</ele>
        <time>2021-05-08T10:29:27.999Z</time>
      </trkpt>
      <trkpt lat="48.68608" lon="1.89939">
        <ele>235.4</ele>
        <time>2021-05-08T10:29:37.999Z</time>
      </trkpt>
      <trkpt lat="48.6861" lon="1.89954">
        <ele>235.43</ele>
        <time>2021-05-08T10:29:46.999Z</time>
      </trkpt>
      <trkpt lat="48.68607" lon="1.89968">
        <ele>235.43</ele>
        <time>2021-05-08T10:29:53.999Z</time>
      </trkpt>
      <trkpt lat="48.68605" lon="1.89982">
        <ele>235.39</ele>
        <time>2021-05-08T10:30:01.999Z</time>
      </trkpt>
      <trkpt lat="48.68608" lon="1.89996">
        <ele>235.31</ele>
        <time>2021-05-08T10:30:13.999Z</time>
      </trkpt>
      <trkpt lat="48.68606" lon="1.9001">
        <ele>235.2</ele>
        <time>2021-05-08T10:30:24.999Z</time>
      </trkpt>
      <trkpt lat="48.68605" lon="1.90025">
        <ele>235.1</ele>
        <time>2021-05-08T10:30:32.999Z</time>
      </trkpt>
      <trkpt lat="48.68605" lon="1.90041">
        <ele>234.99</ele>
        <time>2021-05-08T10:30:42.999Z</time>
      </trkpt>
      <trkpt lat="48.68604" lon="1.90055">
        <ele>234.92</ele>
        <time>2021-05-08T10:30:50.999Z</time>
      </trkpt>
      <trkpt lat="48.68605" lon="1.90069">
        <ele>234.85</ele>
        <time>2021-05-08T10:30:58.999Z</time>
      </trkpt>
      <trkpt lat="48.68606" lon="1.90083">
        <ele>234.78</ele>
        <time>2021-05-08T10:31:06.999Z</time>
      </trkpt>
      <trkpt lat="48.68607" lon="1.90099">
        <ele>234.7</ele>
        <time>2021-05-08T10:31:15.999Z</time>
      </trkpt>
      <trkpt lat="48.68606" lon="1.90113">
        <ele>234.64</ele>
        <time>2021-05-08T10:31:22.999Z</time>
      </trkpt>
      <trkpt lat="48.68606" lon="1.90127">
        <ele>234.59</ele>
        <time>2021-05-08T10:31:29.999Z</time>
      </trkpt>
      <trkpt lat="48.68607" lon="1.90142">
        <ele>234.52</ele>
        <time>2021-05-08T10:31:38.999Z</time>
      </trkpt>
      <trkpt lat="48.68606" lon="1.90156">
        <ele>234.46</ele>
        <time>2021-05-08T10:31:47.999Z</time>
      </trkpt>
      <trkpt lat="48.68607" lon="1.90172">
        <ele>234.39</ele>
        <time>2021-05-08T10:31:56.999Z</time>
      </trkpt>
      <trkpt lat="48.68606" lon="1.90186">
        <ele>234.33</ele>
        <time>2021-05-08T10:32:05.999Z</time>
      </trkpt>
      <trkpt lat="48.68605" lon="1.90201">
        <ele>234.3</ele>
        <time>2021-05-08T10:32:15.999Z</time>
      </trkpt>
      <trkpt lat="48.68604" lon="1.90215">
        <ele>234.31</ele>
        <time>2021-05-08T10:32:22.999Z</time>
      </trkpt>
      <trkpt lat="48.68607" lon="1.90229">
        <ele>234.31</ele>
        <time>2021-05-08T10:32:31.999Z</time>
      </trkpt>
      <trkpt lat="48.68607" lon="1.90244">
        <ele>234.31</ele>
        <time>2021-05-08T10:32:39.999Z</time>
      </trkpt>
      <trkpt lat="48.68607" lon="1.90259">
        <ele>234.3</ele>
        <time>2021-05-08T10:32:51.999Z</time>
      </trkpt>
      <trkpt lat="48.68606" lon="1.90274">
        <ele>234.3</ele>
        <time>2021-05-08T10:32:58.999Z</time>
      </trkpt>
      <trkpt lat="48.68606" lon="1.90288">
        <ele>234.29</ele>
        <time>2021-05-08T10:33:03.999Z</time>
      </trkpt>
      <trkpt lat="48.68606" lon="1.90302">
        <ele>234.28</ele>
        <time>2021-05-08T10:33:10.999Z</time>
      </trkpt>
      <trkpt lat="48.68607" lon="1.90317">
        <ele>234.26</ele>
        <time>2021-05-08T10:33:20.999Z</time>
      </trkpt>
      <trkpt lat="48.68605" lon="1.9033">
        <ele>234.22</ele>
        <time>2021-05-08T10:33:29.999Z</time>
      </trkpt>
      <trkpt lat="48.68604" lon="1.90344">
        <ele>234.16</ele>
        <time>2021-05-08T10:33:38.999Z</time>
      </trkpt>
      <trkpt lat="48.68605" lon="1.90358">
        <ele>234.06</ele>
        <time>2021-05-08T10:33:48.999Z</time>
      </trkpt>
      <trkpt lat="48.68602" lon="1.90372">
        <ele>233.98</ele>
        <time>2021-05-08T10:33:55.999Z</time>
      </trkpt>
      <trkpt lat="48.68605" lon="1.90387">
        <ele>233.88</ele>
        <time>2021-05-08T10:34:06.999Z</time>
      </trkpt>
      <trkpt lat="48.68607" lon="1.90401">
        <ele>233.8</ele>
        <time>2021-05-08T10:34:14.999Z</time>
      </trkpt>
      <trkpt lat="48.68607" lon="1.90414">
        <ele>233.72</ele>
        <time>2021-05-08T10:34:22.999Z</time>
      </trkpt>
      <trkpt lat="48.68608" lon="1.90429">
        <ele>233.65</ele>
        <time>2021-05-08T10:34:30.999Z</time>
      </trkpt>
      <trkpt lat="48.68607" lon="1.90445">
        <ele>233.58</ele>
        <time>2021-05-08T10:34:38.999Z</time>
      </trkpt>
      <trkpt lat="48.68606" lon="1.9046">
        <ele>233.51</ele>
        <time>2021-05-08T10:34:46.999Z</time>
      </trkpt>
      <trkpt lat="48.68605" lon="1.90475">
        <ele>233.43</ele>
        <time>2021-05-08T10:34:54.999Z</time>
      </trkpt>
      <trkpt lat="48.68605" lon="1.90489">
        <ele>233.34</ele>
        <time>2021-05-08T10:35:04.999Z</time>
      </trkpt>
      <trkpt lat="48.68604" lon="1.90503">
        <ele>233.3</ele>
        <time>2021-05-08T10:35:10.999Z</time>
      </trkpt>
      <trkpt lat="48.68604" lon="1.90518">
        <ele>233.21</ele>
        <time>2021-05-08T10:35:21.999Z</time>
      </trkpt>
      <trkpt lat="48.68604" lon="1.90532">
        <ele>233.16</ele>
        <time>2021-05-08T10:35:28.999Z</time>
      </trkpt>
      <trkpt lat="48.68606" lon="1.90547">
        <ele>233.11</ele>
        <time>2021-05-08T10:35:36.999Z</time>
      </trkpt>
      <trkpt lat="48.68606" lon="1.90562">
        <ele>233.04</ele>
        <time>2021-05-08T10:35:47.999Z</time>
      </trkpt>
      <trkpt lat="48.68606" lon="1.90577">
        <ele>232.95</ele>
        <time>2021-05-08T10:36:00.999Z</time>
      </trkpt>
      <trkpt lat="48.68608" lon="1.90592">
        <ele>232.89</ele>
        <time>2021-05-08T10:36:07.999Z</time>
      </trkpt>
      <trkpt lat="48.68611" lon="1.90607">
        <ele>232.82</ele>
        <time>2021-05-08T10:36:15.999Z</time>
      </trkpt>
      <trkpt lat="48.68609" lon="1.90621">
        <ele>232.74</ele>
        <time>2021-05-08T10:36:25.999Z</time>
      </trkpt>
      <trkpt lat="48.68608" lon="1.90636">
        <ele>232.66</ele>
        <time>2021-05-08T10:36:35.999Z</time>
      </trkpt>
      <trkpt lat="48.68606" lon="1.90652">
        <ele>232.62</ele>
        <time>2021-05-08T10:36:41.999Z</time>
      </trkpt>
      <trkpt lat="48.68606" lon="1.90666">
        <ele>232.55</ele>
        <time>2021-05-08T10:36:51.999Z</time>
      </trkpt>
      <trkpt lat="48.68606" lon="1.9068">
        <ele>232.49</ele>
        <time>2021-05-08T10:37:02.999Z</time>
      </trkpt>
      <trkpt lat="48.68604" lon="1.90695">
        <ele>232.42</ele>
        <time>2021-05-08T10:37:12.999Z</time>
      </trkpt>
      <trkpt lat="48.68607" lon="1.90709">
        <ele>232.37</ele>
        <time>2021-05-08T10:37:20.999Z</time>
      </trkpt>
      <trkpt lat="48.68609" lon="1.90724">
        <ele>232.34</ele>
        <time>2021-05-08T10:37:26.999Z</time>
      </trkpt>
      <trkpt lat="48.6861" lon="1.90738">
        <ele>232.29</ele>
        <time>2021-05-08T10:37:38.999Z</time>
      </trkpt>
      <trkpt lat="48.68608" lon="1.90751">
        <ele>232.23</ele>
        <time>2021-05-08T10:37:48.999Z</time>
      </trkpt>
      <trkpt lat="48.68612" lon="1.90766">
        <ele>232.18</ele>
        <time>2021-05-08T10:37:56.999Z</time>
      </trkpt>
      <trkpt lat="48.6861" lon="1.90781">
        <ele>232.13</ele>
        <time>2021-05-08T10:38:05.999Z</time>
      </trkpt>
      <trkpt lat="48.68607" lon="1.90794">
        <ele>232.1</ele>
        <time>2021-05-08T10:38:12.999Z</time>
      </trkpt>
      <trkpt lat="48.6861" lon="1.90808">
        <ele>232.03</ele>
        <time>2021-05-08T10:38:22.999Z</time>
      </trkpt>
      <trkpt lat="48.68609" lon="1.90824">
        <ele>231.96</ele>
        <time>2021-05-08T10:38:30.999Z</time>
      </trkpt>
      <trkpt lat="48.68603" lon="1.90834">
        <ele>231.71</ele>
        <time>2021-05-08T10:38:51.999Z</time>
      </trkpt>
      <trkpt lat="48.68598" lon="1.90846">
        <ele>231.45</ele>
        <time>2021-05-08T10:39:10.999Z</time>
      </trkpt>
      <trkpt lat="48.68591" lon="1.90857">
        <ele>231.03</ele>
        <time>2021-05-08T10:39:46.999Z</time>
      </trkpt>
      <trkpt lat="48.68584" lon="1.90866">
        <ele>230.92</ele>
        <time>2021-05-08T10:39:51.999Z</time>
      </trkpt>
      <trkpt lat="48.68581" lon="1.90881">
        <ele>230.74</ele>
        <time>2021-05-08T10:40:00.999Z</time>
      </trkpt>
      <trkpt lat="48.68574" lon="1.9089">
        <ele>230.52</ele>
        <time>2021-05-08T10:40:11.999Z</time>
      </trkpt>
      <trkpt lat="48.6857" lon="1.90905">
        <ele>230.35</ele>
        <time>2021-05-08T10:40:19.999Z</time>
      </trkpt>
      <trkpt lat="48.68569" lon="1.90918">
        <ele>230.06</ele>
        <time>2021-05-08T10:40:33.999Z</time>
      </trkpt>
      <trkpt lat="48.68573" lon="1.90932">
        <ele>229.83</ele>
        <time>2021-05-08T10:40:46.999Z</time>
      </trkpt>
      <trkpt lat="48.6858" lon="1.90945">
        <ele>229.6</ele>
        <time>2021-05-08T10:40:59.999Z</time>
      </trkpt>
      <trkpt lat="48.68584" lon="1.90957">
        <ele>229.46</ele>
        <time>2021-05-08T10:41:09.999Z</time>
      </trkpt>
      <trkpt lat="48.68593" lon="1.90967">
        <ele>229.18</ele>
        <time>2021-05-08T10:41:27.999Z</time>
      </trkpt>
      <trkpt lat="48.68599" lon="1.90978">
        <ele>228.97</ele>
        <time>2021-05-08T10:41:40.999Z</time>
      </trkpt>
      <trkpt lat="48.68607" lon="1.90989">
        <ele>228.55</ele>
        <time>2021-05-08T10:42:03.999Z</time>
      </trkpt>
      <trkpt lat="48.68614" lon="1.91001">
        <ele>228.38</ele>
        <time>2021-05-08T10:42:14.000Z</time>
      </trkpt>
      <trkpt lat="48.68623" lon="1.91011">
        <ele>228.15</ele>
        <time>2021-05-08T10:42:26.000Z</time>
      </trkpt>
      <trkpt lat="48.6863" lon="1.91019">
        <ele>227.95</ele>
        <time>2021-05-08T10:42:39.000Z</time>
      </trkpt>
      <trkpt lat="48.68637" lon="1.9103">
        <ele>227.82</ele>
        <time>2021-05-08T10:42:47.000Z</time>
      </trkpt>
      <trkpt lat="48.68642" lon="1.91041">
        <ele>227.6</ele>
        <time>2021-05-08T10:43:01.000Z</time>
      </trkpt>
      <trkpt lat="48.68647" lon="1.91054">
        <ele>227.41</ele>
        <time>2021-05-08T10:43:12.000Z</time>
      </trkpt>
      <trkpt lat="48.68651" lon="1.91066">
        <ele>227.13</ele>
        <time>2021-05-08T10:43:27.000Z</time>
      </trkpt>
      <trkpt lat="48.68654" lon="1.9108">
        <ele>226.95</ele>
        <time>2021-05-08T10:43:37.000Z</time>
      </trkpt>
      <trkpt lat="48.68664" lon="1.91094">
        <ele>225.77</ele>
        <time>2021-05-08T10:44:09.000Z</time>
      </trkpt>
      <trkpt lat="48.68671" lon="1.91104">
        <ele>225.76</ele>
        <time>2021-05-08T10:44:11.000Z</time>
      </trkpt>
      <trkpt lat="48.68673" lon="1.91119">
        <ele>225.63</ele>
        <time>2021-05-08T10:44:22.000Z</time>
      </trkpt>
      <trkpt lat="48.68674" lon="1.91133">
        <ele>225.39</ele>
        <time>2021-05-08T10:44:35.000Z</time>
      </trkpt>
      <trkpt lat="48.68671" lon="1.91146">
        <ele>225.05</ele>
        <time>2021-05-08T10:44:51.000Z</time>
      </trkpt>
      <trkpt lat="48.6867" lon="1.91161">
        <ele>224.74</ele>
        <time>2021-05-08T10:45:02.000Z</time>
      </trkpt>
      <trkpt lat="48.68671" lon="1.91176">
        <ele>224.42</ele>
        <time>2021-05-08T10:45:13.000Z</time>
      </trkpt>
      <trkpt lat="48.68674" lon="1.9119">
        <ele>224.14</ele>
        <time>2021-05-08T10:45:22.000Z</time>
      </trkpt>
      <trkpt lat="48.68677" lon="1.91205">
        <ele>223.72</ele>
        <time>2021-05-08T10:45:34.000Z</time>
      </trkpt>
      <trkpt lat="48.6868" lon="1.91219">
        <ele>223.29</ele>
        <time>2021-05-08T10:45:46.000Z</time>
      </trkpt>
      <trkpt lat="48.6868" lon="1.91234">
        <ele>222.92</ele>
        <time>2021-05-08T10:45:57.000Z</time>
      </trkpt>
      <trkpt lat="48.68679" lon="1.91252">
        <ele>222.53</ele>
        <time>2021-05-08T10:46:08.000Z</time>
      </trkpt>
      <trkpt lat="48.68679" lon="1.91267">
        <ele>222.17</ele>
        <time>2021-05-08T10:46:19.000Z</time>
      </trkpt>
      <trkpt lat="48.68684" lon="1.91279">
        <ele>221.76</ele>
        <time>2021-05-08T10:46:32.000Z</time>
      </trkpt>
      <trkpt lat="48.68689" lon="1.91292">
        <ele>221.34</ele>
        <time>2021-05-08T10:46:45.000Z</time>
      </trkpt>
      <trkpt lat="48.68691" lon="1.91306">
        <ele>221.02</ele>
        <time>2021-05-08T10:46:54.000Z</time>
      </trkpt>
      <trkpt lat="48.68697" lon="1.91319">
        <ele>220.63</ele>
        <time>2021-05-08T10:47:07.000Z</time>
      </trkpt>
      <trkpt lat="48.687" lon="1.91331">
        <ele>220.24</ele>
        <time>2021-05-08T10:47:17.000Z</time>
      </trkpt>
      <trkpt lat="48.68699" lon="1.91345">
        <ele>219.85</ele>
        <time>2021-05-08T10:47:28.000Z</time>
      </trkpt>
      <trkpt lat="48.68698" lon="1.91361">
        <ele>219.64</ele>
        <time>2021-05-08T10:47:34.000Z</time>
      </trkpt>
      <trkpt lat="48.68695" lon="1.91374">
        <ele>219.32</ele>
        <time>2021-05-08T10:47:46.000Z</time>
      </trkpt>
      <trkpt lat="48.6869" lon="1.91387">
        <ele>218.65</ele>
        <time>2021-05-08T10:48:07.000Z</time>
      </trkpt>
      <trkpt lat="48.68686" lon="1.914">
        <ele>218.35</ele>
        <time>2021-05-08T10:48:15.000Z</time>
      </trkpt>
      <trkpt lat="48.68685" lon="1.91415">
        <ele>217.88</ele>
        <time>2021-05-08T10:48:30.000Z</time>
      </trkpt>
      <trkpt lat="48.68686" lon="1.91429">
        <ele>217.52</ele>
        <time>2021-05-08T10:48:41.000Z</time>
      </trkpt>
      <trkpt lat="48.68687" lon="1.91443">
        <ele>217.19</ele>
        <time>2021-05-08T10:48:51.000Z</time>
      </trkpt>
      <trkpt lat="48.68689" lon="1.91457">
        <ele>216.98</ele>
        <time>2021-05-08T10:48:58.000Z</time>
      </trkpt>
      <trkpt lat="48.68689" lon="1.91471">
        <ele>216.76</ele>
        <time>2021-05-08T10:49:06.000Z</time>
      </trkpt>
      <trkpt lat="48.6869" lon="1.91484">
        <ele>216.55</ele>
        <time>2021-05-08T10:49:14.000Z</time>
      </trkpt>
      <trkpt lat="48.68696" lon="1.91496">
        <ele>216.35</ele>
        <time>2021-05-08T10:49:22.000Z</time>
      </trkpt>
      <trkpt lat="48.68701" lon="1.9151">
        <ele>216.17</ele>
        <time>2021-05-08T10:49:29.000Z</time>
      </trkpt>
      <trkpt lat="48.68701" lon="1.91526">
        <ele>215.93</ele>
        <time>2021-05-08T10:49:39.000Z</time>
      </trkpt>
      <trkpt lat="48.68702" lon="1.91542">
        <ele>215.74</ele>
        <time>2021-05-08T10:49:46.000Z</time>
      </trkpt>
      <trkpt lat="48.68702" lon="1.91556">
        <ele>215.47</ele>
        <time>2021-05-08T10:49:57.000Z</time>
      </trkpt>
      <trkpt lat="48.68702" lon="1.91571">
        <ele>215.31</ele>
        <time>2021-05-08T10:50:05.000Z</time>
      </trkpt>
      <trkpt lat="48.68702" lon="1.91586">
        <ele>215.15</ele>
        <time>2021-05-08T10:50:12.000Z</time>
      </trkpt>
      <trkpt lat="48.68707" lon="1.91599">
        <ele>214.92</ele>
        <time>2021-05-08T10:50:22.000Z</time>
      </trkpt>
      <trkpt lat="48.68709" lon="1.91613">
        <ele>214.71</ele>
        <time>2021-05-08T10:50:31.000Z</time>
      </trkpt>
      <trkpt lat="48.68712" lon="1.91626">
        <ele>214.53</ele>
        <time>2021-05-08T10:50:40.000Z</time>
      </trkpt>
      <trkpt lat="48.68721" lon="1.91633">
        <ele>214.19</ele>
        <time>2021-05-08T10:50:54.000Z</time>
      </trkpt>
      <trkpt lat="48.6873" lon="1.9164">
        <ele>213.92</ele>
        <time>2021-05-08T10:51:06.000Z</time>
      </trkpt>
      <trkpt lat="48.68735" lon="1.91651">
        <ele>213.62</ele>
        <time>2021-05-08T10:51:19.000Z</time>
      </trkpt>
      <trkpt lat="48.68741" lon="1.91663">
        <ele>213.39</ele>
        <time>2021-05-08T10:51:28.000Z</time>
      </trkpt>
      <trkpt lat="48.68746" lon="1.91675">
        <ele>213.12</ele>
        <time>2021-05-08T10:51:37.000Z</time>
      </trkpt>
      <trkpt lat="48.68751" lon="1.9169">
        <ele>212.8</ele>
        <time>2021-05-08T10:51:48.000Z</time>
      </trkpt>
      <trkpt lat="48.68755" lon="1.91703">
        <ele>212.56</ele>
        <time>2021-05-08T10:51:56.000Z</time>
      </trkpt>
      <trkpt lat="48.68757" lon="1.91717">
        <ele>212.2</ele>
        <time>2021-05-08T10:52:08.000Z</time>
      </trkpt>
      <trkpt lat="48.68768" lon="1.91757">
        <ele>215.8</ele>
        <time>2021-05-08T11:34:14.999Z</time>
      </trkpt>
      <trkpt lat="48.68767" lon="1.91771">
        <ele>205.97</ele>
        <time>2021-05-08T11:34:34.999Z</time>
      </trkpt>
      <trkpt lat="48.68767" lon="1.91785">
        <ele>205.28</ele>
        <time>2021-05-08T11:34:45.999Z</time>
      </trkpt>
      <trkpt lat="48.68767" lon="1.91799">
        <ele>204.75</ele>
        <time>2021-05-08T11:34:52.999Z</time>
      </trkpt>
      <trkpt lat="48.6877" lon="1.91812">
        <ele>203.89</ele>
        <time>2021-05-08T11:35:01.999Z</time>
      </trkpt>
      <trkpt lat="48.68774" lon="1.91825">
        <ele>202.65</ele>
        <time>2021-05-08T11:35:14.999Z</time>
      </trkpt>
      <trkpt lat="48.68775" lon="1.91838">
        <ele>201.36</ele>
        <time>2021-05-08T11:35:31.999Z</time>
      </trkpt>
      <trkpt lat="48.68776" lon="1.91853">
        <ele>200.11</ele>
        <time>2021-05-08T11:35:51.999Z</time>
      </trkpt>
      <trkpt lat="48.68778" lon="1.91867">
        <ele>199.67</ele>
        <time>2021-05-08T11:35:58.999Z</time>
      </trkpt>
      <trkpt lat="48.68779" lon="1.91881">
        <ele>199.12</ele>
        <time>2021-05-08T11:36:08.999Z</time>
      </trkpt>
      <trkpt lat="48.68781" lon="1.91896">
        <ele>198.46</ele>
        <time>2021-05-08T11:36:25.999Z</time>
      </trkpt>
      <trkpt lat="48.68783" lon="1.91909">
        <ele>198.03</ele>
        <time>2021-05-08T11:36:39.999Z</time>
      </trkpt>
      <trkpt lat="48.6879" lon="1.91921">
        <ele>197.51</ele>
        <time>2021-05-08T11:36:59.999Z</time>
      </trkpt>
      <trkpt lat="48.68796" lon="1.91931">
        <ele>197.04</ele>
        <time>2021-05-08T11:37:13.999Z</time>
      </trkpt>
      <trkpt lat="48.68805" lon="1.91938">
        <ele>196.6</ele>
        <time>2021-05-08T11:37:28.999Z</time>
      </trkpt>
      <trkpt lat="48.68814" lon="1.91944">
        <ele>196.48</ele>
        <time>2021-05-08T11:37:33.999Z</time>
      </trkpt>
      <trkpt lat="48.68821" lon="1.91953">
        <ele>196.27</ele>
        <time>2021-05-08T11:37:43.999Z</time>
      </trkpt>
      <trkpt lat="48.68827" lon="1.91965">
        <ele>196.05</ele>
        <time>2021-05-08T11:37:53.999Z</time>
      </trkpt>
      <trkpt lat="48.68835" lon="1.91971">
        <ele>195.71</ele>
        <time>2021-05-08T11:38:08.999Z</time>
      </trkpt>
      <trkpt lat="48.68845" lon="1.91982">
        <ele>195.54</ele>
        <time>2021-05-08T11:38:15.999Z</time>
      </trkpt>
      <trkpt lat="48.68854" lon="1.91987">
        <ele>195.3</ele>
        <time>2021-05-08T11:38:30.999Z</time>
      </trkpt>
      <trkpt lat="48.68864" lon="1.91981">
        <ele>192.95</ele>
        <time>2021-05-08T11:40:38.999Z</time>
      </trkpt>
      <trkpt lat="48.6887" lon="1.91992">
        <ele>192.55</ele>
        <time>2021-05-08T11:41:15.999Z</time>
      </trkpt>
      <trkpt lat="48.68857" lon="1.91986">
        <ele>192.49</ele>
        <time>2021-05-08T11:41:29.999Z</time>
      </trkpt>
      <trkpt lat="48.68862" lon="1.92003">
        <ele>192.42</ele>
        <time>2021-05-08T11:41:47.999Z</time>
      </trkpt>
      <trkpt lat="48.68867" lon="1.92016">
        <ele>192.4</ele>
        <time>2021-05-08T11:41:56.999Z</time>
      </trkpt>
      <trkpt lat="48.68878" lon="1.92024">
        <ele>192.38</ele>
        <time>2021-05-08T11:42:04.999Z</time>
      </trkpt>
      <trkpt lat="48.68888" lon="1.92026">
        <ele>192.36</ele>
        <time>2021-05-08T11:42:15.999Z</time>
      </trkpt>
      <trkpt lat="48.68892" lon="1.92039">
        <ele>192.34</ele>
        <time>2021-05-08T11:42:20.999Z</time>
      </trkpt>
      <trkpt lat="48.68902" lon="1.9204">
        <ele>192.31</ele>
        <time>2021-05-08T11:42:26.999Z</time>
      </trkpt>
      <trkpt lat="48.68912" lon="1.92041">
        <ele>192.29</ele>
        <time>2021-05-08T11:42:33.999Z</time>
      </trkpt>
      <trkpt lat="48.6892" lon="1.92049">
        <ele>192.23</ele>
        <time>2021-05-08T11:42:44.999Z</time>
      </trkpt>
      <trkpt lat="48.68925" lon="1.9206">
        <ele>192.12</ele>
        <time>2021-05-08T11:42:55.999Z</time>
      </trkpt>
      <trkpt lat="48.68933" lon="1.92068">
        <ele>192.04</ele>
        <time>2021-05-08T11:43:00.999Z</time>
      </trkpt>
      <trkpt lat="48.68941" lon="1.92077">
        <ele>191.86</ele>
        <time>2021-05-08T11:43:11.999Z</time>
      </trkpt>
      <trkpt lat="48.68952" lon="1.92082">
        <ele>191.64</ele>
        <time>2021-05-08T11:43:25.999Z</time>
      </trkpt>
      <trkpt lat="48.68958" lon="1.92094">
        <ele>191.53</ele>
        <time>2021-05-08T11:43:32.999Z</time>
      </trkpt>
      <trkpt lat="48.68965" lon="1.92107">
        <ele>191.37</ele>
        <time>2021-05-08T11:43:42.999Z</time>
      </trkpt>
      <trkpt lat="48.68971" lon="1.92118">
        <ele>191.27</ele>
        <time>2021-05-08T11:43:51.999Z</time>
      </trkpt>
      <trkpt lat="48.6897" lon="1.92132">
        <ele>191.2</ele>
        <time>2021-05-08T11:43:58.999Z</time>
      </trkpt>
      <trkpt lat="48.68967" lon="1.92146">
        <ele>191.03</ele>
        <time>2021-05-08T11:44:08.999Z</time>
      </trkpt>
      <trkpt lat="48.68967" lon="1.9216">
        <ele>190.91</ele>
        <time>2021-05-08T11:44:19.999Z</time>
      </trkpt>
      <trkpt lat="48.68964" lon="1.92172">
        <ele>190.71</ele>
        <time>2021-05-08T11:44:34.999Z</time>
      </trkpt>
      <trkpt lat="48.68963" lon="1.92186">
        <ele>190.6</ele>
        <time>2021-05-08T11:44:41.999Z</time>
      </trkpt>
      <trkpt lat="48.68961" lon="1.92201">
        <ele>190.48</ele>
        <time>2021-05-08T11:44:53.999Z</time>
      </trkpt>
      <trkpt lat="48.68955" lon="1.92212">
        <ele>190.44</ele>
        <time>2021-05-08T11:44:58.999Z</time>
      </trkpt>
      <trkpt lat="48.68954" lon="1.92226">
        <ele>190.36</ele>
        <time>2021-05-08T11:45:09.999Z</time>
      </trkpt>
      <trkpt lat="48.68948" lon="1.92238">
        <ele>190.29</ele>
        <time>2021-05-08T11:45:21.999Z</time>
      </trkpt>
      <trkpt lat="48.68942" lon="1.92247">
        <ele>190.23</ele>
        <time>2021-05-08T11:45:27.999Z</time>
      </trkpt>
      <trkpt lat="48.68941" lon="1.92261">
        <ele>190.11</ele>
        <time>2021-05-08T11:45:45.999Z</time>
      </trkpt>
      <trkpt lat="48.68939" lon="1.92274">
        <ele>190.07</ele>
        <time>2021-05-08T11:45:51.999Z</time>
      </trkpt>
      <trkpt lat="48.68938" lon="1.92288">
        <ele>190.04</ele>
        <time>2021-05-08T11:46:02.999Z</time>
      </trkpt>
      <trkpt lat="48.68936" lon="1.92302">
        <ele>190</ele>
        <time>2021-05-08T11:46:11.999Z</time>
      </trkpt>
      <trkpt lat="48.68931" lon="1.92315">
        <ele>189.96</ele>
        <time>2021-05-08T11:46:22.999Z</time>
      </trkpt>
      <trkpt lat="48.68921" lon="1.92316">
        <ele>189.66</ele>
        <time>2021-05-08T11:46:38.999Z</time>
      </trkpt>
      <trkpt lat="48.68914" lon="1.92306">
        <ele>189.63</ele>
        <time>2021-05-08T11:46:40.999Z</time>
      </trkpt>
      <trkpt lat="48.68923" lon="1.92313">
        <ele>188.78</ele>
        <time>2021-05-08T11:48:32.999Z</time>
      </trkpt>
      <trkpt lat="48.68923" lon="1.92327">
        <ele>188.58</ele>
        <time>2021-05-08T11:48:48.999Z</time>
      </trkpt>
      <trkpt lat="48.68917" lon="1.92338">
        <ele>188.39</ele>
        <time>2021-05-08T11:49:03.999Z</time>
      </trkpt>
      <trkpt lat="48.68909" lon="1.92347">
        <ele>188.24</ele>
        <time>2021-05-08T11:49:15.999Z</time>
      </trkpt>
      <trkpt lat="48.68905" lon="1.92359">
        <ele>188.18</ele>
        <time>2021-05-08T11:49:21.999Z</time>
      </trkpt>
      <trkpt lat="48.68899" lon="1.9237">
        <ele>188.09</ele>
        <time>2021-05-08T11:49:33.999Z</time>
      </trkpt>
      <trkpt lat="48.6889" lon="1.92369">
        <ele>187.94</ele>
        <time>2021-05-08T11:50:06.000Z</time>
      </trkpt>
      <trkpt lat="48.6888" lon="1.9237">
        <ele>187.9</ele>
        <time>2021-05-08T11:50:14.000Z</time>
      </trkpt>
      <trkpt lat="48.68872" lon="1.92379">
        <ele>187.83</ele>
        <time>2021-05-08T11:50:28.000Z</time>
      </trkpt>
      <trkpt lat="48.68866" lon="1.9239">
        <ele>187.74</ele>
        <time>2021-05-08T11:50:40.000Z</time>
      </trkpt>
      <trkpt lat="48.68855" lon="1.92397">
        <ele>187.67</ele>
        <time>2021-05-08T11:50:47.000Z</time>
      </trkpt>
      <trkpt lat="48.68851" lon="1.92409">
        <ele>187.6</ele>
        <time>2021-05-08T11:50:54.000Z</time>
      </trkpt>
      <trkpt lat="48.68843" lon="1.92416">
        <ele>187.48</ele>
        <time>2021-05-08T11:51:14.000Z</time>
      </trkpt>
      <trkpt lat="48.68833" lon="1.92417">
        <ele>187.43</ele>
        <time>2021-05-08T11:51:40.000Z</time>
      </trkpt>
      <trkpt lat="48.68823" lon="1.92419">
        <ele>187.39</ele>
        <time>2021-05-08T11:51:50.000Z</time>
      </trkpt>
      <trkpt lat="48.68816" lon="1.92429">
        <ele>187.33</ele>
        <time>2021-05-08T11:52:03.000Z</time>
      </trkpt>
      <trkpt lat="48.68813" lon="1.92443">
        <ele>187.25</ele>
        <time>2021-05-08T11:52:11.000Z</time>
      </trkpt>
      <trkpt lat="48.68808" lon="1.92457">
        <ele>187.15</ele>
        <time>2021-05-08T11:52:23.000Z</time>
      </trkpt>
      <trkpt lat="48.68801" lon="1.92468">
        <ele>187.08</ele>
        <time>2021-05-08T11:52:33.000Z</time>
      </trkpt>
      <trkpt lat="48.68805" lon="1.92481">
        <ele>187</ele>
        <time>2021-05-08T11:52:43.000Z</time>
      </trkpt>
      <trkpt lat="48.68803" lon="1.92494">
        <ele>186.93</ele>
        <time>2021-05-08T11:52:50.000Z</time>
      </trkpt>
      <trkpt lat="48.688" lon="1.92509">
        <ele>186.79</ele>
        <time>2021-05-08T11:53:03.000Z</time>
      </trkpt>
      <trkpt lat="48.68798" lon="1.92523">
        <ele>186.76</ele>
        <time>2021-05-08T11:53:10.000Z</time>
      </trkpt>
      <trkpt lat="48.68794" lon="1.92536">
        <ele>186.76</ele>
        <time>2021-05-08T11:53:17.000Z</time>
      </trkpt>
      <trkpt lat="48.68795" lon="1.92554">
        <ele>186.75</ele>
        <time>2021-05-08T11:53:24.000Z</time>
      </trkpt>
      <trkpt lat="48.68798" lon="1.92567">
        <ele>186.71</ele>
        <time>2021-05-08T11:53:29.000Z</time>
      </trkpt>
      <trkpt lat="48.68806" lon="1.92577">
        <ele>186.66</ele>
        <time>2021-05-08T11:53:34.000Z</time>
      </trkpt>
      <trkpt lat="48.68814" lon="1.92586">
        <ele>186.59</ele>
        <time>2021-05-08T11:53:41.000Z</time>
      </trkpt>
      <trkpt lat="48.68823" lon="1.9259">
        <ele>186.5</ele>
        <time>2021-05-08T11:53:50.000Z</time>
      </trkpt>
      <trkpt lat="48.68829" lon="1.92601">
        <ele>186.32</ele>
        <time>2021-05-08T11:54:05.000Z</time>
      </trkpt>
      <trkpt lat="48.68833" lon="1.92614">
        <ele>186.08</ele>
        <time>2021-05-08T11:54:22.000Z</time>
      </trkpt>
      <trkpt lat="48.68833" lon="1.92628">
        <ele>185.6</ele>
        <time>2021-05-08T11:55:40.000Z</time>
      </trkpt>
      <trkpt lat="48.68824" lon="1.92636">
        <ele>185.6</ele>
        <time>2021-05-08T11:55:47.000Z</time>
      </trkpt>
      <trkpt lat="48.68816" lon="1.92642">
        <ele>185.62</ele>
        <time>2021-05-08T11:55:59.000Z</time>
      </trkpt>
      <trkpt lat="48.68807" lon="1.92651">
        <ele>185.67</ele>
        <time>2021-05-08T11:56:12.000Z</time>
      </trkpt>
      <trkpt lat="48.688" lon="1.92662">
        <ele>185.7</ele>
        <time>2021-05-08T11:56:17.000Z</time>
      </trkpt>
      <trkpt lat="48.68794" lon="1.92673">
        <ele>185.73</ele>
        <time>2021-05-08T11:56:25.000Z</time>
      </trkpt>
      <trkpt lat="48.68787" lon="1.92685">
        <ele>185.75</ele>
        <time>2021-05-08T11:56:34.000Z</time>
      </trkpt>
      <trkpt lat="48.68784" lon="1.92699">
        <ele>185.79</ele>
        <time>2021-05-08T11:56:40.000Z</time>
      </trkpt>
      <trkpt lat="48.68782" lon="1.92715">
        <ele>185.89</ele>
        <time>2021-05-08T11:56:49.000Z</time>
      </trkpt>
      <trkpt lat="48.68777" lon="1.92726">
        <ele>185.95</ele>
        <time>2021-05-08T11:56:55.000Z</time>
      </trkpt>
      <trkpt lat="48.68776" lon="1.9274">
        <ele>186.11</ele>
        <time>2021-05-08T11:57:06.000Z</time>
      </trkpt>
      <trkpt lat="48.68774" lon="1.92756">
        <ele>186.23</ele>
        <time>2021-05-08T11:57:15.000Z</time>
      </trkpt>
      <trkpt lat="48.68771" lon="1.92768">
        <ele>186.36</ele>
        <time>2021-05-08T11:57:28.000Z</time>
      </trkpt>
      <trkpt lat="48.68764" lon="1.92777">
        <ele>186.45</ele>
        <time>2021-05-08T11:57:39.000Z</time>
      </trkpt>
      <trkpt lat="48.68758" lon="1.92788">
        <ele>186.49</ele>
        <time>2021-05-08T11:57:48.000Z</time>
      </trkpt>
      <trkpt lat="48.68752" lon="1.928">
        <ele>186.48</ele>
        <time>2021-05-08T11:57:57.000Z</time>
      </trkpt>
      <trkpt lat="48.68746" lon="1.92811">
        <ele>186.47</ele>
        <time>2021-05-08T11:58:03.000Z</time>
      </trkpt>
      <trkpt lat="48.68741" lon="1.92824">
        <ele>186.46</ele>
        <time>2021-05-08T11:58:16.000Z</time>
      </trkpt>
      <trkpt lat="48.68736" lon="1.92837">
        <ele>186.48</ele>
        <time>2021-05-08T11:58:23.000Z</time>
      </trkpt>
      <trkpt lat="48.6873" lon="1.92849">
        <ele>186.49</ele>
        <time>2021-05-08T11:58:29.000Z</time>
      </trkpt>
      <trkpt lat="48.68725" lon="1.92862">
        <ele>186.37</ele>
        <time>2021-05-08T11:59:30.000Z</time>
      </trkpt>
      <trkpt lat="48.68721" lon="1.92874">
        <ele>186.19</ele>
        <time>2021-05-08T11:59:40.000Z</time>
      </trkpt>
      <trkpt lat="48.6872" lon="1.92887">
        <ele>185.84</ele>
        <time>2021-05-08T12:00:12.000Z</time>
      </trkpt>
      <trkpt lat="48.68715" lon="1.92899">
        <ele>185.8</ele>
        <time>2021-05-08T12:00:26.000Z</time>
      </trkpt>
      <trkpt lat="48.6871" lon="1.92911">
        <ele>185.82</ele>
        <time>2021-05-08T12:00:39.000Z</time>
      </trkpt>
      <trkpt lat="48.68705" lon="1.92924">
        <ele>185.87</ele>
        <time>2021-05-08T12:00:56.000Z</time>
      </trkpt>
      <trkpt lat="48.687" lon="1.92934">
        <ele>185.9</ele>
        <time>2021-05-08T12:01:02.000Z</time>
      </trkpt>
      <trkpt lat="48.68696" lon="1.92949">
        <ele>185.92</ele>
        <time>2021-05-08T12:01:09.000Z</time>
      </trkpt>
      <trkpt lat="48.68694" lon="1.92963">
        <ele>185.96</ele>
        <time>2021-05-08T12:01:18.000Z</time>
      </trkpt>
      <trkpt lat="48.68686" lon="1.92971">
        <ele>186</ele>
        <time>2021-05-08T12:01:26.000Z</time>
      </trkpt>
      <trkpt lat="48.6868" lon="1.92981">
        <ele>186.04</ele>
        <time>2021-05-08T12:01:38.000Z</time>
      </trkpt>
      <trkpt lat="48.6868" lon="1.92995">
        <ele>186.11</ele>
        <time>2021-05-08T12:01:55.000Z</time>
      </trkpt>
      <trkpt lat="48.68678" lon="1.9301">
        <ele>186.14</ele>
        <time>2021-05-08T12:02:03.000Z</time>
      </trkpt>
      <trkpt lat="48.68675" lon="1.93024">
        <ele>186.18</ele>
        <time>2021-05-08T12:02:09.000Z</time>
      </trkpt>
      <trkpt lat="48.68675" lon="1.93038">
        <ele>186.23</ele>
        <time>2021-05-08T12:02:19.000Z</time>
      </trkpt>
      <trkpt lat="48.68676" lon="1.93053">
        <ele>186.29</ele>
        <time>2021-05-08T12:02:27.000Z</time>
      </trkpt>
      <trkpt lat="48.68674" lon="1.93067">
        <ele>186.34</ele>
        <time>2021-05-08T12:02:34.000Z</time>
      </trkpt>
      <trkpt lat="48.68672" lon="1.9308">
        <ele>186.42</ele>
        <time>2021-05-08T12:02:42.000Z</time>
      </trkpt>
      <trkpt lat="48.6867" lon="1.93095">
        <ele>186.54</ele>
        <time>2021-05-08T12:02:52.000Z</time>
      </trkpt>
      <trkpt lat="48.68667" lon="1.93109">
        <ele>186.63</ele>
        <time>2021-05-08T12:03:00.000Z</time>
      </trkpt>
      <trkpt lat="48.68667" lon="1.93126">
        <ele>186.75</ele>
        <time>2021-05-08T12:03:10.000Z</time>
      </trkpt>
      <trkpt lat="48.68667" lon="1.93139">
        <ele>186.85</ele>
        <time>2021-05-08T12:03:19.000Z</time>
      </trkpt>
      <trkpt lat="48.68666" lon="1.93154">
        <ele>186.94</ele>
        <time>2021-05-08T12:03:26.000Z</time>
      </trkpt>
      <trkpt lat="48.68665" lon="1.93169">
        <ele>187.06</ele>
        <time>2021-05-08T12:03:35.000Z</time>
      </trkpt>
      <trkpt lat="48.6866" lon="1.93181">
        <ele>187.18</ele>
        <time>2021-05-08T12:03:44.000Z</time>
      </trkpt>
      <trkpt lat="48.68659" lon="1.93194">
        <ele>187.26</ele>
        <time>2021-05-08T12:03:50.000Z</time>
      </trkpt>
      <trkpt lat="48.68655" lon="1.93209">
        <ele>187.39</ele>
        <time>2021-05-08T12:03:59.000Z</time>
      </trkpt>
      <trkpt lat="48.68655" lon="1.93223">
        <ele>187.57</ele>
        <time>2021-05-08T12:04:11.000Z</time>
      </trkpt>
      <trkpt lat="48.68652" lon="1.93237">
        <ele>187.65</ele>
        <time>2021-05-08T12:04:18.000Z</time>
      </trkpt>
      <trkpt lat="48.6865" lon="1.93251">
        <ele>187.75</ele>
        <time>2021-05-08T12:04:26.000Z</time>
      </trkpt>
      <trkpt lat="48.68647" lon="1.93264">
        <ele>187.83</ele>
        <time>2021-05-08T12:04:32.000Z</time>
      </trkpt>
      <trkpt lat="48.6865" lon="1.93278">
        <ele>187.96</ele>
        <time>2021-05-08T12:04:41.000Z</time>
      </trkpt>
      <trkpt lat="48.68653" lon="1.93292">
        <ele>188.06</ele>
        <time>2021-05-08T12:04:48.000Z</time>
      </trkpt>
      <trkpt lat="48.68657" lon="1.93306">
        <ele>188.15</ele>
        <time>2021-05-08T12:04:54.000Z</time>
      </trkpt>
      <trkpt lat="48.68662" lon="1.93318">
        <ele>188.27</ele>
        <time>2021-05-08T12:05:04.000Z</time>
      </trkpt>
      <trkpt lat="48.68667" lon="1.93329">
        <ele>188.35</ele>
        <time>2021-05-08T12:05:10.000Z</time>
      </trkpt>
      <trkpt lat="48.68669" lon="1.93343">
        <ele>188.49</ele>
        <time>2021-05-08T12:05:19.000Z</time>
      </trkpt>
      <trkpt lat="48.68672" lon="1.93356">
        <ele>188.59</ele>
        <time>2021-05-08T12:05:26.000Z</time>
      </trkpt>
      <trkpt lat="48.6867" lon="1.9337">
        <ele>188.73</ele>
        <time>2021-05-08T12:05:35.000Z</time>
      </trkpt>
      <trkpt lat="48.68663" lon="1.9338">
        <ele>188.88</ele>
        <time>2021-05-08T12:05:43.000Z</time>
      </trkpt>
      <trkpt lat="48.68654" lon="1.93383">
        <ele>189.09</ele>
        <time>2021-05-08T12:05:54.000Z</time>
      </trkpt>
      <trkpt lat="48.68645" lon="1.93388">
        <ele>189.39</ele>
        <time>2021-05-08T12:06:04.000Z</time>
      </trkpt>
      <trkpt lat="48.68636" lon="1.93393">
        <ele>189.71</ele>
        <time>2021-05-08T12:06:12.000Z</time>
      </trkpt>
      <trkpt lat="48.68628" lon="1.93401">
        <ele>190.04</ele>
        <time>2021-05-08T12:06:20.000Z</time>
      </trkpt>
      <trkpt lat="48.68621" lon="1.93409">
        <ele>190.41</ele>
        <time>2021-05-08T12:06:28.000Z</time>
      </trkpt>
      <trkpt lat="48.68615" lon="1.93422">
        <ele>191.18</ele>
        <time>2021-05-08T12:06:44.000Z</time>
      </trkpt>
      <trkpt lat="48.6861" lon="1.93434">
        <ele>191.61</ele>
        <time>2021-05-08T12:06:54.000Z</time>
      </trkpt>
      <trkpt lat="48.68602" lon="1.93442">
        <ele>191.76</ele>
        <time>2021-05-08T12:07:03.000Z</time>
      </trkpt>
      <trkpt lat="48.68596" lon="1.93453">
        <ele>191.6</ele>
        <time>2021-05-08T12:07:13.000Z</time>
      </trkpt>
      <trkpt lat="48.68588" lon="1.93465">
        <ele>191.55</ele>
        <time>2021-05-08T12:07:21.000Z</time>
      </trkpt>
      <trkpt lat="48.6858" lon="1.93475">
        <ele>191.51</ele>
        <time>2021-05-08T12:07:25.000Z</time>
      </trkpt>
      <trkpt lat="48.68573" lon="1.93485">
        <ele>191.35</ele>
        <time>2021-05-08T12:07:33.000Z</time>
      </trkpt>
      <trkpt lat="48.68568" lon="1.93497">
        <ele>191.08</ele>
        <time>2021-05-08T12:07:53.000Z</time>
      </trkpt>
      <trkpt lat="48.68567" lon="1.9351">
        <ele>190.87</ele>
        <time>2021-05-08T12:08:05.000Z</time>
      </trkpt>
      <trkpt lat="48.68568" lon="1.93526">
        <ele>190.76</ele>
        <time>2021-05-08T12:08:14.000Z</time>
      </trkpt>
      <trkpt lat="48.68567" lon="1.93541">
        <ele>190.69</ele>
        <time>2021-05-08T12:08:21.000Z</time>
      </trkpt>
      <trkpt lat="48.68566" lon="1.93554">
        <ele>190.63</ele>
        <time>2021-05-08T12:08:28.000Z</time>
      </trkpt>
      <trkpt lat="48.68564" lon="1.93569">
        <ele>190.56</ele>
        <time>2021-05-08T12:08:36.000Z</time>
      </trkpt>
      <trkpt lat="48.6856" lon="1.93582">
        <ele>190.53</ele>
        <time>2021-05-08T12:08:45.000Z</time>
      </trkpt>
      <trkpt lat="48.68554" lon="1.93595">
        <ele>190.51</ele>
        <time>2021-05-08T12:08:52.000Z</time>
      </trkpt>
      <trkpt lat="48.68546" lon="1.93604">
        <ele>190.5</ele>
        <time>2021-05-08T12:08:56.000Z</time>
      </trkpt>
      <trkpt lat="48.68538" lon="1.93611">
        <ele>190.46</ele>
        <time>2021-05-08T12:09:02.000Z</time>
      </trkpt>
      <trkpt lat="48.68532" lon="1.93622">
        <ele>190.4</ele>
        <time>2021-05-08T12:09:10.000Z</time>
      </trkpt>
      <trkpt lat="48.6853" lon="1.93635">
        <ele>190.29</ele>
        <time>2021-05-08T12:09:22.000Z</time>
      </trkpt>
      <trkpt lat="48.68525" lon="1.93648">
        <ele>190.18</ele>
        <time>2021-05-08T12:09:33.000Z</time>
      </trkpt>
      <trkpt lat="48.68523" lon="1.93663">
        <ele>190.07</ele>
        <time>2021-05-08T12:09:42.000Z</time>
      </trkpt>
      <trkpt lat="48.6852" lon="1.93676">
        <ele>189.92</ele>
        <time>2021-05-08T12:09:53.000Z</time>
      </trkpt>
      <trkpt lat="48.68514" lon="1.93686">
        <ele>189.8</ele>
        <time>2021-05-08T12:10:09.000Z</time>
      </trkpt>
      <trkpt lat="48.68509" lon="1.93699">
        <ele>189.61</ele>
        <time>2021-05-08T12:10:38.999Z</time>
      </trkpt>
      <trkpt lat="48.68509" lon="1.93712">
        <ele>189.23</ele>
        <time>2021-05-08T12:11:05.999Z</time>
      </trkpt>
      <trkpt lat="48.68507" lon="1.93726">
        <ele>188.61</ele>
        <time>2021-05-08T12:11:33.999Z</time>
      </trkpt>
      <trkpt lat="48.68507" lon="1.9374">
        <ele>188.39</ele>
        <time>2021-05-08T12:11:42.999Z</time>
      </trkpt>
      <trkpt lat="48.68502" lon="1.93754">
        <ele>188.19</ele>
        <time>2021-05-08T12:11:50.999Z</time>
      </trkpt>
      <trkpt lat="48.685" lon="1.93769">
        <ele>187.9</ele>
        <time>2021-05-08T12:12:06.999Z</time>
      </trkpt>
      <trkpt lat="48.68495" lon="1.93782">
        <ele>187.83</ele>
        <time>2021-05-08T12:12:11.999Z</time>
      </trkpt>
      <trkpt lat="48.68494" lon="1.93796">
        <ele>187.73</ele>
        <time>2021-05-08T12:12:20.999Z</time>
      </trkpt>
      <trkpt lat="48.6849" lon="1.93809">
        <ele>187.67</ele>
        <time>2021-05-08T12:12:27.999Z</time>
      </trkpt>
      <trkpt lat="48.68486" lon="1.93821">
        <ele>187.6</ele>
        <time>2021-05-08T12:12:40.999Z</time>
      </trkpt>
      <trkpt lat="48.68478" lon="1.93832">
        <ele>187.58</ele>
        <time>2021-05-08T12:12:47.999Z</time>
      </trkpt>
      <trkpt lat="48.6847" lon="1.93842">
        <ele>187.56</ele>
        <time>2021-05-08T12:12:52.999Z</time>
      </trkpt>
      <trkpt lat="48.68462" lon="1.93851">
        <ele>187.51</ele>
        <time>2021-05-08T12:13:04.999Z</time>
      </trkpt>
      <trkpt lat="48.68453" lon="1.9386">
        <ele>187.43</ele>
        <time>2021-05-08T12:13:13.999Z</time>
      </trkpt>
      <trkpt lat="48.68447" lon="1.9387">
        <ele>187.39</ele>
        <time>2021-05-08T12:13:19.999Z</time>
      </trkpt>
      <trkpt lat="48.68441" lon="1.9388">
        <ele>187.35</ele>
        <time>2021-05-08T12:13:28.999Z</time>
      </trkpt>
      <trkpt lat="48.68435" lon="1.93891">
        <ele>187.34</ele>
        <time>2021-05-08T12:13:34.999Z</time>
      </trkpt>
      <trkpt lat="48.68432" lon="1.93908">
        <ele>187.33</ele>
        <time>2021-05-08T12:13:45.999Z</time>
      </trkpt>
      <trkpt lat="48.68425" lon="1.93918">
        <ele>187.33</ele>
        <time>2021-05-08T12:13:50.999Z</time>
      </trkpt>
      <trkpt lat="48.68419" lon="1.9393">
        <ele>187.33</ele>
        <time>2021-05-08T12:13:59.999Z</time>
      </trkpt>
      <trkpt lat="48.68413" lon="1.93941">
        <ele>187.32</ele>
        <time>2021-05-08T12:14:06.999Z</time>
      </trkpt>
      <trkpt lat="48.68404" lon="1.93948">
        <ele>187.32</ele>
        <time>2021-05-08T12:14:14.999Z</time>
      </trkpt>
      <trkpt lat="48.68396" lon="1.93955">
        <ele>187.32</ele>
        <time>2021-05-08T12:14:20.999Z</time>
      </trkpt>
      <trkpt lat="48.68389" lon="1.93965">
        <ele>187.33</ele>
        <time>2021-05-08T12:14:29.999Z</time>
      </trkpt>
      <trkpt lat="48.68384" lon="1.93977">
        <ele>187.34</ele>
        <time>2021-05-08T12:14:38.999Z</time>
      </trkpt>
      <trkpt lat="48.68376" lon="1.93987">
        <ele>187.35</ele>
        <time>2021-05-08T12:14:46.999Z</time>
      </trkpt>
      <trkpt lat="48.6837" lon="1.93997">
        <ele>187.36</ele>
        <time>2021-05-08T12:14:56.999Z</time>
      </trkpt>
      <trkpt lat="48.68365" lon="1.94008">
        <ele>187.36</ele>
        <time>2021-05-08T12:15:04.999Z</time>
      </trkpt>
      <trkpt lat="48.68359" lon="1.94019">
        <ele>187.37</ele>
        <time>2021-05-08T12:15:12.999Z</time>
      </trkpt>
      <trkpt lat="48.68351" lon="1.94029">
        <ele>187.38</ele>
        <time>2021-05-08T12:15:20.999Z</time>
      </trkpt>
      <trkpt lat="48.68344" lon="1.94041">
        <ele>187.39</ele>
        <time>2021-05-08T12:15:27.999Z</time>
      </trkpt>
      <trkpt lat="48.68345" lon="1.94055">
        <ele>187.4</ele>
        <time>2021-05-08T12:15:42.999Z</time>
      </trkpt>
      <trkpt lat="48.68343" lon="1.94069">
        <ele>187.35</ele>
        <time>2021-05-08T12:15:49.999Z</time>
      </trkpt>
      <trkpt lat="48.68339" lon="1.94083">
        <ele>187.28</ele>
        <time>2021-05-08T12:16:01.999Z</time>
      </trkpt>
      <trkpt lat="48.68334" lon="1.94095">
        <ele>187.22</ele>
        <time>2021-05-08T12:16:08.999Z</time>
      </trkpt>
      <trkpt lat="48.68331" lon="1.94108">
        <ele>187.13</ele>
        <time>2021-05-08T12:16:15.999Z</time>
      </trkpt>
      <trkpt lat="48.6833" lon="1.94123">
        <ele>187.04</ele>
        <time>2021-05-08T12:16:23.999Z</time>
      </trkpt>
      <trkpt lat="48.68327" lon="1.94137">
        <ele>186.95</ele>
        <time>2021-05-08T12:16:32.999Z</time>
      </trkpt>
      <trkpt lat="48.68323" lon="1.94149">
        <ele>186.91</ele>
        <time>2021-05-08T12:16:39.999Z</time>
      </trkpt>
      <trkpt lat="48.68319" lon="1.94162">
        <ele>186.84</ele>
        <time>2021-05-08T12:16:47.999Z</time>
      </trkpt>
      <trkpt lat="48.68313" lon="1.94174">
        <ele>186.77</ele>
        <time>2021-05-08T12:16:54.999Z</time>
      </trkpt>
      <trkpt lat="48.68308" lon="1.94186">
        <ele>186.67</ele>
        <time>2021-05-08T12:17:02.999Z</time>
      </trkpt>
      <trkpt lat="48.68305" lon="1.942">
        <ele>186.56</ele>
        <time>2021-05-08T12:17:12.999Z</time>
      </trkpt>
      <trkpt lat="48.68303" lon="1.94214">
        <ele>186.5</ele>
        <time>2021-05-08T12:17:20.999Z</time>
      </trkpt>
      <trkpt lat="48.68295" lon="1.94223">
        <ele>186.46</ele>
        <time>2021-05-08T12:17:27.999Z</time>
      </trkpt>
      <trkpt lat="48.68286" lon="1.94225">
        <ele>186.43</ele>
        <time>2021-05-08T12:17:34.999Z</time>
      </trkpt>
      <trkpt lat="48.68276" lon="1.94218">
        <ele>186.4</ele>
        <time>2021-05-08T12:17:39.999Z</time>
      </trkpt>
      <trkpt lat="48.68267" lon="1.94222">
        <ele>186.34</ele>
        <time>2021-05-08T12:17:47.999Z</time>
      </trkpt>
      <trkpt lat="48.68257" lon="1.94221">
        <ele>186.29</ele>
        <time>2021-05-08T12:17:57.999Z</time>
      </trkpt>
      <trkpt lat="48.68245" lon="1.94219">
        <ele>186.25</ele>
        <time>2021-05-08T12:18:04.999Z</time>
      </trkpt>
      <trkpt lat="48.68235" lon="1.94221">
        <ele>186.22</ele>
        <time>2021-05-08T12:18:10.999Z</time>
      </trkpt>
      <trkpt lat="48.68226" lon="1.94218">
        <ele>186.16</ele>
        <time>2021-05-08T12:18:18.999Z</time>
      </trkpt>
      <trkpt lat="48.68217" lon="1.94218">
        <ele>186.1</ele>
        <time>2021-05-08T12:18:27.999Z</time>
      </trkpt>
      <trkpt lat="48.68211" lon="1.94207">
        <ele>186.1</ele>
        <time>2021-05-08T12:18:37.999Z</time>
      </trkpt>
      <trkpt lat="48.68202" lon="1.942">
        <ele>186.08</ele>
        <time>2021-05-08T12:18:45.999Z</time>
      </trkpt>
      <trkpt lat="48.68193" lon="1.94194">
        <ele>185.91</ele>
        <time>2021-05-08T12:18:57.999Z</time>
      </trkpt>
      <trkpt lat="48.68184" lon="1.94203">
        <ele>185.84</ele>
        <time>2021-05-08T12:19:02.999Z</time>
      </trkpt>
      <trkpt lat="48.68175" lon="1.94207">
        <ele>185.66</ele>
        <time>2021-05-08T12:19:15.999Z</time>
      </trkpt>
      <trkpt lat="48.68168" lon="1.94218">
        <ele>185.52</ele>
        <time>2021-05-08T12:19:26.999Z</time>
      </trkpt>
      <trkpt lat="48.68161" lon="1.94226">
        <ele>185.43</ele>
        <time>2021-05-08T12:19:32.999Z</time>
      </trkpt>
      <trkpt lat="48.68151" lon="1.94233">
        <ele>185.34</ele>
        <time>2021-05-08T12:19:40.999Z</time>
      </trkpt>
      <trkpt lat="48.68143" lon="1.94237">
        <ele>185.14</ele>
        <time>2021-05-08T12:20:20.999Z</time>
      </trkpt>
      <trkpt lat="48.68135" lon="1.9425">
        <ele>185.11</ele>
        <time>2021-05-08T12:20:27.999Z</time>
      </trkpt>
      <trkpt lat="48.68128" lon="1.9426">
        <ele>185.1</ele>
        <time>2021-05-08T12:20:35.999Z</time>
      </trkpt>
      <trkpt lat="48.68122" lon="1.9427">
        <ele>185.11</ele>
        <time>2021-05-08T12:20:45.999Z</time>
      </trkpt>
      <trkpt lat="48.68114" lon="1.9428">
        <ele>185.1</ele>
        <time>2021-05-08T12:20:56.999Z</time>
      </trkpt>
      <trkpt lat="48.68108" lon="1.94291">
        <ele>185.1</ele>
        <time>2021-05-08T12:21:03.999Z</time>
      </trkpt>
      <trkpt lat="48.68099" lon="1.94289">
        <ele>185.11</ele>
        <time>2021-05-08T12:21:15.999Z</time>
      </trkpt>
      <trkpt lat="48.6809" lon="1.94291">
        <ele>185.12</ele>
        <time>2021-05-08T12:21:28.999Z</time>
      </trkpt>
      <trkpt lat="48.68086" lon="1.94304">
        <ele>185.12</ele>
        <time>2021-05-08T12:21:35.999Z</time>
      </trkpt>
      <trkpt lat="48.68083" lon="1.94323">
        <ele>185.13</ele>
        <time>2021-05-08T12:21:43.999Z</time>
      </trkpt>
      <trkpt lat="48.68074" lon="1.94326">
        <ele>185.15</ele>
        <time>2021-05-08T12:21:58.999Z</time>
      </trkpt>
      <trkpt lat="48.68063" lon="1.94329">
        <ele>185.15</ele>
        <time>2021-05-08T12:22:13.999Z</time>
      </trkpt>
      <trkpt lat="48.68055" lon="1.94341">
        <ele>185.15</ele>
        <time>2021-05-08T12:22:21.999Z</time>
      </trkpt>
      <trkpt lat="48.68047" lon="1.94349">
        <ele>185.15</ele>
        <time>2021-05-08T12:22:27.999Z</time>
      </trkpt>
      <trkpt lat="48.68038" lon="1.94352">
        <ele>185.15</ele>
        <time>2021-05-08T12:22:33.999Z</time>
      </trkpt>
      <trkpt lat="48.6803" lon="1.94344">
        <ele>185.14</ele>
        <time>2021-05-08T12:22:41.999Z</time>
      </trkpt>
      <trkpt lat="48.68026" lon="1.94332">
        <ele>185.1</ele>
        <time>2021-05-08T12:22:50.999Z</time>
      </trkpt>
      <trkpt lat="48.68022" lon="1.94319">
        <ele>185.06</ele>
        <time>2021-05-08T12:22:58.999Z</time>
      </trkpt>
      <trkpt lat="48.68018" lon="1.94306">
        <ele>185</ele>
        <time>2021-05-08T12:23:07.999Z</time>
      </trkpt>
      <trkpt lat="48.6801" lon="1.94298">
        <ele>184.93</ele>
        <time>2021-05-08T12:23:16.999Z</time>
      </trkpt>
      <trkpt lat="48.68001" lon="1.94292">
        <ele>184.9</ele>
        <time>2021-05-08T12:23:26.999Z</time>
      </trkpt>
      <trkpt lat="48.67992" lon="1.9429">
        <ele>184.86</ele>
        <time>2021-05-08T12:23:35.999Z</time>
      </trkpt>
      <trkpt lat="48.67984" lon="1.94282">
        <ele>184.82</ele>
        <time>2021-05-08T12:23:47.999Z</time>
      </trkpt>
      <trkpt lat="48.67978" lon="1.9427">
        <ele>184.78</ele>
        <time>2021-05-08T12:23:57.999Z</time>
      </trkpt>
      <trkpt lat="48.67969" lon="1.94268">
        <ele>184.71</ele>
        <time>2021-05-08T12:24:16.999Z</time>
      </trkpt>
      <trkpt lat="48.6796" lon="1.94272">
        <ele>184.7</ele>
        <time>2021-05-08T12:24:26.999Z</time>
      </trkpt>
      <trkpt lat="48.67952" lon="1.94278">
        <ele>184.7</ele>
        <time>2021-05-08T12:24:37.999Z</time>
      </trkpt>
      <trkpt lat="48.67943" lon="1.94278">
        <ele>184.71</ele>
        <time>2021-05-08T12:24:42.999Z</time>
      </trkpt>
      <trkpt lat="48.67933" lon="1.94276">
        <ele>184.72</ele>
        <time>2021-05-08T12:24:54.999Z</time>
      </trkpt>
      <trkpt lat="48.67924" lon="1.94277">
        <ele>184.73</ele>
        <time>2021-05-08T12:25:03.999Z</time>
      </trkpt>
      <trkpt lat="48.67915" lon="1.94278">
        <ele>184.73</ele>
        <time>2021-05-08T12:25:15.999Z</time>
      </trkpt>
      <trkpt lat="48.67905" lon="1.94282">
        <ele>184.71</ele>
        <time>2021-05-08T12:25:24.999Z</time>
      </trkpt>
      <trkpt lat="48.67895" lon="1.94288">
        <ele>184.71</ele>
        <time>2021-05-08T12:25:36.999Z</time>
      </trkpt>
      <trkpt lat="48.67886" lon="1.94288">
        <ele>184.76</ele>
        <time>2021-05-08T12:25:51.999Z</time>
      </trkpt>
      <trkpt lat="48.67877" lon="1.94293">
        <ele>184.89</ele>
        <time>2021-05-08T12:26:04.999Z</time>
      </trkpt>
      <trkpt lat="48.67869" lon="1.94286">
        <ele>185.01</ele>
        <time>2021-05-08T12:26:17.999Z</time>
      </trkpt>
      <trkpt lat="48.67864" lon="1.94299">
        <ele>185.94</ele>
        <time>2021-05-08T12:27:18.999Z</time>
      </trkpt>
      <trkpt lat="48.67854" lon="1.94305">
        <ele>186.02</ele>
        <time>2021-05-08T12:27:20.999Z</time>
      </trkpt>
      <trkpt lat="48.67845" lon="1.94297">
        <ele>186.29</ele>
        <time>2021-05-08T12:27:27.999Z</time>
      </trkpt>
      <trkpt lat="48.67842" lon="1.94284">
        <ele>187.68</ele>
        <time>2021-05-08T12:27:59.999Z</time>
      </trkpt>
      <trkpt lat="48.6784" lon="1.9427">
        <ele>189.67</ele>
        <time>2021-05-08T12:29:01.999Z</time>
      </trkpt>
      <trkpt lat="48.67837" lon="1.94285">
        <ele>191.99</ele>
        <time>2021-05-08T12:29:54.999Z</time>
      </trkpt>
      <trkpt lat="48.6783" lon="1.94294">
        <ele>193.66</ele>
        <time>2021-05-08T12:31:22.000Z</time>
      </trkpt>
      <trkpt lat="48.67822" lon="1.94287">
        <ele>193.86</ele>
        <time>2021-05-08T12:32:22.000Z</time>
      </trkpt>
      <trkpt lat="48.67816" lon="1.94277">
        <ele>193.91</ele>
        <time>2021-05-08T12:32:48.000Z</time>
      </trkpt>
      <trkpt lat="48.6781" lon="1.94266">
        <ele>193.89</ele>
        <time>2021-05-08T12:33:27.000Z</time>
      </trkpt>
      <trkpt lat="48.67819" lon="1.94265">
        <ele>194.05</ele>
        <time>2021-05-08T12:33:47.000Z</time>
      </trkpt>
      <trkpt lat="48.67826" lon="1.94274">
        <ele>194.14</ele>
        <time>2021-05-08T12:33:54.000Z</time>
      </trkpt>
      <trkpt lat="48.6783" lon="1.94286">
        <ele>194.28</ele>
        <time>2021-05-08T12:34:02.000Z</time>
      </trkpt>
      <trkpt lat="48.67822" lon="1.9429">
        <ele>195.18</ele>
        <time>2021-05-08T12:35:17.000Z</time>
      </trkpt>
      <trkpt lat="48.67816" lon="1.94279">
        <ele>195.61</ele>
        <time>2021-05-08T12:35:50.000Z</time>
      </trkpt>
      <trkpt lat="48.67807" lon="1.94275">
        <ele>199.06</ele>
        <time>2021-05-08T12:41:40.000Z</time>
      </trkpt>
      <trkpt lat="48.67798" lon="1.94269">
        <ele>199.19</ele>
        <time>2021-05-08T12:41:49.000Z</time>
      </trkpt>
      <trkpt lat="48.67789" lon="1.94271">
        <ele>199.32</ele>
        <time>2021-05-08T12:42:09.000Z</time>
      </trkpt>
      <trkpt lat="48.6778" lon="1.94276">
        <ele>199.76</ele>
        <time>2021-05-08T12:43:14.000Z</time>
      </trkpt>
      <trkpt lat="48.67771" lon="1.94275">
        <ele>199.95</ele>
        <time>2021-05-08T12:43:23.000Z</time>
      </trkpt>
      <trkpt lat="48.67761" lon="1.94274">
        <ele>200.08</ele>
        <time>2021-05-08T12:43:31.000Z</time>
      </trkpt>
      <trkpt lat="48.67763" lon="1.94288">
        <ele>200.33</ele>
        <time>2021-05-08T12:43:53.000Z</time>
      </trkpt>
      <trkpt lat="48.67756" lon="1.943">
        <ele>200.46</ele>
        <time>2021-05-08T12:44:06.000Z</time>
      </trkpt>
      <trkpt lat="48.67747" lon="1.94309">
        <ele>200.63</ele>
        <time>2021-05-08T12:44:14.000Z</time>
      </trkpt>
      <trkpt lat="48.67741" lon="1.94298">
        <ele>200.93</ele>
        <time>2021-05-08T12:44:29.000Z</time>
      </trkpt>
      <trkpt lat="48.67734" lon="1.94286">
        <ele>201.09</ele>
        <time>2021-05-08T12:44:38.000Z</time>
      </trkpt>
      <trkpt lat="48.67725" lon="1.94281">
        <ele>201.23</ele>
        <time>2021-05-08T12:44:58.000Z</time>
      </trkpt>
      <trkpt lat="48.67717" lon="1.94267">
        <ele>201.27</ele>
        <time>2021-05-08T12:45:06.000Z</time>
      </trkpt>
      <trkpt lat="48.67709" lon="1.94274">
        <ele>201.81</ele>
        <time>2021-05-08T12:45:24.000Z</time>
      </trkpt>
      <trkpt lat="48.677" lon="1.94268">
        <ele>201.98</ele>
        <time>2021-05-08T12:45:29.000Z</time>
      </trkpt>
      <trkpt lat="48.67691" lon="1.9427">
        <ele>202.26</ele>
        <time>2021-05-08T12:45:40.000Z</time>
      </trkpt>
      <trkpt lat="48.6768" lon="1.94276">
        <ele>202.36</ele>
        <time>2021-05-08T12:45:45.000Z</time>
      </trkpt>
      <trkpt lat="48.67672" lon="1.94271">
        <ele>202.67</ele>
        <time>2021-05-08T12:45:56.000Z</time>
      </trkpt>
      <trkpt lat="48.67662" lon="1.94273">
        <ele>203.28</ele>
        <time>2021-05-08T12:46:04.000Z</time>
      </trkpt>
      <trkpt lat="48.67652" lon="1.94271">
        <ele>204.05</ele>
        <time>2021-05-08T12:46:11.000Z</time>
      </trkpt>
      <trkpt lat="48.67644" lon="1.94264">
        <ele>204.98</ele>
        <time>2021-05-08T12:46:20.000Z</time>
      </trkpt>
      <trkpt lat="48.67638" lon="1.94252">
        <ele>206.26</ele>
        <time>2021-05-08T12:46:36.000Z</time>
      </trkpt>
      <trkpt lat="48.67634" lon="1.9424">
        <ele>207.22</ele>
        <time>2021-05-08T12:46:50.000Z</time>
      </trkpt>
      <trkpt lat="48.67626" lon="1.94245">
        <ele>209.2</ele>
        <time>2021-05-08T12:48:16.000Z</time>
      </trkpt>
      <trkpt lat="48.67632" lon="1.94233">
        <ele>212.19</ele>
        <time>2021-05-08T12:50:37.000Z</time>
      </trkpt>
      <trkpt lat="48.67635" lon="1.94219">
        <ele>212.61</ele>
        <time>2021-05-08T12:50:45.000Z</time>
      </trkpt>
      <trkpt lat="48.67637" lon="1.94205">
        <ele>212.97</ele>
        <time>2021-05-08T12:50:54.000Z</time>
      </trkpt>
      <trkpt lat="48.67639" lon="1.94191">
        <ele>213.31</ele>
        <time>2021-05-08T12:51:04.999Z</time>
      </trkpt>
      <trkpt lat="48.67641" lon="1.94176">
        <ele>213.52</ele>
        <time>2021-05-08T12:51:12.999Z</time>
      </trkpt>
      <trkpt lat="48.67644" lon="1.94163">
        <ele>213.77</ele>
        <time>2021-05-08T12:51:23.999Z</time>
      </trkpt>
      <trkpt lat="48.67646" lon="1.94149">
        <ele>213.95</ele>
        <time>2021-05-08T12:51:32.999Z</time>
      </trkpt>
      <trkpt lat="48.67644" lon="1.94136">
        <ele>214.06</ele>
        <time>2021-05-08T12:51:39.999Z</time>
      </trkpt>
      <trkpt lat="48.67648" lon="1.94122">
        <ele>214.16</ele>
        <time>2021-05-08T12:51:48.999Z</time>
      </trkpt>
      <trkpt lat="48.6765" lon="1.94108">
        <ele>214.23</ele>
        <time>2021-05-08T12:51:56.999Z</time>
      </trkpt>
      <trkpt lat="48.67653" lon="1.94095">
        <ele>214.32</ele>
        <time>2021-05-08T12:52:04.999Z</time>
      </trkpt>
      <trkpt lat="48.67658" lon="1.94083">
        <ele>214.47</ele>
        <time>2021-05-08T12:52:14.999Z</time>
      </trkpt>
      <trkpt lat="48.67662" lon="1.9407">
        <ele>214.6</ele>
        <time>2021-05-08T12:52:22.999Z</time>
      </trkpt>
      <trkpt lat="48.67662" lon="1.94056">
        <ele>214.77</ele>
        <time>2021-05-08T12:52:34.999Z</time>
      </trkpt>
      <trkpt lat="48.6767" lon="1.94047">
        <ele>215.09</ele>
        <time>2021-05-08T12:52:59.999Z</time>
      </trkpt>
      <trkpt lat="48.67676" lon="1.94036">
        <ele>215.33</ele>
        <time>2021-05-08T12:53:12.999Z</time>
      </trkpt>
      <trkpt lat="48.67679" lon="1.94023">
        <ele>215.46</ele>
        <time>2021-05-08T12:53:20.999Z</time>
      </trkpt>
      <trkpt lat="48.67686" lon="1.94012">
        <ele>215.59</ele>
        <time>2021-05-08T12:53:27.999Z</time>
      </trkpt>
      <trkpt lat="48.67694" lon="1.94003">
        <ele>215.81</ele>
        <time>2021-05-08T12:53:39.999Z</time>
      </trkpt>
      <trkpt lat="48.67702" lon="1.93993">
        <ele>215.97</ele>
        <time>2021-05-08T12:53:47.999Z</time>
      </trkpt>
      <trkpt lat="48.67708" lon="1.9398">
        <ele>216.1</ele>
        <time>2021-05-08T12:53:54.999Z</time>
      </trkpt>
      <trkpt lat="48.67711" lon="1.93966">
        <ele>216.28</ele>
        <time>2021-05-08T12:54:02.999Z</time>
      </trkpt>
      <trkpt lat="48.67716" lon="1.93955">
        <ele>216.41</ele>
        <time>2021-05-08T12:54:08.999Z</time>
      </trkpt>
      <trkpt lat="48.67722" lon="1.93942">
        <ele>216.63</ele>
        <time>2021-05-08T12:54:17.999Z</time>
      </trkpt>
      <trkpt lat="48.6773" lon="1.93932">
        <ele>216.92</ele>
        <time>2021-05-08T12:54:29.999Z</time>
      </trkpt>
      <trkpt lat="48.67736" lon="1.93916">
        <ele>217.13</ele>
        <time>2021-05-08T12:54:39.999Z</time>
      </trkpt>
      <trkpt lat="48.67745" lon="1.93908">
        <ele>217.28</ele>
        <time>2021-05-08T12:54:46.999Z</time>
      </trkpt>
      <trkpt lat="48.67754" lon="1.93901">
        <ele>217.44</ele>
        <time>2021-05-08T12:54:54.999Z</time>
      </trkpt>
      <trkpt lat="48.67761" lon="1.93892">
        <ele>217.58</ele>
        <time>2021-05-08T12:55:01.999Z</time>
      </trkpt>
      <trkpt lat="48.67767" lon="1.93879">
        <ele>217.73</ele>
        <time>2021-05-08T12:55:10.999Z</time>
      </trkpt>
      <trkpt lat="48.67775" lon="1.93866">
        <ele>217.94</ele>
        <time>2021-05-08T12:55:21.999Z</time>
      </trkpt>
      <trkpt lat="48.67781" lon="1.93855">
        <ele>218.06</ele>
        <time>2021-05-08T12:55:27.999Z</time>
      </trkpt>
      <trkpt lat="48.67787" lon="1.93843">
        <ele>218.2</ele>
        <time>2021-05-08T12:55:35.999Z</time>
      </trkpt>
      <trkpt lat="48.67793" lon="1.9383">
        <ele>218.38</ele>
        <time>2021-05-08T12:55:46.999Z</time>
      </trkpt>
      <trkpt lat="48.67798" lon="1.93819">
        <ele>218.51</ele>
        <time>2021-05-08T12:55:56.999Z</time>
      </trkpt>
      <trkpt lat="48.67805" lon="1.93808">
        <ele>218.6</ele>
        <time>2021-05-08T12:56:04.999Z</time>
      </trkpt>
      <trkpt lat="48.67811" lon="1.93797">
        <ele>218.71</ele>
        <time>2021-05-08T12:56:14.999Z</time>
      </trkpt>
      <trkpt lat="48.67817" lon="1.93786">
        <ele>218.76</ele>
        <time>2021-05-08T12:56:20.999Z</time>
      </trkpt>
      <trkpt lat="48.6782" lon="1.93772">
        <ele>218.84</ele>
        <time>2021-05-08T12:56:28.999Z</time>
      </trkpt>
      <trkpt lat="48.67827" lon="1.93762">
        <ele>218.93</ele>
        <time>2021-05-08T12:56:36.999Z</time>
      </trkpt>
      <trkpt lat="48.67833" lon="1.93752">
        <ele>219.02</ele>
        <time>2021-05-08T12:56:44.999Z</time>
      </trkpt>
      <trkpt lat="48.67838" lon="1.9374">
        <ele>219.15</ele>
        <time>2021-05-08T12:56:54.999Z</time>
      </trkpt>
      <trkpt lat="48.67843" lon="1.93728">
        <ele>219.25</ele>
        <time>2021-05-08T12:57:02.999Z</time>
      </trkpt>
      <trkpt lat="48.67847" lon="1.93715">
        <ele>219.35</ele>
        <time>2021-05-08T12:57:13.999Z</time>
      </trkpt>
      <trkpt lat="48.67856" lon="1.93707">
        <ele>219.43</ele>
        <time>2021-05-08T12:57:21.999Z</time>
      </trkpt>
      <trkpt lat="48.67862" lon="1.93696">
        <ele>219.51</ele>
        <time>2021-05-08T12:57:32.999Z</time>
      </trkpt>
      <trkpt lat="48.67867" lon="1.93684">
        <ele>219.53</ele>
        <time>2021-05-08T12:57:39.999Z</time>
      </trkpt>
      <trkpt lat="48.67869" lon="1.93669">
        <ele>219.55</ele>
        <time>2021-05-08T12:57:49.999Z</time>
      </trkpt>
      <trkpt lat="48.67873" lon="1.93655">
        <ele>219.57</ele>
        <time>2021-05-08T12:57:59.999Z</time>
      </trkpt>
      <trkpt lat="48.67876" lon="1.93641">
        <ele>219.6</ele>
        <time>2021-05-08T12:58:09.999Z</time>
      </trkpt>
      <trkpt lat="48.67874" lon="1.93627">
        <ele>219.6</ele>
        <time>2021-05-08T12:58:20.999Z</time>
      </trkpt>
      <trkpt lat="48.67873" lon="1.93612">
        <ele>219.54</ele>
        <time>2021-05-08T12:58:32.999Z</time>
      </trkpt>
      <trkpt lat="48.67873" lon="1.93598">
        <ele>219.49</ele>
        <time>2021-05-08T12:58:37.999Z</time>
      </trkpt>
      <trkpt lat="48.67877" lon="1.93581">
        <ele>219.39</ele>
        <time>2021-05-08T12:58:47.999Z</time>
      </trkpt>
      <trkpt lat="48.67879" lon="1.93566">
        <ele>219.34</ele>
        <time>2021-05-08T12:58:52.999Z</time>
      </trkpt>
      <trkpt lat="48.67879" lon="1.93552">
        <ele>219.29</ele>
        <time>2021-05-08T12:58:58.999Z</time>
      </trkpt>
      <trkpt lat="48.67879" lon="1.93539">
        <ele>219.23</ele>
        <time>2021-05-08T12:59:05.999Z</time>
      </trkpt>
      <trkpt lat="48.67876" lon="1.93522">
        <ele>219.2</ele>
        <time>2021-05-08T12:59:11.999Z</time>
      </trkpt>
      <trkpt lat="48.67873" lon="1.93509">
        <ele>219.16</ele>
        <time>2021-05-08T12:59:20.999Z</time>
      </trkpt>
      <trkpt lat="48.67877" lon="1.93496">
        <ele>219.14</ele>
        <time>2021-05-08T12:59:29.999Z</time>
      </trkpt>
      <trkpt lat="48.67878" lon="1.93482">
        <ele>219.14</ele>
        <time>2021-05-08T12:59:36.999Z</time>
      </trkpt>
      <trkpt lat="48.67877" lon="1.93468">
        <ele>219.16</ele>
        <time>2021-05-08T12:59:45.999Z</time>
      </trkpt>
      <trkpt lat="48.67878" lon="1.93454">
        <ele>219.17</ele>
        <time>2021-05-08T12:59:51.999Z</time>
      </trkpt>
      <trkpt lat="48.67883" lon="1.93441">
        <ele>219.18</ele>
        <time>2021-05-08T12:59:59.999Z</time>
      </trkpt>
      <trkpt lat="48.67884" lon="1.93426">
        <ele>219.19</ele>
        <time>2021-05-08T13:00:08.999Z</time>
      </trkpt>
      <trkpt lat="48.67884" lon="1.93412">
        <ele>219.2</ele>
        <time>2021-05-08T13:00:12.999Z</time>
      </trkpt>
      <trkpt lat="48.67886" lon="1.93399">
        <ele>219.21</ele>
        <time>2021-05-08T13:00:18.999Z</time>
      </trkpt>
      <trkpt lat="48.6789" lon="1.93385">
        <ele>219.24</ele>
        <time>2021-05-08T13:00:27.999Z</time>
      </trkpt>
      <trkpt lat="48.67894" lon="1.9337">
        <ele>219.26</ele>
        <time>2021-05-08T13:00:38.999Z</time>
      </trkpt>
      <trkpt lat="48.679" lon="1.93357">
        <ele>219.27</ele>
        <time>2021-05-08T13:00:46.999Z</time>
      </trkpt>
      <trkpt lat="48.67902" lon="1.93343">
        <ele>219.29</ele>
        <time>2021-05-08T13:00:54.999Z</time>
      </trkpt>
      <trkpt lat="48.67905" lon="1.93329">
        <ele>219.3</ele>
        <time>2021-05-08T13:01:06.999Z</time>
      </trkpt>
      <trkpt lat="48.6791" lon="1.93317">
        <ele>219.31</ele>
        <time>2021-05-08T13:01:19.999Z</time>
      </trkpt>
      <trkpt lat="48.67914" lon="1.93305">
        <ele>219.31</ele>
        <time>2021-05-08T13:01:27.999Z</time>
      </trkpt>
      <trkpt lat="48.67914" lon="1.93289">
        <ele>219.31</ele>
        <time>2021-05-08T13:01:34.999Z</time>
      </trkpt>
      <trkpt lat="48.67915" lon="1.93271">
        <ele>219.31</ele>
        <time>2021-05-08T13:01:43.999Z</time>
      </trkpt>
      <trkpt lat="48.67916" lon="1.93258">
        <ele>219.31</ele>
        <time>2021-05-08T13:01:50.999Z</time>
      </trkpt>
      <trkpt lat="48.6792" lon="1.93245">
        <ele>219.29</ele>
        <time>2021-05-08T13:01:57.999Z</time>
      </trkpt>
      <trkpt lat="48.67923" lon="1.93231">
        <ele>219.27</ele>
        <time>2021-05-08T13:02:03.999Z</time>
      </trkpt>
      <trkpt lat="48.67924" lon="1.93215">
        <ele>219.25</ele>
        <time>2021-05-08T13:02:09.999Z</time>
      </trkpt>
      <trkpt lat="48.67925" lon="1.93202">
        <ele>219.24</ele>
        <time>2021-05-08T13:02:15.999Z</time>
      </trkpt>
      <trkpt lat="48.67929" lon="1.93189">
        <ele>219.23</ele>
        <time>2021-05-08T13:02:26.999Z</time>
      </trkpt>
      <trkpt lat="48.6793" lon="1.93174">
        <ele>219.22</ele>
        <time>2021-05-08T13:02:38.999Z</time>
      </trkpt>
      <trkpt lat="48.67933" lon="1.9316">
        <ele>219.23</ele>
        <time>2021-05-08T13:02:44.999Z</time>
      </trkpt>
      <trkpt lat="48.67933" lon="1.93146">
        <ele>219.24</ele>
        <time>2021-05-08T13:02:50.999Z</time>
      </trkpt>
      <trkpt lat="48.67927" lon="1.93135">
        <ele>219.29</ele>
        <time>2021-05-08T13:03:32.999Z</time>
      </trkpt>
      <trkpt lat="48.67919" lon="1.93126">
        <ele>219.34</ele>
        <time>2021-05-08T13:03:48.999Z</time>
      </trkpt>
      <trkpt lat="48.6791" lon="1.9312">
        <ele>219.36</ele>
        <time>2021-05-08T13:03:57.999Z</time>
      </trkpt>
      <trkpt lat="48.67903" lon="1.93112">
        <ele>219.38</ele>
        <time>2021-05-08T13:04:03.999Z</time>
      </trkpt>
      <trkpt lat="48.67893" lon="1.9311">
        <ele>219.39</ele>
        <time>2021-05-08T13:04:13.999Z</time>
      </trkpt>
      <trkpt lat="48.67883" lon="1.93109">
        <ele>219.4</ele>
        <time>2021-05-08T13:04:20.999Z</time>
      </trkpt>
      <trkpt lat="48.67874" lon="1.93106">
        <ele>219.41</ele>
        <time>2021-05-08T13:04:26.999Z</time>
      </trkpt>
      <trkpt lat="48.67865" lon="1.93103">
        <ele>219.43</ele>
        <time>2021-05-08T13:04:36.999Z</time>
      </trkpt>
      <trkpt lat="48.67855" lon="1.93103">
        <ele>219.46</ele>
        <time>2021-05-08T13:04:47.999Z</time>
      </trkpt>
      <trkpt lat="48.67848" lon="1.93094">
        <ele>219.5</ele>
        <time>2021-05-08T13:04:53.999Z</time>
      </trkpt>
      <trkpt lat="48.6784" lon="1.93085">
        <ele>219.72</ele>
        <time>2021-05-08T13:05:15.999Z</time>
      </trkpt>
      <trkpt lat="48.67831" lon="1.9308">
        <ele>219.93</ele>
        <time>2021-05-08T13:05:32.999Z</time>
      </trkpt>
      <trkpt lat="48.67823" lon="1.93074">
        <ele>220.04</ele>
        <time>2021-05-08T13:05:39.999Z</time>
      </trkpt>
      <trkpt lat="48.67814" lon="1.93074">
        <ele>220.13</ele>
        <time>2021-05-08T13:05:45.999Z</time>
      </trkpt>
      <trkpt lat="48.67804" lon="1.93076">
        <ele>220.23</ele>
        <time>2021-05-08T13:05:54.999Z</time>
      </trkpt>
      <trkpt lat="48.67795" lon="1.93077">
        <ele>220.31</ele>
        <time>2021-05-08T13:06:02.999Z</time>
      </trkpt>
      <trkpt lat="48.67786" lon="1.93079">
        <ele>220.39</ele>
        <time>2021-05-08T13:06:12.999Z</time>
      </trkpt>
      <trkpt lat="48.67775" lon="1.93078">
        <ele>220.42</ele>
        <time>2021-05-08T13:06:21.999Z</time>
      </trkpt>
      <trkpt lat="48.67765" lon="1.93078">
        <ele>220.4</ele>
        <time>2021-05-08T13:06:29.999Z</time>
      </trkpt>
      <trkpt lat="48.67755" lon="1.93078">
        <ele>220.32</ele>
        <time>2021-05-08T13:06:39.999Z</time>
      </trkpt>
      <trkpt lat="48.67745" lon="1.93076">
        <ele>220.28</ele>
        <time>2021-05-08T13:06:45.999Z</time>
      </trkpt>
      <trkpt lat="48.67736" lon="1.93072">
        <ele>220.24</ele>
        <time>2021-05-08T13:06:53.999Z</time>
      </trkpt>
      <trkpt lat="48.67726" lon="1.9307">
        <ele>220.19</ele>
        <time>2021-05-08T13:07:01.999Z</time>
      </trkpt>
      <trkpt lat="48.67716" lon="1.93067">
        <ele>220.13</ele>
        <time>2021-05-08T13:07:11.999Z</time>
      </trkpt>
      <trkpt lat="48.67707" lon="1.93067">
        <ele>220.05</ele>
        <time>2021-05-08T13:07:20.999Z</time>
      </trkpt>
      <trkpt lat="48.67698" lon="1.93066">
        <ele>219.98</ele>
        <time>2021-05-08T13:07:29.999Z</time>
      </trkpt>
      <trkpt lat="48.67688" lon="1.93059">
        <ele>219.93</ele>
        <time>2021-05-08T13:07:36.999Z</time>
      </trkpt>
      <trkpt lat="48.6768" lon="1.93051">
        <ele>219.89</ele>
        <time>2021-05-08T13:07:45.999Z</time>
      </trkpt>
      <trkpt lat="48.67671" lon="1.93053">
        <ele>219.86</ele>
        <time>2021-05-08T13:07:53.999Z</time>
      </trkpt>
      <trkpt lat="48.67661" lon="1.93051">
        <ele>219.85</ele>
        <time>2021-05-08T13:08:02.999Z</time>
      </trkpt>
      <trkpt lat="48.67652" lon="1.93046">
        <ele>219.84</ele>
        <time>2021-05-08T13:08:11.999Z</time>
      </trkpt>
      <trkpt lat="48.67643" lon="1.93048">
        <ele>219.82</ele>
        <time>2021-05-08T13:08:23.999Z</time>
      </trkpt>
      <trkpt lat="48.67633" lon="1.93048">
        <ele>219.81</ele>
        <time>2021-05-08T13:08:33.999Z</time>
      </trkpt>
      <trkpt lat="48.67622" lon="1.93049">
        <ele>219.8</ele>
        <time>2021-05-08T13:08:38.999Z</time>
      </trkpt>
      <trkpt lat="48.67611" lon="1.93046">
        <ele>219.8</ele>
        <time>2021-05-08T13:08:43.999Z</time>
      </trkpt>
      <trkpt lat="48.67602" lon="1.93045">
        <ele>219.8</ele>
        <time>2021-05-08T13:08:51.999Z</time>
      </trkpt>
      <trkpt lat="48.67593" lon="1.93039">
        <ele>219.8</ele>
        <time>2021-05-08T13:08:55.999Z</time>
      </trkpt>
      <trkpt lat="48.67584" lon="1.93034">
        <ele>219.8</ele>
        <time>2021-05-08T13:09:02.999Z</time>
      </trkpt>
      <trkpt lat="48.67576" lon="1.93026">
        <ele>219.79</ele>
        <time>2021-05-08T13:09:08.999Z</time>
      </trkpt>
      <trkpt lat="48.67568" lon="1.9302">
        <ele>219.77</ele>
        <time>2021-05-08T13:09:16.999Z</time>
      </trkpt>
      <trkpt lat="48.6756" lon="1.9301">
        <ele>219.75</ele>
        <time>2021-05-08T13:09:21.999Z</time>
      </trkpt>
      <trkpt lat="48.67552" lon="1.93003">
        <ele>219.72</ele>
        <time>2021-05-08T13:09:30.999Z</time>
      </trkpt>
      <trkpt lat="48.67544" lon="1.92995">
        <ele>219.7</ele>
        <time>2021-05-08T13:09:36.999Z</time>
      </trkpt>
      <trkpt lat="48.67536" lon="1.92988">
        <ele>219.68</ele>
        <time>2021-05-08T13:09:42.999Z</time>
      </trkpt>
      <trkpt lat="48.67527" lon="1.92981">
        <ele>219.64</ele>
        <time>2021-05-08T13:09:51.999Z</time>
      </trkpt>
      <trkpt lat="48.67519" lon="1.92973">
        <ele>219.6</ele>
        <time>2021-05-08T13:09:58.999Z</time>
      </trkpt>
      <trkpt lat="48.67511" lon="1.92964">
        <ele>219.54</ele>
        <time>2021-05-08T13:10:07.999Z</time>
      </trkpt>
      <trkpt lat="48.67503" lon="1.92956">
        <ele>219.47</ele>
        <time>2021-05-08T13:10:15.999Z</time>
      </trkpt>
      <trkpt lat="48.67496" lon="1.92945">
        <ele>219.39</ele>
        <time>2021-05-08T13:10:23.999Z</time>
      </trkpt>
      <trkpt lat="48.6749" lon="1.92934">
        <ele>219.27</ele>
        <time>2021-05-08T13:10:33.999Z</time>
      </trkpt>
      <trkpt lat="48.67481" lon="1.92927">
        <ele>219.15</ele>
        <time>2021-05-08T13:10:41.999Z</time>
      </trkpt>
      <trkpt lat="48.67473" lon="1.92919">
        <ele>219.02</ele>
        <time>2021-05-08T13:10:50.999Z</time>
      </trkpt>
      <trkpt lat="48.67464" lon="1.92914">
        <ele>218.9</ele>
        <time>2021-05-08T13:10:59.999Z</time>
      </trkpt>
      <trkpt lat="48.67454" lon="1.92913">
        <ele>218.82</ele>
        <time>2021-05-08T13:11:13.999Z</time>
      </trkpt>
      <trkpt lat="48.6745" lon="1.929">
        <ele>218.56</ele>
        <time>2021-05-08T13:11:55.000Z</time>
      </trkpt>
      <trkpt lat="48.67443" lon="1.92888">
        <ele>218.52</ele>
        <time>2021-05-08T13:12:03.000Z</time>
      </trkpt>
      <trkpt lat="48.67441" lon="1.92875">
        <ele>218.4</ele>
        <time>2021-05-08T13:12:49.000Z</time>
      </trkpt>
      <trkpt lat="48.67433" lon="1.92867">
        <ele>218.37</ele>
        <time>2021-05-08T13:13:01.000Z</time>
      </trkpt>
      <trkpt lat="48.67425" lon="1.92861">
        <ele>218.36</ele>
        <time>2021-05-08T13:13:10.000Z</time>
      </trkpt>
      <trkpt lat="48.67419" lon="1.9285">
        <ele>218.34</ele>
        <time>2021-05-08T13:13:17.000Z</time>
      </trkpt>
      <trkpt lat="48.67417" lon="1.92834">
        <ele>218.28</ele>
        <time>2021-05-08T13:13:46.000Z</time>
      </trkpt>
      <trkpt lat="48.67415" lon="1.9282">
        <ele>218.25</ele>
        <time>2021-05-08T13:13:59.000Z</time>
      </trkpt>
      <trkpt lat="48.6741" lon="1.92807">
        <ele>218.23</ele>
        <time>2021-05-08T13:14:08.000Z</time>
      </trkpt>
      <trkpt lat="48.67402" lon="1.92794">
        <ele>218.22</ele>
        <time>2021-05-08T13:14:12.000Z</time>
      </trkpt>
      <trkpt lat="48.67395" lon="1.92783">
        <ele>218.18</ele>
        <time>2021-05-08T13:14:26.000Z</time>
      </trkpt>
      <trkpt lat="48.67389" lon="1.92771">
        <ele>218.15</ele>
        <time>2021-05-08T13:14:33.000Z</time>
      </trkpt>
      <trkpt lat="48.67383" lon="1.92761">
        <ele>218.11</ele>
        <time>2021-05-08T13:14:43.000Z</time>
      </trkpt>
      <trkpt lat="48.67378" lon="1.92748">
        <ele>218.08</ele>
        <time>2021-05-08T13:14:54.000Z</time>
      </trkpt>
      <trkpt lat="48.67375" lon="1.92734">
        <ele>218.03</ele>
        <time>2021-05-08T13:15:06.000Z</time>
      </trkpt>
      <trkpt lat="48.67371" lon="1.92722">
        <ele>218</ele>
        <time>2021-05-08T13:15:15.000Z</time>
      </trkpt>
      <trkpt lat="48.67366" lon="1.92708">
        <ele>217.96</ele>
        <time>2021-05-08T13:15:23.000Z</time>
      </trkpt>
      <trkpt lat="48.67361" lon="1.92695">
        <ele>217.91</ele>
        <time>2021-05-08T13:15:35.000Z</time>
      </trkpt>
      <trkpt lat="48.67354" lon="1.92685">
        <ele>217.89</ele>
        <time>2021-05-08T13:15:40.000Z</time>
      </trkpt>
      <trkpt lat="48.6735" lon="1.92672">
        <ele>217.87</ele>
        <time>2021-05-08T13:15:45.000Z</time>
      </trkpt>
      <trkpt lat="48.67345" lon="1.92661">
        <ele>217.84</ele>
        <time>2021-05-08T13:15:52.000Z</time>
      </trkpt>
      <trkpt lat="48.67339" lon="1.9265">
        <ele>217.8</ele>
        <time>2021-05-08T13:16:03.000Z</time>
      </trkpt>
      <trkpt lat="48.67341" lon="1.92636">
        <ele>217.78</ele>
        <time>2021-05-08T13:16:10.000Z</time>
      </trkpt>
      <trkpt lat="48.67339" lon="1.92622">
        <ele>217.76</ele>
        <time>2021-05-08T13:16:17.000Z</time>
      </trkpt>
      <trkpt lat="48.67332" lon="1.92612">
        <ele>217.75</ele>
        <time>2021-05-08T13:16:23.000Z</time>
      </trkpt>
      <trkpt lat="48.67325" lon="1.92604">
        <ele>217.74</ele>
        <time>2021-05-08T13:16:27.000Z</time>
      </trkpt>
      <trkpt lat="48.67316" lon="1.92599">
        <ele>217.72</ele>
        <time>2021-05-08T13:16:35.000Z</time>
      </trkpt>
      <trkpt lat="48.67309" lon="1.92588">
        <ele>217.73</ele>
        <time>2021-05-08T13:16:43.000Z</time>
      </trkpt>
      <trkpt lat="48.67302" lon="1.92576">
        <ele>217.72</ele>
        <time>2021-05-08T13:16:49.000Z</time>
      </trkpt>
      <trkpt lat="48.67295" lon="1.92567">
        <ele>217.7</ele>
        <time>2021-05-08T13:16:59.000Z</time>
      </trkpt>
      <trkpt lat="48.67286" lon="1.92561">
        <ele>217.7</ele>
        <time>2021-05-08T13:17:06.000Z</time>
      </trkpt>
      <trkpt lat="48.67277" lon="1.92555">
        <ele>217.71</ele>
        <time>2021-05-08T13:17:18.000Z</time>
      </trkpt>
      <trkpt lat="48.67269" lon="1.92545">
        <ele>217.73</ele>
        <time>2021-05-08T13:17:29.000Z</time>
      </trkpt>
      <trkpt lat="48.67261" lon="1.92536">
        <ele>217.74</ele>
        <time>2021-05-08T13:17:38.000Z</time>
      </trkpt>
      <trkpt lat="48.67254" lon="1.92528">
        <ele>217.76</ele>
        <time>2021-05-08T13:17:46.000Z</time>
      </trkpt>
      <trkpt lat="48.67246" lon="1.92521">
        <ele>217.78</ele>
        <time>2021-05-08T13:17:54.000Z</time>
      </trkpt>
      <trkpt lat="48.67239" lon="1.92511">
        <ele>217.8</ele>
        <time>2021-05-08T13:18:01.000Z</time>
      </trkpt>
      <trkpt lat="48.6723" lon="1.92505">
        <ele>217.83</ele>
        <time>2021-05-08T13:18:08.000Z</time>
      </trkpt>
      <trkpt lat="48.67223" lon="1.92495">
        <ele>217.86</ele>
        <time>2021-05-08T13:18:18.000Z</time>
      </trkpt>
      <trkpt lat="48.67214" lon="1.92493">
        <ele>217.89</ele>
        <time>2021-05-08T13:18:23.000Z</time>
      </trkpt>
      <trkpt lat="48.67206" lon="1.92486">
        <ele>218.15</ele>
        <time>2021-05-08T13:18:59.000Z</time>
      </trkpt>
      <trkpt lat="48.67198" lon="1.92478">
        <ele>218.42</ele>
        <time>2021-05-08T13:19:08.000Z</time>
      </trkpt>
      <trkpt lat="48.6719" lon="1.92471">
        <ele>218.68</ele>
        <time>2021-05-08T13:19:18.000Z</time>
      </trkpt>
      <trkpt lat="48.67182" lon="1.92462">
        <ele>218.88</ele>
        <time>2021-05-08T13:19:27.000Z</time>
      </trkpt>
      <trkpt lat="48.67172" lon="1.92457">
        <ele>219.02</ele>
        <time>2021-05-08T13:19:35.000Z</time>
      </trkpt>
      <trkpt lat="48.67164" lon="1.9245">
        <ele>219.15</ele>
        <time>2021-05-08T13:19:44.000Z</time>
      </trkpt>
      <trkpt lat="48.67157" lon="1.92441">
        <ele>219.26</ele>
        <time>2021-05-08T13:19:53.000Z</time>
      </trkpt>
      <trkpt lat="48.67148" lon="1.92435">
        <ele>219.34</ele>
        <time>2021-05-08T13:20:02.000Z</time>
      </trkpt>
      <trkpt lat="48.6714" lon="1.92428">
        <ele>219.4</ele>
        <time>2021-05-08T13:20:09.000Z</time>
      </trkpt>
      <trkpt lat="48.67132" lon="1.92419">
        <ele>219.46</ele>
        <time>2021-05-08T13:20:18.000Z</time>
      </trkpt>
      <trkpt lat="48.67124" lon="1.92412">
        <ele>219.5</ele>
        <time>2021-05-08T13:20:26.000Z</time>
      </trkpt>
      <trkpt lat="48.67117" lon="1.92401">
        <ele>219.54</ele>
        <time>2021-05-08T13:20:35.000Z</time>
      </trkpt>
      <trkpt lat="48.6711" lon="1.92392">
        <ele>219.59</ele>
        <time>2021-05-08T13:20:48.000Z</time>
      </trkpt>
      <trkpt lat="48.67102" lon="1.92383">
        <ele>219.61</ele>
        <time>2021-05-08T13:20:54.000Z</time>
      </trkpt>
      <trkpt lat="48.67094" lon="1.92375">
        <ele>219.63</ele>
        <time>2021-05-08T13:20:59.000Z</time>
      </trkpt>
      <trkpt lat="48.67085" lon="1.92369">
        <ele>219.67</ele>
        <time>2021-05-08T13:21:07.000Z</time>
      </trkpt>
      <trkpt lat="48.67077" lon="1.92362">
        <ele>219.72</ele>
        <time>2021-05-08T13:21:15.000Z</time>
      </trkpt>
      <trkpt lat="48.67069" lon="1.92352">
        <ele>219.77</ele>
        <time>2021-05-08T13:21:24.000Z</time>
      </trkpt>
      <trkpt lat="48.67062" lon="1.92345">
        <ele>219.8</ele>
        <time>2021-05-08T13:21:31.000Z</time>
      </trkpt>
      <trkpt lat="48.67054" lon="1.92337">
        <ele>219.85</ele>
        <time>2021-05-08T13:21:39.000Z</time>
      </trkpt>
      <trkpt lat="48.67048" lon="1.92326">
        <ele>219.9</ele>
        <time>2021-05-08T13:21:48.000Z</time>
      </trkpt>
      <trkpt lat="48.67041" lon="1.92315">
        <ele>219.95</ele>
        <time>2021-05-08T13:21:55.000Z</time>
      </trkpt>
      <trkpt lat="48.67034" lon="1.92306">
        <ele>220</ele>
        <time>2021-05-08T13:22:03.000Z</time>
      </trkpt>
      <trkpt lat="48.67027" lon="1.92297">
        <ele>220.06</ele>
        <time>2021-05-08T13:22:14.000Z</time>
      </trkpt>
      <trkpt lat="48.67019" lon="1.92289">
        <ele>220.1</ele>
        <time>2021-05-08T13:22:22.000Z</time>
      </trkpt>
      <trkpt lat="48.6701" lon="1.92284">
        <ele>220.13</ele>
        <time>2021-05-08T13:22:30.000Z</time>
      </trkpt>
      <trkpt lat="48.67002" lon="1.92277">
        <ele>220.17</ele>
        <time>2021-05-08T13:22:37.000Z</time>
      </trkpt>
      <trkpt lat="48.66996" lon="1.92266">
        <ele>220.21</ele>
        <time>2021-05-08T13:22:44.000Z</time>
      </trkpt>
      <trkpt lat="48.6699" lon="1.92254">
        <ele>220.26</ele>
        <time>2021-05-08T13:22:52.000Z</time>
      </trkpt>
      <trkpt lat="48.66996" lon="1.92243">
        <ele>220.63</ele>
        <time>2021-05-08T13:24:15.000Z</time>
      </trkpt>
      <trkpt lat="48.67002" lon="1.9223">
        <ele>220.76</ele>
        <time>2021-05-08T13:24:25.000Z</time>
      </trkpt>
      <trkpt lat="48.67006" lon="1.92217">
        <ele>220.87</ele>
        <time>2021-05-08T13:24:34.000Z</time>
      </trkpt>
      <trkpt lat="48.67012" lon="1.92206">
        <ele>220.94</ele>
        <time>2021-05-08T13:24:41.000Z</time>
      </trkpt>
      <trkpt lat="48.67017" lon="1.92194">
        <ele>221</ele>
        <time>2021-05-08T13:24:49.000Z</time>
      </trkpt>
      <trkpt lat="48.67022" lon="1.92182">
        <ele>221.05</ele>
        <time>2021-05-08T13:24:57.000Z</time>
      </trkpt>
      <trkpt lat="48.67026" lon="1.92168">
        <ele>221.1</ele>
        <time>2021-05-08T13:25:05.000Z</time>
      </trkpt>
      <trkpt lat="48.67029" lon="1.92155">
        <ele>221.14</ele>
        <time>2021-05-08T13:25:15.000Z</time>
      </trkpt>
      <trkpt lat="48.67033" lon="1.92141">
        <ele>221.18</ele>
        <time>2021-05-08T13:25:24.000Z</time>
      </trkpt>
      <trkpt lat="48.67037" lon="1.92126">
        <ele>221.2</ele>
        <time>2021-05-08T13:25:31.000Z</time>
      </trkpt>
      <trkpt lat="48.67041" lon="1.92114">
        <ele>221.22</ele>
        <time>2021-05-08T13:25:38.000Z</time>
      </trkpt>
      <trkpt lat="48.67047" lon="1.92103">
        <ele>221.24</ele>
        <time>2021-05-08T13:25:45.000Z</time>
      </trkpt>
      <trkpt lat="48.67053" lon="1.92092">
        <ele>221.26</ele>
        <time>2021-05-08T13:25:56.000Z</time>
      </trkpt>
      <trkpt lat="48.67059" lon="1.9208">
        <ele>221.28</ele>
        <time>2021-05-08T13:26:04.000Z</time>
      </trkpt>
      <trkpt lat="48.67064" lon="1.92067">
        <ele>221.3</ele>
        <time>2021-05-08T13:26:13.000Z</time>
      </trkpt>
      <trkpt lat="48.67069" lon="1.92055">
        <ele>221.31</ele>
        <time>2021-05-08T13:26:21.000Z</time>
      </trkpt>
      <trkpt lat="48.67076" lon="1.92045">
        <ele>221.38</ele>
        <time>2021-05-08T13:27:11.000Z</time>
      </trkpt>
      <trkpt lat="48.67069" lon="1.92037">
        <ele>221.45</ele>
        <time>2021-05-08T13:27:30.000Z</time>
      </trkpt>
      <trkpt lat="48.67077" lon="1.92028">
        <ele>221.44</ele>
        <time>2021-05-08T13:27:54.000Z</time>
      </trkpt>
      <trkpt lat="48.67084" lon="1.92017">
        <ele>221.43</ele>
        <time>2021-05-08T13:28:03.000Z</time>
      </trkpt>
      <trkpt lat="48.67091" lon="1.92007">
        <ele>221.43</ele>
        <time>2021-05-08T13:28:13.000Z</time>
      </trkpt>
      <trkpt lat="48.67098" lon="1.91997">
        <ele>221.43</ele>
        <time>2021-05-08T13:28:22.000Z</time>
      </trkpt>
      <trkpt lat="48.67103" lon="1.91986">
        <ele>221.45</ele>
        <time>2021-05-08T13:28:32.000Z</time>
      </trkpt>
      <trkpt lat="48.67109" lon="1.91975">
        <ele>221.46</ele>
        <time>2021-05-08T13:28:40.000Z</time>
      </trkpt>
      <trkpt lat="48.67116" lon="1.91965">
        <ele>221.47</ele>
        <time>2021-05-08T13:28:48.000Z</time>
      </trkpt>
      <trkpt lat="48.67122" lon="1.91955">
        <ele>221.49</ele>
        <time>2021-05-08T13:28:57.000Z</time>
      </trkpt>
      <trkpt lat="48.67128" lon="1.91945">
        <ele>221.5</ele>
        <time>2021-05-08T13:29:05.000Z</time>
      </trkpt>
      <trkpt lat="48.67134" lon="1.91934">
        <ele>221.5</ele>
        <time>2021-05-08T13:29:15.000Z</time>
      </trkpt>
      <trkpt lat="48.67138" lon="1.9192">
        <ele>221.48</ele>
        <time>2021-05-08T13:29:26.000Z</time>
      </trkpt>
      <trkpt lat="48.67143" lon="1.91908">
        <ele>221.46</ele>
        <time>2021-05-08T13:29:34.000Z</time>
      </trkpt>
      <trkpt lat="48.67148" lon="1.91897">
        <ele>221.44</ele>
        <time>2021-05-08T13:29:43.000Z</time>
      </trkpt>
      <trkpt lat="48.67152" lon="1.91884">
        <ele>221.42</ele>
        <time>2021-05-08T13:29:53.000Z</time>
      </trkpt>
      <trkpt lat="48.67159" lon="1.91873">
        <ele>221.4</ele>
        <time>2021-05-08T13:30:01.000Z</time>
      </trkpt>
      <trkpt lat="48.67165" lon="1.91862">
        <ele>221.38</ele>
        <time>2021-05-08T13:30:08.000Z</time>
      </trkpt>
      <trkpt lat="48.67171" lon="1.91851">
        <ele>221.34</ele>
        <time>2021-05-08T13:30:17.000Z</time>
      </trkpt>
      <trkpt lat="48.67177" lon="1.91839">
        <ele>221.3</ele>
        <time>2021-05-08T13:30:26.000Z</time>
      </trkpt>
      <trkpt lat="48.67183" lon="1.91828">
        <ele>221.25</ele>
        <time>2021-05-08T13:30:35.000Z</time>
      </trkpt>
      <trkpt lat="48.67189" lon="1.91816">
        <ele>221.2</ele>
        <time>2021-05-08T13:30:45.000Z</time>
      </trkpt>
      <trkpt lat="48.67196" lon="1.91807">
        <ele>221.15</ele>
        <time>2021-05-08T13:30:53.000Z</time>
      </trkpt>
      <trkpt lat="48.67204" lon="1.91799">
        <ele>221.1</ele>
        <time>2021-05-08T13:31:03.000Z</time>
      </trkpt>
      <trkpt lat="48.67212" lon="1.91791">
        <ele>221.05</ele>
        <time>2021-05-08T13:31:13.000Z</time>
      </trkpt>
      <trkpt lat="48.67219" lon="1.91782">
        <ele>221</ele>
        <time>2021-05-08T13:31:24.000Z</time>
      </trkpt>
      <trkpt lat="48.67227" lon="1.91775">
        <ele>220.96</ele>
        <time>2021-05-08T13:31:31.000Z</time>
      </trkpt>
      <trkpt lat="48.67234" lon="1.91766">
        <ele>220.93</ele>
        <time>2021-05-08T13:31:38.000Z</time>
      </trkpt>
      <trkpt lat="48.67241" lon="1.91757">
        <ele>220.87</ele>
        <time>2021-05-08T13:31:48.000Z</time>
      </trkpt>
      <trkpt lat="48.67249" lon="1.91748">
        <ele>220.83</ele>
        <time>2021-05-08T13:31:57.000Z</time>
      </trkpt>
      <trkpt lat="48.67256" lon="1.91739">
        <ele>220.8</ele>
        <time>2021-05-08T13:32:04.000Z</time>
      </trkpt>
      <trkpt lat="48.67264" lon="1.9173">
        <ele>220.78</ele>
        <time>2021-05-08T13:32:11.000Z</time>
      </trkpt>
      <trkpt lat="48.67272" lon="1.91722">
        <ele>220.75</ele>
        <time>2021-05-08T13:32:19.000Z</time>
      </trkpt>
      <trkpt lat="48.6728" lon="1.91715">
        <ele>220.71</ele>
        <time>2021-05-08T13:32:30.000Z</time>
      </trkpt>
      <trkpt lat="48.67288" lon="1.91707">
        <ele>220.67</ele>
        <time>2021-05-08T13:32:39.000Z</time>
      </trkpt>
      <trkpt lat="48.67295" lon="1.91698">
        <ele>220.63</ele>
        <time>2021-05-08T13:32:47.000Z</time>
      </trkpt>
      <trkpt lat="48.67302" lon="1.91687">
        <ele>220.58</ele>
        <time>2021-05-08T13:32:55.999Z</time>
      </trkpt>
      <trkpt lat="48.67309" lon="1.91678">
        <ele>220.55</ele>
        <time>2021-05-08T13:33:04.999Z</time>
      </trkpt>
      <trkpt lat="48.67316" lon="1.91668">
        <ele>220.53</ele>
        <time>2021-05-08T13:33:11.999Z</time>
      </trkpt>
      <trkpt lat="48.67323" lon="1.91658">
        <ele>220.51</ele>
        <time>2021-05-08T13:33:19.999Z</time>
      </trkpt>
      <trkpt lat="48.6733" lon="1.91649">
        <ele>220.48</ele>
        <time>2021-05-08T13:33:27.999Z</time>
      </trkpt>
      <trkpt lat="48.67336" lon="1.91638">
        <ele>220.44</ele>
        <time>2021-05-08T13:33:35.999Z</time>
      </trkpt>
      <trkpt lat="48.67344" lon="1.9163">
        <ele>220.39</ele>
        <time>2021-05-08T13:33:43.999Z</time>
      </trkpt>
      <trkpt lat="48.67352" lon="1.91623">
        <ele>220.34</ele>
        <time>2021-05-08T13:33:51.999Z</time>
      </trkpt>
      <trkpt lat="48.67357" lon="1.91612">
        <ele>220.29</ele>
        <time>2021-05-08T13:33:59.999Z</time>
      </trkpt>
      <trkpt lat="48.67365" lon="1.91603">
        <ele>220.23</ele>
        <time>2021-05-08T13:34:08.999Z</time>
      </trkpt>
      <trkpt lat="48.67367" lon="1.9159">
        <ele>220.06</ele>
        <time>2021-05-08T13:35:45.999Z</time>
      </trkpt>
      <trkpt lat="48.67358" lon="1.91587">
        <ele>219.95</ele>
        <time>2021-05-08T13:36:45.999Z</time>
      </trkpt>
      <trkpt lat="48.67365" lon="1.91576">
        <ele>220.29</ele>
        <time>2021-05-08T13:38:14.999Z</time>
      </trkpt>
      <trkpt lat="48.67369" lon="1.91564">
        <ele>220.71</ele>
        <time>2021-05-08T13:38:47.999Z</time>
      </trkpt>
      <trkpt lat="48.67378" lon="1.91559">
        <ele>220.84</ele>
        <time>2021-05-08T13:38:56.999Z</time>
      </trkpt>
      <trkpt lat="48.67386" lon="1.91552">
        <ele>220.93</ele>
        <time>2021-05-08T13:39:04.999Z</time>
      </trkpt>
      <trkpt lat="48.67393" lon="1.91543">
        <ele>220.99</ele>
        <time>2021-05-08T13:39:10.999Z</time>
      </trkpt>
      <trkpt lat="48.67402" lon="1.91537">
        <ele>221.05</ele>
        <time>2021-05-08T13:39:16.999Z</time>
      </trkpt>
      <trkpt lat="48.6741" lon="1.91526">
        <ele>221.11</ele>
        <time>2021-05-08T13:39:23.999Z</time>
      </trkpt>
      <trkpt lat="48.67418" lon="1.91518">
        <ele>221.21</ele>
        <time>2021-05-08T13:39:34.999Z</time>
      </trkpt>
      <trkpt lat="48.67426" lon="1.91512">
        <ele>221.34</ele>
        <time>2021-05-08T13:39:48.999Z</time>
      </trkpt>
      <trkpt lat="48.67435" lon="1.91509">
        <ele>221.39</ele>
        <time>2021-05-08T13:39:54.999Z</time>
      </trkpt>
      <trkpt lat="48.67444" lon="1.91509">
        <ele>221.52</ele>
        <time>2021-05-08T13:40:12.999Z</time>
      </trkpt>
      <trkpt lat="48.67435" lon="1.91498">
        <ele>221.57</ele>
        <time>2021-05-08T13:40:36.999Z</time>
      </trkpt>
      <trkpt lat="48.67436" lon="1.91512">
        <ele>221.64</ele>
        <time>2021-05-08T13:40:49.999Z</time>
      </trkpt>
      <trkpt lat="48.67445" lon="1.91517">
        <ele>221.68</ele>
        <time>2021-05-08T13:40:57.999Z</time>
      </trkpt>
      <trkpt lat="48.67454" lon="1.9152">
        <ele>221.71</ele>
        <time>2021-05-08T13:41:03.999Z</time>
      </trkpt>
      <trkpt lat="48.67464" lon="1.91524">
        <ele>221.74</ele>
        <time>2021-05-08T13:41:12.999Z</time>
      </trkpt>
      <trkpt lat="48.67472" lon="1.91533">
        <ele>221.77</ele>
        <time>2021-05-08T13:41:29.999Z</time>
      </trkpt>
      <trkpt lat="48.67481" lon="1.91536">
        <ele>221.79</ele>
        <time>2021-05-08T13:41:38.999Z</time>
      </trkpt>
      <trkpt lat="48.6749" lon="1.91541">
        <ele>221.8</ele>
        <time>2021-05-08T13:41:43.999Z</time>
      </trkpt>
      <trkpt lat="48.675" lon="1.91545">
        <ele>221.81</ele>
        <time>2021-05-08T13:41:48.999Z</time>
      </trkpt>
      <trkpt lat="48.67509" lon="1.91546">
        <ele>221.83</ele>
        <time>2021-05-08T13:41:56.999Z</time>
      </trkpt>
      <trkpt lat="48.67519" lon="1.91548">
        <ele>221.86</ele>
        <time>2021-05-08T13:42:06.999Z</time>
      </trkpt>
      <trkpt lat="48.67529" lon="1.91551">
        <ele>221.88</ele>
        <time>2021-05-08T13:42:14.999Z</time>
      </trkpt>
      <trkpt lat="48.67538" lon="1.91556">
        <ele>221.91</ele>
        <time>2021-05-08T13:42:22.999Z</time>
      </trkpt>
      <trkpt lat="48.67547" lon="1.91556">
        <ele>221.97</ele>
        <time>2021-05-08T13:42:36.999Z</time>
      </trkpt>
      <trkpt lat="48.67557" lon="1.91557">
        <ele>222.03</ele>
        <time>2021-05-08T13:42:46.999Z</time>
      </trkpt>
      <trkpt lat="48.67566" lon="1.9156">
        <ele>222.07</ele>
        <time>2021-05-08T13:42:56.999Z</time>
      </trkpt>
      <trkpt lat="48.67575" lon="1.91564">
        <ele>222.1</ele>
        <time>2021-05-08T13:43:03.999Z</time>
      </trkpt>
      <trkpt lat="48.67584" lon="1.9157">
        <ele>222.12</ele>
        <time>2021-05-08T13:43:11.999Z</time>
      </trkpt>
      <trkpt lat="48.67591" lon="1.91579">
        <ele>222.14</ele>
        <time>2021-05-08T13:43:22.999Z</time>
      </trkpt>
      <trkpt lat="48.67596" lon="1.91591">
        <ele>222.19</ele>
        <time>2021-05-08T13:43:37.999Z</time>
      </trkpt>
      <trkpt lat="48.67603" lon="1.916">
        <ele>222.28</ele>
        <time>2021-05-08T13:44:09.999Z</time>
      </trkpt>
      <trkpt lat="48.67611" lon="1.91607">
        <ele>222.33</ele>
        <time>2021-05-08T13:44:16.999Z</time>
      </trkpt>
      <trkpt lat="48.6762" lon="1.91608">
        <ele>222.41</ele>
        <time>2021-05-08T13:44:36.999Z</time>
      </trkpt>
      <trkpt lat="48.6763" lon="1.91606">
        <ele>222.61</ele>
        <time>2021-05-08T13:45:11.999Z</time>
      </trkpt>
      <trkpt lat="48.6764" lon="1.9161">
        <ele>222.8</ele>
        <time>2021-05-08T13:45:21.999Z</time>
      </trkpt>
      <trkpt lat="48.67649" lon="1.91613">
        <ele>222.96</ele>
        <time>2021-05-08T13:45:29.999Z</time>
      </trkpt>
      <trkpt lat="48.67658" lon="1.91616">
        <ele>223.16</ele>
        <time>2021-05-08T13:45:40.999Z</time>
      </trkpt>
      <trkpt lat="48.67666" lon="1.91623">
        <ele>223.43</ele>
        <time>2021-05-08T13:46:25.999Z</time>
      </trkpt>
      <trkpt lat="48.67661" lon="1.9161">
        <ele>225</ele>
        <time>2021-05-08T13:48:41.999Z</time>
      </trkpt>
    </trkseg>
  </trk>
</gpx>